BA2551 / G-EUUA 7700 Squawk Report (20th of October, 2021)

Aircraft A320 Reg No. G-EUUA Age 20 years old
Model A320 Jet engines 2 First flight 19-11-01
Registered 31-01-02 Rollout 11-01 Delivered 31-01-02
Construction No. 1661 Line No. N/A Series 232
ADSHEX 40097C Airline name British Airways Owner N/A
Airfield based Heathrow~Gtr London~G First tracked N/A

Flight history for G-EUUA

Route Flight No Date Playback
???? N/A 2021-11-28 07:41:00
???? N/A 2021-11-26 14:09:00
Heathrow (LHR) - Gatwick (LGW) BA9279 2021-11-09 13:13:00
Barcelona–El Prat (BCN) - Heathrow (LHR) BA489 2021-11-09 07:58:00
Heathrow (LHR) - Barcelona–El Prat (BCN) BA488 2021-11-08 20:02:00
Barcelona–El Prat (BCN) - Heathrow (LHR) BA485 2021-11-08 16:34:00
Heathrow (LHR) - Barcelona–El Prat (BCN) BA484 2021-11-08 13:30:00
Edinburgh (EDI) - Heathrow (LHR) BA1439 2021-11-08 10:11:00
Heathrow (LHR) - Edinburgh (EDI) BA1432 2021-11-08 07:38:00
Glasgow (GLA) - Heathrow (LHR) BA1495 2021-11-06 20:03:00
Heathrow (LHR) - Glasgow (GLA) BA1488 2021-11-06 19:05:00
Schiphol (AMS) - Heathrow (LHR) BA431 2021-11-06 11:51:00
Heathrow (LHR) - Schiphol (AMS) BA430 2021-11-06 11:05:00
Copenhagen Airport (CPH) - Heathrow (LHR) BA811 2021-11-06 07:04:00
Heathrow (LHR) - Copenhagen Airport (CPH) BA822 2021-11-06 05:32:00
Sofia (SOF) - Heathrow (LHR) BA891 2021-11-05 19:12:00
Heathrow (LHR) - Sofia (SOF) BA890 2021-11-05 10:53:00
Geneve Cointrin (GVA) - Heathrow (LHR) BA735 2021-11-04 19:25:00
Heathrow (LHR) - Geneve Cointrin (GVA) BA734 2021-11-04 16:38:00
Manchester (MAN) - Heathrow (LHR) BA1395 2021-11-04 13:58:00
Time Lat Lon Altitude Heading Speed Vertical Rate
2021-10-20 21:29:59 GMT 51.471279 -0.486368 0 270 0 0
2021-10-20 21:29:56 GMT 51.471272 -0.486374 0 270 0 0
2021-10-20 21:29:54 GMT 51.471272 -0.486374 0 270 0 0
2021-10-20 21:29:53 GMT 51.471272 -0.486374 0 270 0 0
2021-10-20 21:29:51 GMT 51.471287 -0.486374 0 270 0 0
2021-10-20 21:29:49 GMT 51.471279 -0.486368 0 270 0 0
2021-10-20 21:29:48 GMT 51.471291 -0.486368 0 270 0 0
2021-10-20 21:29:47 GMT 51.471302 -0.486368 0 270 0 0
2021-10-20 21:29:45 GMT 51.471302 -0.486368 0 270 0 0
2021-10-20 21:29:44 GMT 51.471313 -0.486368 0 270 0 0
2021-10-20 21:29:43 GMT 51.471313 -0.486368 0 270 0 0
2021-10-20 21:29:41 GMT 51.471313 -0.486368 0 270 1 0
2021-10-20 21:29:39 GMT 51.471310 -0.486336 0 270 2 0
2021-10-20 21:29:37 GMT 51.471310 -0.486317 0 270 1 0
2021-10-20 21:29:33 GMT 51.471321 -0.486298 0 270 1 0
2021-10-20 21:29:31 GMT 51.471313 -0.486275 0 270 1 0
2021-10-20 21:29:28 GMT 51.471310 -0.486259 0 270 2 0
2021-10-20 21:29:26 GMT 51.471313 -0.486238 0 270 2 0
2021-10-20 21:29:25 GMT 51.471294 -0.486202 0 270 3 0
2021-10-20 21:29:23 GMT 51.471313 -0.486238 0 270 3 0
2021-10-20 21:29:22 GMT 51.471313 -0.486219 0 270 3 0
2021-10-20 21:29:21 GMT 51.471313 -0.486201 0 270 3 0
2021-10-20 21:29:19 GMT 51.471310 -0.486164 0 270 3 0
2021-10-20 21:29:17 GMT 51.471313 -0.486126 0 270 3 0
2021-10-20 21:29:15 GMT 51.471355 -0.486069 0 270 3 0
2021-10-20 21:29:13 GMT 51.471355 -0.486031 0 270 3 0
2021-10-20 21:29:12 GMT 51.471348 -0.485997 0 270 3 0
2021-10-20 21:29:09 GMT 51.471355 -0.485935 0 270 4 0
2021-10-20 21:29:07 GMT 51.471355 -0.485916 0 270 4 0
2021-10-20 21:29:06 GMT 51.471359 -0.485867 0 270 4 0
2021-10-20 21:29:05 GMT 51.471355 -0.485840 0 270 4 0
2021-10-20 21:29:03 GMT 51.471359 -0.485792 0 270 4 0
2021-10-20 21:29:02 GMT 51.471355 -0.485783 0 270 4 0
2021-10-20 21:29:01 GMT 51.471355 -0.485764 0 270 4 0
2021-10-20 21:29:00 GMT 51.471355 -0.485706 0 270 4 0
2021-10-20 21:28:57 GMT 51.471355 -0.485649 0 267 4 0
2021-10-20 21:28:56 GMT 51.471355 -0.485630 0 267 5 0
2021-10-20 21:28:47 GMT 51.471325 -0.485254 0 236 7 0
2021-10-20 21:28:46 GMT 51.471336 -0.485199 0 230 7 0
2021-10-20 21:28:39 GMT 51.471451 -0.484957 0 185 5 0
2021-10-20 21:28:27 GMT 51.471600 -0.484939 0 180 0 0
2021-10-20 21:28:17 GMT 51.471600 -0.484924 0 180 0 0
2021-10-20 21:28:06 GMT 51.471611 -0.484924 0 180 0 0
2021-10-20 21:27:56 GMT 51.471611 -0.484939 0 180 0 0
2021-10-20 21:27:46 GMT 51.471600 -0.484939 0 180 0 0
2021-10-20 21:27:36 GMT 51.471611 -0.484924 0 180 0 0
2021-10-20 21:27:22 GMT 51.471611 -0.484920 0 180 0 0
2021-10-20 21:27:17 GMT 51.471611 -0.484905 0 180 0 0
2021-10-20 21:26:57 GMT 51.471611 -0.484902 0 180 0 0
2021-10-20 21:26:46 GMT 51.471611 -0.484905 0 180 0 0
2021-10-20 21:26:31 GMT 51.471622 -0.484920 0 180 0 0
2021-10-20 21:26:27 GMT 51.471622 -0.484924 0 180 0 0
2021-10-20 21:26:12 GMT 51.471622 -0.484902 0 180 0 0
2021-10-20 21:26:08 GMT 51.471622 -0.484886 0 180 0 0
2021-10-20 21:25:58 GMT 51.471634 -0.484902 0 180 0 0
2021-10-20 21:25:48 GMT 51.471657 -0.484886 0 180 3 0
2021-10-20 21:25:45 GMT 51.471691 -0.484883 0 180 4 0
2021-10-20 21:25:44 GMT 51.471714 -0.484886 0 180 4 0
2021-10-20 21:25:41 GMT 51.471748 -0.484883 0 180 4 0
2021-10-20 21:25:39 GMT 51.471786 -0.484886 0 180 4 0
2021-10-20 21:25:38 GMT 51.471798 -0.484886 0 180 4 0
2021-10-20 21:25:37 GMT 51.471817 -0.484883 0 180 5 0
2021-10-20 21:25:36 GMT 51.471832 -0.484886 0 180 5 0
2021-10-20 21:25:34 GMT 51.471897 -0.484883 0 180 7 0
2021-10-20 21:25:33 GMT 51.471924 -0.484886 0 180 8 0
2021-10-20 21:25:32 GMT 51.471943 -0.484883 0 180 8 0
2021-10-20 21:25:31 GMT 51.472031 -0.484886 0 180 11 0
2021-10-20 21:25:29 GMT 51.472092 -0.484902 0 180 12 0
2021-10-20 21:25:26 GMT 51.472263 -0.484902 0 180 13 0
2021-10-20 21:25:25 GMT 51.472321 -0.484902 0 180 14 0
2021-10-20 21:25:22 GMT 51.472515 -0.484902 0 180 16 0
2021-10-20 21:25:21 GMT 51.472584 -0.484902 0 180 16 0
2021-10-20 21:25:19 GMT 51.472729 -0.484905 0 180 16 0
2021-10-20 21:25:18 GMT 51.472797 -0.484905 0 180 16 0
2021-10-20 21:25:17 GMT 51.472870 -0.484902 0 180 16 0
2021-10-20 21:25:15 GMT 51.473019 -0.484905 0 180 16 0
2021-10-20 21:25:14 GMT 51.473099 -0.484902 0 180 16 0
2021-10-20 21:25:13 GMT 51.473240 -0.484905 0 180 16 0
2021-10-20 21:25:09 GMT 51.473392 -0.484905 0 180 16 0
2021-10-20 21:25:08 GMT 51.473511 -0.484902 0 180 15 0
2021-10-20 21:25:06 GMT 51.473637 -0.484905 0 180 15 0
2021-10-20 21:25:04 GMT 51.473740 -0.484905 0 177 15 0
2021-10-20 21:25:03 GMT 51.473824 -0.484905 0 180 15 0
2021-10-20 21:25:02 GMT 51.473877 -0.484902 0 180 15 0
2021-10-20 21:25:00 GMT 51.474060 -0.484902 0 180 14 0
2021-10-20 21:24:57 GMT 51.474194 -0.484905 0 180 14 0
2021-10-20 21:24:55 GMT 51.474312 -0.484920 0 180 14 0
2021-10-20 21:24:54 GMT 51.474380 -0.484924 0 180 14 0
2021-10-20 21:24:51 GMT 51.474564 -0.484920 0 180 13 0
2021-10-20 21:24:50 GMT 51.474678 -0.484920 0 180 13 0
2021-10-20 21:24:48 GMT 51.474743 -0.484924 0 180 13 0
2021-10-20 21:24:45 GMT 51.474880 -0.484924 0 180 12 0
2021-10-20 21:24:42 GMT 51.475033 -0.484924 0 180 11 0
2021-10-20 21:24:41 GMT 51.475101 -0.484920 0 180 11 0
2021-10-20 21:24:38 GMT 51.475239 -0.484939 0 182 9 0
2021-10-20 21:24:37 GMT 51.475334 -0.484924 0 196 9 0
2021-10-20 21:24:35 GMT 51.475376 -0.484920 0 194 9 0
2021-10-20 21:24:34 GMT 51.475422 -0.484920 0 196 9 0
2021-10-20 21:24:32 GMT 51.475498 -0.484905 0 208 9 0
2021-10-20 21:24:30 GMT 51.475555 -0.484886 0 219 9 0
2021-10-20 21:24:28 GMT 51.475628 -0.484827 0 233 9 0
2021-10-20 21:24:27 GMT 51.475662 -0.484791 0 239 9 0
2021-10-20 21:24:26 GMT 51.475719 -0.484697 0 250 9 0
2021-10-20 21:24:24 GMT 51.475731 -0.484642 0 253 9 0
2021-10-20 21:24:23 GMT 51.475765 -0.484530 0 261 9 0
2021-10-20 21:24:20 GMT 51.475788 -0.484390 0 267 10 0
2021-10-20 21:24:18 GMT 51.475800 -0.484234 0 270 11 0
2021-10-20 21:24:16 GMT 51.475788 -0.484141 0 270 12 0
2021-10-20 21:24:12 GMT 51.475800 -0.483732 0 270 15 0
2021-10-20 21:24:09 GMT 51.475788 -0.483361 0 270 16 0
2021-10-20 21:24:07 GMT 51.475788 -0.483150 0 270 16 0
2021-10-20 21:24:04 GMT 51.475800 -0.482807 0 270 18 0
2021-10-20 21:23:56 GMT 51.475811 -0.481747 0 270 21 0
2021-10-20 21:23:52 GMT 51.475811 -0.481014 0 270 22 0
2021-10-20 21:23:51 GMT 51.475800 -0.480862 0 270 23 0
2021-10-20 21:23:49 GMT 51.475811 -0.480541 0 270 23 0
2021-10-20 21:23:47 GMT 51.475811 -0.480188 0 270 24 0
2021-10-20 21:23:41 GMT 51.475811 -0.479204 0 270 24 0
2021-10-20 21:23:37 GMT 51.475811 -0.478497 0 270 24 0
2021-10-20 21:23:33 GMT 51.475811 -0.477772 0 270 23 0
2021-10-20 21:23:30 GMT 51.475822 -0.477276 0 270 23 0
2021-10-20 21:23:23 GMT 51.475822 -0.476049 0 270 23 0
2021-10-20 21:23:21 GMT 51.475822 -0.475826 0 270 23 0
2021-10-20 21:23:16 GMT 51.475822 -0.474987 0 270 22 0
2021-10-20 21:23:12 GMT 51.475822 -0.474398 0 270 22 0
2021-10-20 21:23:09 GMT 51.475834 -0.473841 0 270 22 0
2021-10-20 21:23:07 GMT 51.475834 -0.473518 0 270 23 0
2021-10-20 21:23:02 GMT 51.475834 -0.472679 0 270 24 0
2021-10-20 21:23:00 GMT 51.475834 -0.472317 0 270 26 0
2021-10-20 21:22:58 GMT 51.475834 -0.471935 0 270 27 0
2021-10-20 21:22:57 GMT 51.475834 -0.471725 0 270 27 0
2021-10-20 21:22:54 GMT 51.475845 -0.471077 0 270 27 0
2021-10-20 21:22:52 GMT 51.475845 -0.470486 0 270 27 0
2021-10-20 21:22:50 GMT 51.475845 -0.470278 0 270 27 0
2021-10-20 21:22:48 GMT 51.475857 -0.469888 0 267 27 0
2021-10-20 21:22:46 GMT 51.475868 -0.469513 0 267 27 0
2021-10-20 21:22:45 GMT 51.475880 -0.469294 0 267 27 0
2021-10-20 21:22:43 GMT 51.475891 -0.468903 0 267 27 0
2021-10-20 21:22:42 GMT 51.475891 -0.468693 0 267 27 0
2021-10-20 21:22:41 GMT 51.475906 -0.468483 0 267 26 0
2021-10-20 21:22:36 GMT 51.475929 -0.467587 0 270 25 0
2021-10-20 21:22:34 GMT 51.475937 -0.466919 0 270 25 0
2021-10-20 21:22:31 GMT 51.475937 -0.466752 0 270 25 0
2021-10-20 21:22:26 GMT 51.475937 -0.465917 0 270 24 0
2021-10-20 21:22:17 GMT 51.475937 -0.464358 0 270 24 0
2021-10-20 21:22:13 GMT 51.475948 -0.463727 0 270 24 0
2021-10-20 21:22:09 GMT 51.475952 -0.462971 0 270 24 0
2021-10-20 21:22:03 GMT 51.475960 -0.461797 0 270 22 0
2021-10-20 21:21:53 GMT 51.475960 -0.460405 0 270 20 0
2021-10-20 21:21:47 GMT 51.475964 -0.459499 0 270 19 0
2021-10-20 21:21:46 GMT 51.475964 -0.459366 0 270 19 0
2021-10-20 21:21:44 GMT 51.475960 -0.459050 0 270 19 0
2021-10-20 21:21:41 GMT 51.475964 -0.458736 0 270 18 0
2021-10-20 21:21:10 GMT 51.475986 -0.455513 0 253 10 0
2021-10-20 21:21:07 GMT 51.476006 -0.455339 0 239 10 0
2021-10-20 21:21:04 GMT 51.476082 -0.455112 0 219 9 0
2021-10-20 21:21:03 GMT 51.476097 -0.455060 0 213 9 0
2021-10-20 21:21:01 GMT 51.476162 -0.454960 0 202 9 0
2021-10-20 21:21:00 GMT 51.476185 -0.454922 0 196 9 0
2021-10-20 21:20:59 GMT 51.476231 -0.454903 0 194 8 0
2021-10-20 21:20:55 GMT 51.476360 -0.454838 0 180 11 0
2021-10-20 21:20:52 GMT 51.476475 -0.454838 0 180 11 0
2021-10-20 21:20:44 GMT 51.476944 -0.454875 0 165 15 0
2021-10-20 21:20:41 GMT 51.477139 -0.454912 0 151 15 0
2021-10-20 21:20:40 GMT 51.477196 -0.454960 0 146 14 0
2021-10-20 21:20:39 GMT 51.477325 -0.455074 0 135 14 0
2021-10-20 21:20:35 GMT 51.477459 -0.455283 0 118 13 0
2021-10-20 21:20:34 GMT 51.477489 -0.455341 0 115 13 0
2021-10-20 21:20:32 GMT 51.477547 -0.455513 0 104 13 0
2021-10-20 21:20:31 GMT 51.477562 -0.455599 0 101 14 0
2021-10-20 21:20:30 GMT 51.477585 -0.455691 0 95 14 0
2021-10-20 21:20:28 GMT 51.477596 -0.455877 0 92 15 0
2021-10-20 21:20:23 GMT 51.477608 -0.456693 0 90 31 0
2021-10-20 21:20:22 GMT 51.477608 -0.456898 0 90 33 0
2021-10-20 21:20:19 GMT 51.477604 -0.457420 0 90 35 0
2021-10-20 21:20:18 GMT 51.477608 -0.457844 0 90 41 0
2021-10-20 21:20:16 GMT 51.477604 -0.460472 0 90 65 0
2021-10-20 21:20:11 GMT 51.477604 -0.460472 0 90 65 0
2021-10-20 21:20:09 GMT 51.477596 -0.461203 0 90 69 0
2021-10-20 21:20:07 GMT 51.477585 -0.465880 0 90 92 0
2021-10-20 21:20:01 GMT 51.477585 -0.465880 0 90 94 0
2021-10-20 21:19:59 GMT 51.477585 -0.467884 775 90 103 0
2021-10-20 21:19:58 GMT 51.477585 -0.467884 775 90 103 -64
2021-10-20 21:19:56 GMT 51.477604 -0.469513 775 90 107 -64
2021-10-20 21:19:55 GMT 51.477585 -0.470334 775 89 116 -64
2021-10-20 21:19:53 GMT 51.477558 -0.473862 750 88 124 -128
2021-10-20 21:19:51 GMT 51.477558 -0.473862 750 89 127 -64
2021-10-20 21:19:49 GMT 51.477558 -0.475235 750 89 131 -64
2021-10-20 21:19:46 GMT 51.477558 -0.478516 750 90 138 -128
2021-10-20 21:19:45 GMT 51.477558 -0.480881 750 89 140 -576
2021-10-20 21:19:42 GMT 51.477558 -0.482483 800 89 140 -576
2021-10-20 21:19:40 GMT 51.477558 -0.484695 800 89 140 -704
2021-10-20 21:19:39 GMT 51.477539 -0.485700 825 89 140 -704
2021-10-20 21:19:38 GMT 51.477512 -0.486908 825 89 139 -704
2021-10-20 21:19:35 GMT 51.477512 -0.490112 875 89 139 -832
2021-10-20 21:19:34 GMT 51.477493 -0.491044 900 89 139 -832
2021-10-20 21:19:33 GMT 51.477512 -0.492096 925 89 139 -768
2021-10-20 21:19:31 GMT 51.477512 -0.494080 925 89 138 -704
2021-10-20 21:19:30 GMT 51.477493 -0.495053 950 90 138 -704
2021-10-20 21:19:29 GMT 51.477512 -0.496140 975 90 138 -704
2021-10-20 21:19:27 GMT 51.477512 -0.498123 1,000 90 139 -768
2021-10-20 21:19:25 GMT 51.477512 -0.500107 1,000 89 138 -768
2021-10-20 21:19:24 GMT 51.477467 -0.501633 1,025 89 138 -768
2021-10-20 21:19:22 GMT 51.477467 -0.503769 1,075 89 137 -768
2021-10-20 21:19:20 GMT 51.477448 -0.505742 1,075 89 137 -768
2021-10-20 21:19:16 GMT 51.477467 -0.509338 1,100 89 136 -704
2021-10-20 21:19:15 GMT 51.477467 -0.510406 1,125 89 136 -768
2021-10-20 21:19:14 GMT 51.477448 -0.512275 1,150 89 135 -832
2021-10-20 21:19:13 GMT 51.477417 -0.513077 1,150 89 135 -832
2021-10-20 21:19:12 GMT 51.477448 -0.514205 1,175 89 135 -768
2021-10-20 21:19:10 GMT 51.477448 -0.516209 1,200 89 134 -768
2021-10-20 21:19:09 GMT 51.477417 -0.517197 1,200 89 134 -768
2021-10-20 21:19:08 GMT 51.477417 -0.518188 1,225 89 134 -704
2021-10-20 21:19:06 GMT 51.477417 -0.520172 1,250 90 134 -704
2021-10-20 21:19:05 GMT 51.477402 -0.521257 1,250 90 134 -704
2021-10-20 21:19:03 GMT 51.477417 -0.523148 1,275 89 134 -704
2021-10-20 21:19:02 GMT 51.477417 -0.524139 1,300 89 134 -704
2021-10-20 21:19:01 GMT 51.477402 -0.526601 1,325 89 133 -640
2021-10-20 21:18:59 GMT 51.477417 -0.527496 1,325 89 132 -704
2021-10-20 21:18:58 GMT 51.477371 -0.528259 1,350 89 132 -768
2021-10-20 21:18:57 GMT 51.477371 -0.528793 1,350 89 131 -768
2021-10-20 21:18:55 GMT 51.477371 -0.531235 1,400 89 131 -704
2021-10-20 21:18:54 GMT 51.477371 -0.532303 1,400 89 130 -704
2021-10-20 21:18:52 GMT 51.477356 -0.534322 1,425 89 130 -704
2021-10-20 21:18:51 GMT 51.477371 -0.535202 1,425 89 130 -704
2021-10-20 21:18:49 GMT 51.477325 -0.537033 1,475 89 130 -704
2021-10-20 21:18:47 GMT 51.477356 -0.538924 1,475 90 130 -576
2021-10-20 21:18:45 GMT 51.477356 -0.540112 1,500 90 130 -576
2021-10-20 21:18:44 GMT 51.477325 -0.542068 1,500 89 129 -576
2021-10-20 21:18:41 GMT 51.477310 -0.544194 1,550 89 129 -640
2021-10-20 21:18:40 GMT 51.477325 -0.545120 1,550 89 128 -640
2021-10-20 21:18:38 GMT 51.477310 -0.547164 1,575 89 128 -640
2021-10-20 21:18:37 GMT 51.477310 -0.548129 1,575 89 128 -576
2021-10-20 21:18:36 GMT 51.477280 -0.549088 1,600 89 128 -576
2021-10-20 21:18:34 GMT 51.477280 -0.550842 1,625 89 128 -576
2021-10-20 21:18:33 GMT 51.477280 -0.551834 1,625 89 128 -576
2021-10-20 21:18:31 GMT 51.477264 -0.553770 1,650 89 127 -512
2021-10-20 21:18:30 GMT 51.477234 -0.554733 1,675 89 127 -576
2021-10-20 21:18:28 GMT 51.477234 -0.556335 1,675 89 127 -512
2021-10-20 21:18:27 GMT 51.477219 -0.557630 1,700 89 127 -576
2021-10-20 21:18:25 GMT 51.477219 -0.559486 1,700 89 128 -576
2021-10-20 21:18:23 GMT 51.477184 -0.561295 1,725 89 128 -576
2021-10-20 21:18:22 GMT 51.477219 -0.562159 1,750 89 129 -576
2021-10-20 21:18:21 GMT 51.477184 -0.563202 1,750 89 129 -576
2021-10-20 21:18:20 GMT 51.477173 -0.566019 1,750 89 131 -576
2021-10-20 21:18:18 GMT 51.477173 -0.566019 1,775 89 132 -640
2021-10-20 21:18:16 GMT 51.477184 -0.567780 1,800 89 134 -704
2021-10-20 21:18:15 GMT 51.477173 -0.569211 1,825 89 135 -768
2021-10-20 21:18:13 GMT 51.477139 -0.570831 1,825 89 136 -768
2021-10-20 21:18:12 GMT 51.477139 -0.571823 1,850 89 137 -832
2021-10-20 21:18:11 GMT 51.477139 -0.575027 1,900 89 140 -832
2021-10-20 21:18:08 GMT 51.477093 -0.576019 1,900 89 140 -832
2021-10-20 21:18:07 GMT 51.477127 -0.577525 1,925 89 142 -896
2021-10-20 21:18:05 GMT 51.477081 -0.579603 1,950 90 145 -960
2021-10-20 21:18:02 GMT 51.477081 -0.583166 2,025 90 147 -896
2021-10-20 21:17:59 GMT 51.477093 -0.585403 2,050 90 149 -896
2021-10-20 21:17:56 GMT 51.477081 -0.588585 2,100 90 158 -704
2021-10-20 21:17:53 GMT 51.477081 -0.595786 2,125 90 158 -704
2021-10-20 21:17:50 GMT 51.477081 -0.595786 2,175 89 161 -768
2021-10-20 21:17:47 GMT 51.477081 -0.599349 2,175 89 162 -704
2021-10-20 21:17:44 GMT 51.477047 -0.603256 2,225 89 165 -832
2021-10-20 21:17:42 GMT 51.477036 -0.605213 2,225 89 165 -832
2021-10-20 21:17:39 GMT 51.477036 -0.609147 2,300 89 166 -896
2021-10-20 21:17:36 GMT 51.476990 -0.612859 2,300 89 167 -832
2021-10-20 21:17:33 GMT 51.476990 -0.617016 2,375 89 167 -832
2021-10-20 21:17:30 GMT 51.476990 -0.620802 2,450 89 168 -832
2021-10-20 21:17:26 GMT 51.476944 -0.623771 2,525 89 169 -896
2021-10-20 21:17:24 GMT 51.476952 -0.630264 2,525 89 169 -896
2021-10-20 21:17:22 GMT 51.476944 -0.633495 2,550 89 170 -896
2021-10-20 21:17:19 GMT 51.476944 -0.633495 2,575 89 170 -960
2021-10-20 21:17:17 GMT 51.476906 -0.637054 2,600 89 171 -1024
2021-10-20 21:17:14 GMT 51.476860 -0.642700 2,675 89 171 -960
2021-10-20 21:17:12 GMT 51.476860 -0.642700 2,700 89 171 -1024
2021-10-20 21:17:09 GMT 51.476852 -0.646263 2,750 89 171 -896
2021-10-20 21:17:07 GMT 51.476807 -0.653464 2,800 89 172 -832
2021-10-20 21:17:04 GMT 51.476807 -0.653464 2,800 89 172 -832
2021-10-20 21:17:02 GMT 51.476814 -0.655441 2,850 89 174 -896
2021-10-20 21:16:59 GMT 51.476807 -0.660145 2,900 89 174 -896
2021-10-20 21:16:56 GMT 51.476761 -0.664821 3,075 89 177 -896
2021-10-20 21:16:53 GMT 51.476765 -0.666656 2,975 89 175 -1024
2021-10-20 21:16:51 GMT 51.476765 -0.670090 3,050 89 176 -960
2021-10-20 21:16:48 GMT 51.476719 -0.673370 3,050 89 176 -960
2021-10-20 21:16:46 GMT 51.476719 -0.676193 3,100 89 176 -960
2021-10-20 21:16:43 GMT 51.476673 -0.679703 3,150 89 177 -960
2021-10-20 21:16:41 GMT 51.476673 -0.683136 3,300 89 179 -1024
2021-10-20 21:16:38 GMT 51.476627 -0.686951 3,200 89 178 -1024
2021-10-20 21:16:35 GMT 51.476582 -0.695801 3,300 89 179 -1088
2021-10-20 21:16:32 GMT 51.476582 -0.695801 3,350 89 179 -1024
2021-10-20 21:16:29 GMT 51.476578 -0.698894 3,375 89 180 -1024
2021-10-20 21:16:26 GMT 51.476532 -0.705649 3,425 89 181 -1024
2021-10-20 21:16:24 GMT 51.476532 -0.705649 3,475 89 181 -1024
2021-10-20 21:16:22 GMT 51.476486 -0.708767 3,600 89 183 -960
2021-10-20 21:16:19 GMT 51.476486 -0.711587 3,550 89 182 -1024
2021-10-20 21:16:17 GMT 51.476486 -0.714334 3,575 89 183 -1024
2021-10-20 21:16:14 GMT 51.476440 -0.719011 3,650 89 183 -1024
2021-10-20 21:16:12 GMT 51.476440 -0.722054 3,675 89 184 -960
2021-10-20 21:16:09 GMT 51.476440 -0.726089 3,750 89 186 -832
2021-10-20 21:16:06 GMT 51.476395 -0.730739 3,775 89 186 -768
2021-10-20 21:16:03 GMT 51.476395 -0.734634 3,825 89 186 -1280
2021-10-20 21:16:01 GMT 51.476395 -0.736826 3,875 89 187 -896
2021-10-20 21:15:58 GMT 51.476349 -0.740612 3,900 89 188 -896
2021-10-20 21:15:56 GMT 51.476349 -0.742874 3,925 89 188 -896
2021-10-20 21:15:53 GMT 51.476349 -0.747757 3,950 89 189 -960
2021-10-20 21:15:51 GMT 51.476299 -0.750427 4,025 89 189 -1024
2021-10-20 21:15:48 GMT 51.476257 -0.755087 4,050 89 190 -1024
2021-10-20 21:15:46 GMT 51.476212 -0.761471 4,100 89 191 -896
2021-10-20 21:15:43 GMT 51.476212 -0.761471 4,125 89 191 -1024
2021-10-20 21:15:41 GMT 51.476162 -0.767822 4,225 89 191 -960
2021-10-20 21:15:38 GMT 51.476162 -0.767822 4,200 89 191 -960
2021-10-20 21:15:36 GMT 51.476166 -0.771567 4,250 89 192 -896
2021-10-20 21:15:33 GMT 51.476120 -0.776169 4,300 89 193 -1088
2021-10-20 21:15:31 GMT 51.476116 -0.780258 4,375 89 193 -1216
2021-10-20 21:15:28 GMT 51.476067 -0.783081 4,375 89 193 -1216
2021-10-20 21:15:26 GMT 51.476074 -0.786933 4,425 89 194 -1216
2021-10-20 21:15:23 GMT 51.476074 -0.790570 4,475 89 194 -1152
2021-10-20 21:15:21 GMT 51.476021 -0.797653 4,550 89 193 -1280
2021-10-20 21:15:18 GMT 51.475975 -0.800552 4,600 89 193 -1088
2021-10-20 21:15:16 GMT 51.475975 -0.800552 4,650 89 193 -1344
2021-10-20 21:15:13 GMT 51.475929 -0.804901 4,675 89 193 -1280
2021-10-20 21:15:11 GMT 51.475929 -0.808029 4,750 89 193 -1280
2021-10-20 21:15:08 GMT 51.475891 -0.811801 4,800 89 193 -1216
2021-10-20 21:15:06 GMT 51.475891 -0.814621 4,850 89 193 -1152
2021-10-20 21:15:03 GMT 51.475834 -0.818253 4,900 89 193 -1280
2021-10-20 21:15:01 GMT 51.475845 -0.822564 4,975 89 193 -1152
2021-10-20 21:14:58 GMT 51.475834 -0.826645 5,000 89 193 -1216
2021-10-20 21:14:55 GMT 51.475834 -0.829468 5,075 89 194 -1280
2021-10-20 21:14:52 GMT 51.475788 -0.835266 5,100 89 194 -1152
2021-10-20 21:14:49 GMT 51.475742 -0.842896 5,200 89 194 -1088
2021-10-20 21:14:47 GMT 51.475742 -0.842896 5,250 89 194 -896
2021-10-20 21:14:43 GMT 51.475708 -0.848100 5,300 89 194 -960
2021-10-20 21:14:41 GMT 51.475662 -0.850104 5,375 89 195 -896
2021-10-20 21:14:38 GMT 51.475651 -0.853806 5,350 88 195 -1024
2021-10-20 21:14:36 GMT 51.475571 -0.858047 5,450 88 196 -1024
2021-10-20 21:14:33 GMT 51.475510 -0.862274 5,450 88 197 -896
2021-10-20 21:14:30 GMT 51.475388 -0.869553 5,525 88 198 -768
2021-10-20 21:14:27 GMT 51.475388 -0.869553 5,525 88 198 -768
2021-10-20 21:14:25 GMT 51.475323 -0.873871 5,550 88 199 -704
2021-10-20 21:14:22 GMT 51.475231 -0.878372 5,575 87 200 -768
2021-10-20 21:14:19 GMT 51.475044 -0.884171 5,650 86 202 -896
2021-10-20 21:14:16 GMT 51.474976 -0.887146 5,700 86 202 -960
2021-10-20 21:14:13 GMT 51.474766 -0.891876 5,750 85 201 -704
2021-10-20 21:14:11 GMT 51.474670 -0.894165 5,775 85 200 -576
2021-10-20 21:14:09 GMT 51.474438 -0.898285 5,775 84 200 -384
2021-10-20 21:14:06 GMT 51.474018 -0.904465 5,800 82 201 -64
2021-10-20 21:14:03 GMT 51.473831 -0.906669 5,800 80 202 -320
2021-10-20 21:14:01 GMT 51.473507 -0.909882 5,850 77 201 -640
2021-10-20 21:13:58 GMT 51.472996 -0.913467 5,825 76 203 -640
2021-10-20 21:13:55 GMT 51.472202 -0.918121 5,875 69 203 -512
2021-10-20 21:13:52 GMT 51.471359 -0.921812 5,900 66 205 -576
2021-10-20 21:13:50 GMT 51.470352 -0.925301 5,925 63 206 -704
2021-10-20 21:13:48 GMT 51.469688 -0.927200 5,950 60 206 -640
2021-10-20 21:13:46 GMT 51.466850 -0.934982 5,975 59 209 -576
2021-10-20 21:13:43 GMT 51.466850 -0.934982 6,000 59 208 -640
2021-10-20 21:13:41 GMT 51.465874 -0.937653 6,025 59 209 -576
2021-10-20 21:13:38 GMT 51.464722 -0.940816 6,075 58 211 -576
2021-10-20 21:13:35 GMT 51.463074 -0.945047 6,100 57 212 -576
2021-10-20 21:13:32 GMT 51.461124 -0.949860 6,100 55 214 -448
2021-10-20 21:13:29 GMT 51.460007 -0.952544 6,125 53 215 -640
2021-10-20 21:13:27 GMT 51.458752 -0.955200 6,150 52 216 -640
2021-10-20 21:13:25 GMT 51.457535 -0.957666 6,150 49 217 -448
2021-10-20 21:13:22 GMT 51.455120 -0.961914 6,175 37 221 -576
2021-10-20 21:13:19 GMT 51.453186 -0.964644 6,200 37 221 -576
2021-10-20 21:13:17 GMT 51.451538 -0.966574 6,225 33 222 -576
2021-10-20 21:13:15 GMT 51.449020 -0.968950 6,250 24 224 -832
2021-10-20 21:13:12 GMT 51.443619 -0.972364 6,300 20 224 -768
2021-10-20 21:13:10 GMT 51.443619 -0.972364 6,325 15 225 -768
2021-10-20 21:13:07 GMT 51.442017 -0.973032 6,350 9 226 -832
2021-10-20 21:13:05 GMT 51.440048 -0.973552 6,400 4 226 -832
2021-10-20 21:13:02 GMT 51.436432 -0.974220 6,425 2 227 -704
2021-10-20 21:12:59 GMT 51.432728 -0.974350 6,450 0 229 -384
2021-10-20 21:12:56 GMT 51.429935 -0.974350 6,450 0 231 -384
2021-10-20 21:12:54 GMT 51.427734 -0.974294 6,500 358 232 -640
2021-10-20 21:12:51 GMT 51.424812 -0.974197 6,575 357 233 -768
2021-10-20 21:12:48 GMT 51.421921 -0.973923 6,525 355 233 -832
2021-10-20 21:12:46 GMT 51.419273 -0.973511 6,625 350 233 -1088
2021-10-20 21:12:43 GMT 51.417206 -0.972958 6,625 350 233 -1088
2021-10-20 21:12:41 GMT 51.413921 -0.971756 6,675 343 234 -960
2021-10-20 21:12:39 GMT 51.412445 -0.970954 6,700 340 234 -1024
2021-10-20 21:12:37 GMT 51.407639 -0.967391 6,725 334 234 -1344
2021-10-20 21:12:35 GMT 51.407639 -0.967391 6,800 328 234 -1216
2021-10-20 21:12:32 GMT 51.405029 -0.964793 7,025 325 234 -1024
2021-10-20 21:12:29 GMT 51.403015 -0.962343 6,875 320 233 -960
2021-10-20 21:12:27 GMT 51.401505 -0.960190 6,900 316 233 -1088
2021-10-20 21:12:25 GMT 51.399673 -0.957147 7,000 309 232 -1472
2021-10-20 21:12:22 GMT 51.397568 -0.952990 7,025 305 231 -1408
2021-10-20 21:12:19 GMT 51.395859 -0.948868 7,100 301 230 -1536
2021-10-20 21:12:16 GMT 51.394463 -0.944977 7,250 300 231 -1856
2021-10-20 21:12:14 GMT 51.392227 -0.938568 7,300 300 231 -1856
2021-10-20 21:12:09 GMT 51.390598 -0.934067 7,375 300 231 -1856
2021-10-20 21:12:07 GMT 51.389526 -0.931015 7,450 300 230 -1792
2021-10-20 21:12:05 GMT 51.388733 -0.928716 7,550 300 229 -1664
2021-10-20 21:12:02 GMT 51.386501 -0.922470 7,625 300 229 -1728
2021-10-20 21:11:59 GMT 51.385338 -0.919113 7,675 300 230 -1664
2021-10-20 21:11:57 GMT 51.384407 -0.916519 7,725 300 229 -1600
2021-10-20 21:11:55 GMT 51.383514 -0.914018 7,775 300 229 -1728
2021-10-20 21:11:53 GMT 51.382416 -0.910900 7,875 300 228 -1728
2021-10-20 21:11:50 GMT 51.381042 -0.907114 7,925 300 228 -1728
2021-10-20 21:11:48 GMT 51.379566 -0.902863 8,000 300 228 -1600
2021-10-20 21:11:44 GMT 51.377747 -0.897761 8,100 300 229 -1408
2021-10-20 21:11:42 GMT 51.376465 -0.894198 8,150 300 230 -1408
2021-10-20 21:11:40 GMT 51.375183 -0.890635 8,225 300 231 -1216
2021-10-20 21:11:37 GMT 51.373795 -0.886688 8,250 300 231 -1216
2021-10-20 21:11:35 GMT 51.372482 -0.882989 8,325 300 234 -1280
2021-10-20 21:11:32 GMT 51.371246 -0.879500 8,350 300 234 -1280
2021-10-20 21:11:29 GMT 51.369698 -0.875168 8,425 300 234 -1536
2021-10-20 21:11:27 GMT 51.368671 -0.872192 8,450 300 234 -1664
2021-10-20 21:11:25 GMT 51.365925 -0.864258 8,550 300 234 -1728
2021-10-20 21:11:22 GMT 51.365925 -0.864258 8,625 299 235 -1088
2021-10-20 21:11:20 GMT 51.365135 -0.861969 8,700 299 234 -1216
2021-10-20 21:11:18 GMT 51.363735 -0.857849 8,700 299 237 -768
2021-10-20 21:11:16 GMT 51.363007 -0.855746 8,725 299 237 -640
2021-10-20 21:11:13 GMT 51.361317 -0.850906 8,725 300 238 -512
2021-10-20 21:11:11 GMT 51.360580 -0.848768 8,750 301 242 -320
2021-10-20 21:11:09 GMT 51.358704 -0.843795 8,750 303 244 -256
2021-10-20 21:11:07 GMT 51.357498 -0.840759 8,775 309 248 -448
2021-10-20 21:11:04 GMT 51.353989 -0.833699 8,825 321 254 -640
2021-10-20 21:11:01 GMT 51.353989 -0.833699 8,800 315 251 -512
2021-10-20 21:10:59 GMT 51.352158 -0.830730 8,850 322 255 -704
2021-10-20 21:10:57 GMT 51.349915 -0.827686 8,875 324 256 -640
2021-10-20 21:10:54 GMT 51.347900 -0.825385 8,975 330 259 -704
2021-10-20 21:10:52 GMT 51.345348 -0.822830 8,900 332 260 -704
2021-10-20 21:10:50 GMT 51.343163 -0.821075 8,925 337 263 -704
2021-10-20 21:10:48 GMT 51.341671 -0.819931 8,950 339 264 -704
2021-10-20 21:10:46 GMT 51.338333 -0.817962 9,000 348 269 -640
2021-10-20 21:10:44 GMT 51.336040 -0.816879 9,000 348 269 -640
2021-10-20 21:10:42 GMT 51.334084 -0.816193 9,025 350 269 -640
2021-10-20 21:10:40 GMT 51.329269 -0.815067 9,050 357 273 -832
2021-10-20 21:10:36 GMT 51.323502 -0.814993 9,100 2 275 -1216
2021-10-20 21:10:34 GMT 51.323502 -0.814993 9,175 9 274 -1536
2021-10-20 21:10:31 GMT 51.319656 -0.815735 9,225 10 274 -1536
2021-10-20 21:10:28 GMT 51.316906 -0.816574 9,275 14 274 -1600
2021-10-20 21:10:26 GMT 51.314438 -0.817591 9,325 16 274 -1600
2021-10-20 21:10:24 GMT 51.308578 -0.821080 9,425 24 273 -1408
2021-10-20 21:10:22 GMT 51.308578 -0.821080 9,450 24 273 -1408
2021-10-20 21:10:20 GMT 51.306850 -0.822372 9,550 25 273 -1472
2021-10-20 21:10:17 GMT 51.302948 -0.825385 9,575 26 271 -1536
2021-10-20 21:10:15 GMT 51.300247 -0.827538 9,650 26 271 -1408
2021-10-20 21:10:12 GMT 51.297817 -0.829391 9,675 26 271 -1280
2021-10-20 21:10:10 GMT 51.296127 -0.830804 9,725 26 270 -1280
2021-10-20 21:10:08 GMT 51.293884 -0.832586 9,750 26 270 -1024
2021-10-20 21:10:06 GMT 51.291069 -0.834808 9,800 26 270 -832
2021-10-20 21:10:04 GMT 51.287903 -0.837326 9,825 26 272 -384
2021-10-20 21:10:01 GMT 51.284737 -0.839844 9,850 26 273 -320
2021-10-20 21:09:58 GMT 51.282303 -0.841790 9,850 26 274 -256
2021-10-20 21:09:56 GMT 51.280197 -0.843423 9,850 26 275 -320
2021-10-20 21:09:54 GMT 51.277496 -0.845502 9,875 25 275 -192
2021-10-20 21:09:52 GMT 51.274685 -0.847702 9,875 25 277 -320
2021-10-20 21:09:50 GMT 51.272449 -0.849380 9,875 25 278 -384
2021-10-20 21:09:48 GMT 51.270630 -0.850772 9,875 25 279 -320
2021-10-20 21:09:46 GMT 51.267609 -0.853119 9,925 25 280 -448
2021-10-20 21:09:44 GMT 51.264862 -0.855226 9,975 26 281 -704
2021-10-20 21:09:41 GMT 51.262573 -0.857008 9,950 26 281 -640
2021-10-20 21:09:39 GMT 51.259552 -0.859309 9,975 26 282 -640
2021-10-20 21:09:37 GMT 51.257080 -0.861239 10,000 26 282 -448
2021-10-20 21:09:35 GMT 51.255318 -0.862579 10,000 25 283 64
2021-10-20 21:09:32 GMT 51.251362 -0.865707 10,000 25 283 64
2021-10-20 21:09:30 GMT 51.249218 -0.867386 10,000 25 283 64
2021-10-20 21:09:27 GMT 51.245224 -0.870444 10,000 25 284 0
2021-10-20 21:09:24 GMT 51.242065 -0.872819 10,000 25 284 64
2021-10-20 21:09:22 GMT 51.239639 -0.874675 10,000 25 284 64
2021-10-20 21:09:20 GMT 51.237209 -0.876541 10,000 25 285 128
2021-10-20 21:09:18 GMT 51.235672 -0.877686 10,000 25 284 64
2021-10-20 21:09:16 GMT 51.232136 -0.880356 10,000 25 285 128
2021-10-20 21:09:14 GMT 51.229614 -0.882247 10,000 25 285 0
2021-10-20 21:09:11 GMT 51.226456 -0.884622 10,000 25 284 64
2021-10-20 21:09:09 GMT 51.224686 -0.886002 10,000 24 284 0
2021-10-20 21:09:07 GMT 51.221802 -0.888138 10,000 24 285 -64
2021-10-20 21:09:05 GMT 51.220047 -0.889373 10,000 24 284 -128
2021-10-20 21:09:03 GMT 51.216934 -0.891674 10,000 23 283 -64
2021-10-20 21:09:00 GMT 51.209793 -0.896573 10,000 23 283 0
2021-10-20 21:08:57 GMT 51.209793 -0.896573 10,000 22 283 0
2021-10-20 21:08:55 GMT 51.207230 -0.898285 10,000 22 281 -64
2021-10-20 21:08:52 GMT 51.203552 -0.900650 10,000 20 280 -64
2021-10-20 21:08:50 GMT 51.201370 -0.901992 10,025 20 279 -64
2021-10-20 21:08:48 GMT 51.199402 -0.903106 10,025 19 278 -64
2021-10-20 21:08:46 GMT 51.193130 -0.906446 10,025 17 277 -128
2021-10-20 21:08:44 GMT 51.193130 -0.906446 10,025 16 275 -128
2021-10-20 21:08:41 GMT 51.190247 -0.907782 10,025 15 274 -192
2021-10-20 21:08:39 GMT 51.187958 -0.908813 10,050 14 273 -256
2021-10-20 21:08:37 GMT 51.183243 -0.910678 10,050 14 274 -512
2021-10-20 21:08:32 GMT 51.179111 -0.912323 10,075 14 275 -768
2021-10-20 21:08:30 GMT 51.174545 -0.914166 10,125 14 275 -1024
2021-10-20 21:08:28 GMT 51.174545 -0.914166 10,150 14 275 -1088
2021-10-20 21:08:26 GMT 51.171898 -0.915222 10,175 14 275 -1216
2021-10-20 21:08:23 GMT 51.168686 -0.916468 10,250 14 274 -1472
2021-10-20 21:08:21 GMT 51.163651 -0.918472 10,325 13 273 -1472
2021-10-20 21:08:17 GMT 51.161682 -0.919288 10,375 13 273 -1472
2021-10-20 21:08:15 GMT 51.158752 -0.920402 10,475 14 272 -1152
2021-10-20 21:08:12 GMT 51.154404 -0.922183 10,500 14 272 -1024
2021-10-20 21:08:09 GMT 51.151154 -0.923520 10,550 14 272 -768
2021-10-20 21:08:07 GMT 51.149551 -0.924149 10,550 14 272 -704
2021-10-20 21:08:05 GMT 51.146805 -0.925227 10,600 14 272 -768
2021-10-20 21:08:02 GMT 51.142475 -0.927048 10,625 14 274 -704
2021-10-20 21:08:00 GMT 51.141312 -0.927528 10,700 14 275 -640
2021-10-20 21:07:58 GMT 51.135178 -0.930126 10,675 14 276 -704
2021-10-20 21:07:56 GMT 51.135178 -0.930126 10,725 14 277 -896
2021-10-20 21:07:54 GMT 51.129776 -0.932427 10,750 14 277 -960
2021-10-20 21:07:51 GMT 51.129776 -0.932427 10,775 14 277 -1024
2021-10-20 21:07:49 GMT 51.126648 -0.933762 10,800 14 277 -1024
2021-10-20 21:07:47 GMT 51.123901 -0.934906 10,850 14 277 -960
2021-10-20 21:07:45 GMT 51.121902 -0.935694 10,875 14 277 -960
2021-10-20 21:07:43 GMT 51.116409 -0.937921 10,925 14 277 -896
2021-10-20 21:07:40 GMT 51.116409 -0.937921 10,925 14 278 -896
2021-10-20 21:07:38 GMT 51.112198 -0.939628 10,975 14 278 -640
2021-10-20 21:07:36 GMT 51.107391 -0.941632 11,000 14 278 -640
2021-10-20 21:07:34 GMT 51.107391 -0.941632 11,025 14 279 -384
2021-10-20 21:07:31 GMT 51.103745 -0.943146 11,050 14 280 -320
2021-10-20 21:07:28 GMT 51.100433 -0.944453 11,050 14 280 -384
2021-10-20 21:07:25 GMT 51.097595 -0.945641 11,075 14 281 -576
2021-10-20 21:07:23 GMT 51.093109 -0.947571 11,100 14 282 -768
2021-10-20 21:07:20 GMT 51.091187 -0.948387 11,125 15 281 -896
2021-10-20 21:07:18 GMT 51.088055 -0.949707 11,175 15 284 -896
2021-10-20 21:07:16 GMT 51.085541 -0.950775 11,200 15 282 -1024
2021-10-20 21:07:14 GMT 51.082375 -0.952148 11,275 15 283 -896
2021-10-20 21:07:11 GMT 51.079971 -0.953212 11,275 15 283 -896
2021-10-20 21:07:09 GMT 51.076416 -0.954742 11,325 15 284 -896
2021-10-20 21:07:07 GMT 51.074463 -0.955658 11,350 15 284 -960
2021-10-20 21:07:05 GMT 51.071915 -0.956701 11,450 15 284 -1088
2021-10-20 21:07:03 GMT 51.067841 -0.958483 11,425 15 283 -1344
2021-10-20 21:07:00 GMT 51.065430 -0.959549 11,500 15 284 -1344
2021-10-20 21:06:58 GMT 51.062714 -0.960784 11,550 15 283 -1472
2021-10-20 21:06:56 GMT 51.060032 -0.961990 11,575 15 283 -1536
2021-10-20 21:06:54 GMT 51.057678 -0.963011 11,625 15 282 -1536
2021-10-20 21:06:52 GMT 51.055664 -0.963902 11,675 15 282 -1472
2021-10-20 21:06:50 GMT 51.052860 -0.965118 11,875 15 280 -832
2021-10-20 21:06:48 GMT 51.049622 -0.966500 11,775 15 280 -1344
2021-10-20 21:06:46 GMT 51.047276 -0.967560 11,825 15 280 -1280
2021-10-20 21:06:44 GMT 51.044205 -0.968857 11,875 15 280 -1024
2021-10-20 21:06:41 GMT 51.041656 -0.969989 11,900 15 280 -896
2021-10-20 21:06:39 GMT 51.038525 -0.971298 11,950 15 280 -768
2021-10-20 21:06:37 GMT 51.036713 -0.972067 11,950 15 280 -640
2021-10-20 21:06:35 GMT 51.034103 -0.973181 12,000 15 281 -512
2021-10-20 21:06:33 GMT 51.030716 -0.974665 12,000 15 281 -384
2021-10-20 21:06:30 GMT 51.027584 -0.976028 12,025 15 281 -192
2021-10-20 21:06:28 GMT 51.024929 -0.977173 12,025 15 281 -64
2021-10-20 21:06:26 GMT 51.021835 -0.978526 12,025 15 282 -256
2021-10-20 21:06:24 GMT 51.020187 -0.979194 12,050 15 283 -320
2021-10-20 21:06:22 GMT 51.017532 -0.980381 12,175 15 286 -640
2021-10-20 21:06:19 GMT 51.011627 -0.982905 12,100 15 288 -768
2021-10-20 21:06:15 GMT 51.008377 -0.984316 12,125 15 288 -768
2021-10-20 21:06:13 GMT 51.006454 -0.985206 12,150 15 289 -768
2021-10-20 21:06:10 GMT 51.000732 -0.987656 12,225 15 292 -704
2021-10-20 21:06:07 GMT 50.998489 -0.988621 12,225 15 292 -768
2021-10-20 21:06:05 GMT 50.992493 -0.991219 12,275 15 293 -768
2021-10-20 21:06:03 GMT 50.992493 -0.991219 12,300 15 294 -704
2021-10-20 21:06:00 GMT 50.988647 -0.992927 12,325 15 296 -768
2021-10-20 21:05:58 GMT 50.986012 -0.994110 12,350 15 296 -832
2021-10-20 21:05:56 GMT 50.984070 -0.994931 12,375 15 297 -832
2021-10-20 21:05:54 GMT 50.980846 -0.996323 12,400 15 298 -704
2021-10-20 21:05:52 GMT 50.978519 -0.997314 12,425 15 299 -704
2021-10-20 21:05:50 GMT 50.975353 -0.998688 12,450 15 302 -640
2021-10-20 21:05:48 GMT 50.972672 -0.999904 12,475 15 303 -640
2021-10-20 21:05:46 GMT 50.970695 -1.000748 12,500 15 304 -640
2021-10-20 21:05:44 GMT 50.967361 -1.002280 12,525 16 309 -448
2021-10-20 21:05:41 GMT 50.964134 -1.003723 12,525 16 308 -512
2021-10-20 21:05:39 GMT 50.961502 -1.004952 12,550 16 309 -448
2021-10-20 21:05:37 GMT 50.958618 -1.006288 12,550 16 310 -384
2021-10-20 21:05:35 GMT 50.955147 -1.007919 12,575 16 313 -512
2021-10-20 21:05:33 GMT 50.952164 -1.009332 12,600 16 315 -576
2021-10-20 21:05:30 GMT 50.947769 -1.011410 12,625 16 317 -576
2021-10-20 21:05:27 GMT 50.945091 -1.012650 12,650 16 318 -640
2021-10-20 21:05:25 GMT 50.941601 -1.014252 12,675 16 319 -576
2021-10-20 21:05:23 GMT 50.938843 -1.015567 12,675 16 320 -576
2021-10-20 21:05:21 GMT 50.936050 -1.016903 12,700 16 322 -704
2021-10-20 21:05:19 GMT 50.932434 -1.018611 12,725 16 322 -832
2021-10-20 21:05:17 GMT 50.926613 -1.021347 12,775 16 323 -960
2021-10-20 21:05:15 GMT 50.926613 -1.021347 12,800 16 323 -960
2021-10-20 21:05:13 GMT 50.924286 -1.022471 12,850 16 323 -960
2021-10-20 21:05:11 GMT 50.921356 -1.023807 12,900 16 325 -832
2021-10-20 21:05:08 GMT 50.916641 -1.026034 12,925 16 325 -768
2021-10-20 21:05:06 GMT 50.913712 -1.027444 12,950 16 326 -576
2021-10-20 21:05:04 GMT 50.910786 -1.028824 12,975 16 327 -384
2021-10-20 21:05:01 GMT 50.906342 -1.030859 13,000 16 328 -320
2021-10-20 21:04:57 GMT 50.901443 -1.033234 13,000 16 329 -192
2021-10-20 21:04:55 GMT 50.897751 -1.034927 13,000 16 330 -64
2021-10-20 21:04:53 GMT 50.895309 -1.036055 13,000 16 332 64
2021-10-20 21:04:51 GMT 50.892208 -1.037521 13,000 16 334 0
2021-10-20 21:04:49 GMT 50.888718 -1.039173 13,000 16 336 0
2021-10-20 21:04:47 GMT 50.886578 -1.040192 13,000 16 337 0
2021-10-20 21:04:45 GMT 50.882858 -1.041920 13,000 16 341 -64
2021-10-20 21:04:43 GMT 50.880661 -1.042959 13,000 16 343 -64
2021-10-20 21:04:41 GMT 50.875824 -1.045227 13,000 16 345 -64
2021-10-20 21:04:38 GMT 50.871960 -1.047058 13,000 16 348 -128
2021-10-20 21:04:36 GMT 50.869537 -1.048155 13,000 16 350 -256
2021-10-20 21:04:34 GMT 50.864960 -1.050308 13,025 16 352 -320
2021-10-20 21:04:31 GMT 50.861115 -1.052164 13,025 16 354 -512
2021-10-20 21:04:29 GMT 50.859650 -1.052832 13,025 16 355 -512
2021-10-20 21:04:27 GMT 50.855576 -1.054762 13,050 16 355 -640
2021-10-20 21:04:25 GMT 50.852463 -1.056172 13,075 16 357 -832
2021-10-20 21:04:23 GMT 50.849258 -1.057731 13,125 16 359 -960
2021-10-20 21:04:21 GMT 50.845642 -1.059438 13,150 16 361 -1152
2021-10-20 21:04:18 GMT 50.841568 -1.061368 13,200 16 361 -1280
2021-10-20 21:04:16 GMT 50.838181 -1.062927 13,250 16 362 -1536
2021-10-20 21:04:14 GMT 50.835789 -1.064072 13,300 16 363 -1600
2021-10-20 21:04:12 GMT 50.831131 -1.066193 13,400 16 364 -1600
2021-10-20 21:04:09 GMT 50.827606 -1.067827 13,425 16 364 -1472
2021-10-20 21:04:07 GMT 50.823761 -1.069608 13,500 16 365 -1472
2021-10-20 21:04:05 GMT 50.820145 -1.071241 13,525 16 365 -1664
2021-10-20 21:04:03 GMT 50.817539 -1.072464 14,050 16 372 -1728
2021-10-20 21:04:01 GMT 50.813461 -1.074359 13,650 16 368 -1536
2021-10-20 21:03:59 GMT 50.811211 -1.075439 13,700 16 368 -1600
2021-10-20 21:03:57 GMT 50.807327 -1.077254 13,750 16 369 -1024
2021-10-20 21:03:55 GMT 50.804352 -1.078664 13,800 16 369 -1024
2021-10-20 21:03:53 GMT 50.800232 -1.080669 13,875 16 370 -1856
2021-10-20 21:03:51 GMT 50.796982 -1.082228 13,925 16 370 -1664
2021-10-20 21:03:48 GMT 50.792038 -1.084529 14,000 16 372 -1664
2021-10-20 21:03:46 GMT 50.788834 -1.086013 14,050 16 372 -1728
2021-10-20 21:03:44 GMT 50.785419 -1.087646 14,125 16 373 -1728
2021-10-20 21:03:41 GMT 50.780296 -1.090012 14,200 16 374 -1792
2021-10-20 21:03:39 GMT 50.777618 -1.091210 14,250 16 374 -1728
2021-10-20 21:03:37 GMT 50.774231 -1.092768 14,300 16 375 -1856
2021-10-20 21:03:35 GMT 50.770756 -1.094437 14,375 16 376 -1856
2021-10-20 21:03:33 GMT 50.767822 -1.095738 14,450 16 376 -1856
2021-10-20 21:03:30 GMT 50.761768 -1.098557 14,500 16 376 -1856
2021-10-20 21:03:27 GMT 50.757568 -1.100563 14,625 16 377 -1920
2021-10-20 21:03:25 GMT 50.754547 -1.101973 14,675 16 377 -1856
2021-10-20 21:03:23 GMT 50.750458 -1.103821 14,750 16 378 -1792
2021-10-20 21:03:21 GMT 50.747059 -1.105423 14,825 16 379 -1856
2021-10-20 21:03:19 GMT 50.744247 -1.106724 14,875 16 379 -1920
2021-10-20 21:03:17 GMT 50.740860 -1.108283 14,925 16 380 -1920
2021-10-20 21:03:15 GMT 50.737198 -1.109990 15,025 16 380 -1920
2021-10-20 21:03:13 GMT 50.730194 -1.113182 15,075 16 381 -1920
2021-10-20 21:03:11 GMT 50.730194 -1.113182 15,125 16 381 -1920
2021-10-20 21:03:08 GMT 50.725971 -1.115189 15,200 16 382 -1920
2021-10-20 21:03:06 GMT 50.721783 -1.117096 15,275 16 382 -1920
2021-10-20 21:03:04 GMT 50.718384 -1.118622 15,350 16 383 -1920
2021-10-20 21:03:01 GMT 50.713634 -1.120834 15,450 16 384 -1856
2021-10-20 21:02:59 GMT 50.710190 -1.122461 15,500 16 384 -1920
2021-10-20 21:02:57 GMT 50.706345 -1.124243 15,575 16 385 -1920
2021-10-20 21:02:55 GMT 50.703552 -1.125505 15,600 16 386 -1920
2021-10-20 21:02:53 GMT 50.699249 -1.127583 15,700 16 386 -1856
2021-10-20 21:02:51 GMT 50.696087 -1.128998 15,750 16 388 -1856
2021-10-20 21:02:49 GMT 50.692795 -1.130553 15,825 16 388 -1920
2021-10-20 21:02:47 GMT 50.686295 -1.133596 15,900 16 389 -2048
2021-10-20 21:02:45 GMT 50.686295 -1.133596 15,925 16 389 -2048
2021-10-20 21:02:43 GMT 50.683655 -1.134872 15,975 16 389 -2048
2021-10-20 21:02:41 GMT 50.679001 -1.137009 16,100 16 390 -1984
2021-10-20 21:02:38 GMT 50.674164 -1.139238 16,200 16 391 -1984
2021-10-20 21:02:36 GMT 50.670063 -1.141168 16,275 16 392 -2048
2021-10-20 21:02:34 GMT 50.667316 -1.142430 16,325 16 392 -1984
2021-10-20 21:02:32 GMT 50.664322 -1.143807 16,400 16 393 -1984
2021-10-20 21:02:29 GMT 50.658417 -1.146626 16,500 16 393 -1984
2021-10-20 21:02:27 GMT 50.654984 -1.148144 16,550 16 394 -1920
2021-10-20 21:02:25 GMT 50.651550 -1.149734 16,625 16 395 -1920
2021-10-20 21:02:23 GMT 50.647812 -1.151486 16,675 16 395 -1920
2021-10-20 21:02:20 GMT 50.641846 -1.154287 16,850 16 396 -1856
2021-10-20 21:02:17 GMT 50.637451 -1.156311 16,850 16 397 -1856
2021-10-20 21:02:15 GMT 50.633286 -1.158263 16,950 16 397 -1920
2021-10-20 21:02:13 GMT 50.630402 -1.159577 17,000 16 398 -1920
2021-10-20 21:02:11 GMT 50.626816 -1.161285 17,050 16 398 -1920
2021-10-20 21:02:08 GMT 50.621109 -1.163900 17,150 16 400 -1984
2021-10-20 21:02:06 GMT 50.617722 -1.165490 17,225 16 400 -1920
2021-10-20 21:02:04 GMT 50.614433 -1.167000 17,275 16 400 -1920
2021-10-20 21:02:02 GMT 50.609684 -1.169227 17,625 16 403 -1984
2021-10-20 21:01:59 GMT 50.605122 -1.171380 17,425 16 402 -1984
2021-10-20 21:01:56 GMT 50.599674 -1.173978 17,550 16 403 -1984
2021-10-20 21:01:54 GMT 50.597031 -1.175176 17,600 16 403 -1984
2021-10-20 21:01:52 GMT 50.593948 -1.176651 17,650 16 404 -1984
2021-10-20 21:01:50 GMT 50.589573 -1.178655 17,775 16 405 -1984
2021-10-20 21:01:47 GMT 50.583569 -1.181476 17,850 16 406 -1984
2021-10-20 21:01:45 GMT 50.581799 -1.182292 17,850 16 406 -1920
2021-10-20 21:01:43 GMT 50.576660 -1.184644 17,975 16 407 -1856
2021-10-20 21:01:40 GMT 50.572769 -1.186451 18,050 16 408 -1920
2021-10-20 21:01:38 GMT 50.567928 -1.188676 18,100 16 409 -1920
2021-10-20 21:01:36 GMT 50.560181 -1.192233 18,200 16 410 -1856
2021-10-20 21:01:34 GMT 50.556473 -1.193968 18,275 16 411 -1792
2021-10-20 21:01:32 GMT 50.556473 -1.193968 18,325 16 411 -1728
2021-10-20 21:01:29 GMT 50.550751 -1.196545 18,400 16 413 -1856
2021-10-20 21:01:26 GMT 50.547180 -1.198233 18,475 16 413 -1920
2021-10-20 21:01:24 GMT 50.542236 -1.200473 18,550 16 416 -1984
2021-10-20 21:01:22 GMT 50.539482 -1.201741 18,725 16 416 -2048
2021-10-20 21:01:20 GMT 50.535004 -1.203870 18,700 16 417 -1984
2021-10-20 21:01:18 GMT 50.531242 -1.205601 18,750 16 418 -1920
2021-10-20 21:01:16 GMT 50.528126 -1.207011 18,800 16 418 -1984
2021-10-20 21:01:14 GMT 50.521328 -1.210203 18,875 16 418 -2048
2021-10-20 21:01:12 GMT 50.521328 -1.210203 18,925 16 419 -1920
2021-10-20 21:01:10 GMT 50.517094 -1.212133 19,025 16 419 -1856
2021-10-20 21:01:07 GMT 50.510925 -1.214929 19,100 16 420 -2048
2021-10-20 21:01:05 GMT 50.506989 -1.216736 19,175 16 422 -1920
2021-10-20 21:01:03 GMT 50.504475 -1.217924 19,225 16 422 -1920
2021-10-20 21:01:01 GMT 50.500427 -1.219779 19,300 16 422 -1920
2021-10-20 21:00:59 GMT 50.497261 -1.221264 19,375 16 423 -1984
2021-10-20 21:00:57 GMT 50.491882 -1.223747 19,450 16 423 -2048
2021-10-20 21:00:55 GMT 50.488586 -1.225265 19,525 16 423 -1984
2021-10-20 21:00:52 GMT 50.483898 -1.227425 19,625 16 425 -2048
2021-10-20 21:00:50 GMT 50.480072 -1.229168 19,650 16 424 -2048
2021-10-20 21:00:48 GMT 50.474670 -1.231625 19,750 16 425 -2048
2021-10-20 21:00:46 GMT 50.472633 -1.232621 19,825 16 425 -2048
2021-10-20 21:00:44 GMT 50.463959 -1.236612 19,900 16 425 -1984
2021-10-20 21:00:42 GMT 50.463959 -1.236612 19,925 16 426 -2048
2021-10-20 21:00:40 GMT 50.461044 -1.237892 20,000 16 426 -1984
2021-10-20 21:00:38 GMT 50.455830 -1.240342 20,075 16 426 -1920
2021-10-20 21:00:36 GMT 50.452850 -1.241678 20,125 16 426 -1920
2021-10-20 21:00:34 GMT 50.445648 -1.244997 20,225 16 427 -1984
2021-10-20 21:00:32 GMT 50.445648 -1.244997 20,275 16 427 -1920
2021-10-20 21:00:30 GMT 50.436977 -1.249027 20,350 16 427 -1920
2021-10-20 21:00:28 GMT 50.436977 -1.249027 20,400 16 427 -1920
2021-10-20 21:00:26 GMT 50.434067 -1.250418 20,475 16 428 -1920
2021-10-20 21:00:24 GMT 50.429993 -1.252225 20,475 16 428 -1920
2021-10-20 21:00:22 GMT 50.420589 -1.256598 20,725 16 428 -1920
2021-10-20 21:00:20 GMT 50.420589 -1.256598 20,675 16 428 -1920
2021-10-20 21:00:17 GMT 50.417587 -1.258007 20,725 16 428 -1920
2021-10-20 21:00:15 GMT 50.412781 -1.260175 20,800 16 428 -1920
2021-10-20 21:00:13 GMT 50.407742 -1.262537 20,900 16 428 -1920
2021-10-20 21:00:10 GMT 50.403831 -1.264319 20,950 16 429 -1984
2021-10-20 21:00:08 GMT 50.399963 -1.266102 21,025 16 429 -1984
2021-10-20 21:00:06 GMT 50.395496 -1.268104 21,125 16 429 -1984
2021-10-20 21:00:04 GMT 50.392517 -1.269515 21,150 16 429 -1984
2021-10-20 21:00:02 GMT 50.388885 -1.271222 21,250 16 430 -2048
2021-10-20 21:00:00 GMT 50.384140 -1.273375 21,300 16 430 -1984
2021-10-20 20:59:58 GMT 50.380280 -1.275137 21,400 16 431 -2048
2021-10-20 20:59:55 GMT 50.374466 -1.277811 21,525 16 431 -1984
2021-10-20 20:59:52 GMT 50.369987 -1.279907 21,575 16 432 -1984
2021-10-20 20:59:49 GMT 50.363251 -1.282943 21,675 16 432 -1920
2021-10-20 20:59:47 GMT 50.360630 -1.284138 21,700 16 432 -1920
2021-10-20 20:59:45 GMT 50.350479 -1.288815 21,825 16 433 -1984
2021-10-20 20:59:43 GMT 50.350479 -1.288815 21,875 16 433 -1984
2021-10-20 20:59:40 GMT 50.346710 -1.290597 21,975 16 433 -1920
2021-10-20 20:59:38 GMT 50.341496 -1.292972 22,025 16 433 -1920
2021-10-20 20:59:36 GMT 50.337585 -1.294754 22,100 16 433 -1920
2021-10-20 20:59:34 GMT 50.330841 -1.297832 22,175 16 433 -1920
2021-10-20 20:59:32 GMT 50.330841 -1.297832 22,250 16 433 -1920
2021-10-20 20:59:30 GMT 50.326904 -1.299639 22,275 16 433 -1920
2021-10-20 20:59:28 GMT 50.322735 -1.301583 22,350 16 433 -1856
2021-10-20 20:59:25 GMT 50.316696 -1.304337 22,450 16 433 -1856
2021-10-20 20:59:22 GMT 50.311424 -1.306705 22,525 16 433 -1856
2021-10-20 20:59:20 GMT 50.307587 -1.308530 22,600 16 434 -1856
2021-10-20 20:59:18 GMT 50.303417 -1.310417 22,650 16 434 -1856
2021-10-20 20:59:16 GMT 50.300625 -1.311678 22,750 16 434 -1792
2021-10-20 20:59:14 GMT 50.295830 -1.313831 22,750 16 435 -1792
2021-10-20 20:59:12 GMT 50.291840 -1.315685 22,825 16 435 -1792
2021-10-20 20:59:09 GMT 50.287125 -1.317853 22,925 16 435 -1856
2021-10-20 20:59:07 GMT 50.282887 -1.319770 22,975 16 436 -1920
2021-10-20 20:59:05 GMT 50.274445 -1.323636 23,100 16 436 -1920
2021-10-20 20:59:03 GMT 50.274445 -1.323636 23,125 16 436 -1920
2021-10-20 20:59:01 GMT 50.269669 -1.325783 23,225 16 438 -1920
2021-10-20 20:58:58 GMT 50.264404 -1.328158 23,275 16 438 -1920
2021-10-20 20:58:55 GMT 50.254074 -1.332815 23,400 16 440 -1920
2021-10-20 20:58:53 GMT 50.254074 -1.332815 23,450 16 440 -1984
2021-10-20 20:58:50 GMT 50.247276 -1.335952 23,575 16 441 -1984
2021-10-20 20:58:47 GMT 50.239517 -1.339465 23,675 16 443 -1984
2021-10-20 20:58:45 GMT 50.239517 -1.339465 23,725 16 443 -1920
2021-10-20 20:58:42 GMT 50.231400 -1.343153 23,825 16 445 -1920
2021-10-20 20:58:39 GMT 50.227615 -1.344886 23,850 16 445 -1984
2021-10-20 20:58:37 GMT 50.223812 -1.346642 23,950 16 447 -1920
2021-10-20 20:58:35 GMT 50.221020 -1.347904 23,975 16 448 -1984
2021-10-20 20:58:33 GMT 50.215851 -1.350279 24,050 16 449 -1984
2021-10-20 20:58:31 GMT 50.207108 -1.354282 24,175 16 450 -1984
2021-10-20 20:58:29 GMT 50.207108 -1.354282 24,225 16 451 -1984
2021-10-20 20:58:26 GMT 50.198685 -1.358185 24,350 16 452 -1984
2021-10-20 20:58:22 GMT 50.194206 -1.360226 24,400 16 454 -1920
2021-10-20 20:58:20 GMT 50.189896 -1.362232 24,525 16 456 -1920
2021-10-20 20:58:18 GMT 50.186710 -1.363715 24,550 16 456 -1856
2021-10-20 20:58:16 GMT 50.180054 -1.366714 24,650 16 458 -1856
2021-10-20 20:58:13 GMT 50.174744 -1.369171 24,725 16 461 -1856
2021-10-20 20:58:10 GMT 50.163208 -1.374520 24,850 16 462 -1920
2021-10-20 20:58:07 GMT 50.159386 -1.376260 24,950 16 464 -1856
2021-10-20 20:58:05 GMT 50.159386 -1.376260 24,975 16 465 -1920
2021-10-20 20:58:03 GMT 50.151096 -1.380046 25,100 16 466 -1920
2021-10-20 20:58:01 GMT 50.151096 -1.380046 25,100 16 466 -1920
2021-10-20 20:57:59 GMT 50.146637 -1.382037 25,150 16 468 -1920
2021-10-20 20:57:57 GMT 50.142517 -1.383916 25,225 16 468 -1856
2021-10-20 20:57:55 GMT 50.138260 -1.385867 25,300 16 469 -1856
2021-10-20 20:57:53 GMT 50.133957 -1.387819 25,350 16 470 -1856
2021-10-20 20:57:51 GMT 50.130661 -1.389325 25,400 16 471 -1856
2021-10-20 20:57:49 GMT 50.124657 -1.392072 25,525 16 471 -1920
2021-10-20 20:57:46 GMT 50.116470 -1.395770 25,625 16 472 -1920
2021-10-20 20:57:44 GMT 50.116470 -1.395770 25,625 16 472 -1920
2021-10-20 20:57:42 GMT 50.112087 -1.397713 25,700 16 473 -1920
2021-10-20 20:57:39 GMT 50.105431 -1.400757 25,775 16 474 -1920
2021-10-20 20:57:36 GMT 50.098122 -1.404023 25,875 16 474 -1856
2021-10-20 20:57:34 GMT 50.093903 -1.405961 26,000 16 475 -1920
2021-10-20 20:57:31 GMT 50.087631 -1.408780 26,075 16 476 -1920
2021-10-20 20:57:28 GMT 50.081818 -1.411382 26,150 16 478 -1856
2021-10-20 20:57:26 GMT 50.077591 -1.413302 26,225 16 478 -1856
2021-10-20 20:57:24 GMT 50.074265 -1.414779 26,275 16 478 -1856
2021-10-20 20:57:22 GMT 50.068886 -1.417236 26,350 16 478 -1856
2021-10-20 20:57:18 GMT 50.056225 -1.422952 26,500 16 479 -1920
2021-10-20 20:57:16 GMT 50.056225 -1.422952 26,525 16 479 -1920
2021-10-20 20:57:14 GMT 50.052155 -1.424826 26,600 16 480 -1984
2021-10-20 20:57:12 GMT 50.047714 -1.426849 26,825 16 481 -1984
2021-10-20 20:57:09 GMT 50.041561 -1.429633 26,800 16 481 -1984
2021-10-20 20:57:06 GMT 50.035080 -1.432559 26,850 16 482 -1984
2021-10-20 20:57:04 GMT 50.030807 -1.434532 26,900 16 483 -1984
2021-10-20 20:57:02 GMT 50.026897 -1.436314 27,000 16 484 -2048
2021-10-20 20:56:59 GMT 50.020248 -1.439281 27,100 16 485 -2048
2021-10-20 20:56:57 GMT 50.012375 -1.442895 27,175 16 486 -1984
2021-10-20 20:56:55 GMT 50.007111 -1.445296 27,225 16 487 -1984
2021-10-20 20:56:53 GMT 50.007111 -1.445296 27,275 16 487 -1984
2021-10-20 20:56:51 GMT 49.999290 -1.448785 27,350 16 488 -1984
2021-10-20 20:56:49 GMT 49.999290 -1.448785 27,500 16 489 -1984
2021-10-20 20:56:47 GMT 49.993423 -1.451424 27,500 16 489 -1984
2021-10-20 20:56:44 GMT 49.982021 -1.456579 27,625 16 490 -1920
2021-10-20 20:56:41 GMT 49.982021 -1.456579 27,625 16 490 -1920
2021-10-20 20:56:38 GMT 49.974655 -1.459953 27,750 16 491 -1856
2021-10-20 20:56:36 GMT 49.971268 -1.461471 27,850 16 492 -1920
2021-10-20 20:56:34 GMT 49.965683 -1.463928 27,900 16 492 -1920
2021-10-20 20:56:32 GMT 49.961472 -1.465880 27,975 16 493 -1920
2021-10-20 20:56:29 GMT 49.954376 -1.469060 28,050 16 493 -1856
2021-10-20 20:56:27 GMT 49.950211 -1.470939 28,125 16 494 -1920
2021-10-20 20:56:25 GMT 49.945805 -1.472910 28,175 16 494 -1920
2021-10-20 20:56:23 GMT 49.942291 -1.474481 28,225 16 494 -1920
2021-10-20 20:56:21 GMT 49.938171 -1.476360 28,275 16 494 -1920
2021-10-20 20:56:19 GMT 49.927917 -1.480914 28,400 16 495 -1920
2021-10-20 20:56:17 GMT 49.927917 -1.480914 28,450 16 495 -1920
2021-10-20 20:56:14 GMT 49.922333 -1.483443 28,525 16 496 -1920
2021-10-20 20:56:12 GMT 49.917389 -1.485612 28,550 16 496 -1920
2021-10-20 20:56:09 GMT 49.910748 -1.488647 28,850 16 497 -1920
2021-10-20 20:56:06 GMT 49.905396 -1.491033 28,800 16 497 -1920
2021-10-20 20:56:04 GMT 49.899761 -1.493621 28,900 16 498 -1920
2021-10-20 20:56:02 GMT 49.894958 -1.495731 28,900 16 498 -1920
2021-10-20 20:55:58 GMT 49.888451 -1.498669 29,200 16 499 -1984
2021-10-20 20:55:56 GMT 49.877277 -1.503642 29,125 16 499 -1984
2021-10-20 20:55:54 GMT 49.877277 -1.503642 29,175 16 499 -1984
2021-10-20 20:55:52 GMT 49.872623 -1.505721 29,250 16 499 -1984
2021-10-20 20:55:50 GMT 49.869003 -1.507368 29,300 16 499 -1984
2021-10-20 20:55:48 GMT 49.863731 -1.509729 29,475 16 500 -1920
2021-10-20 20:55:45 GMT 49.857864 -1.512402 29,475 16 499 -1920
2021-10-20 20:55:43 GMT 49.852512 -1.514777 29,500 16 499 -1920
2021-10-20 20:55:41 GMT 49.847305 -1.517125 29,625 16 499 -1920
2021-10-20 20:55:38 GMT 49.843899 -1.518637 29,700 16 500 -1920
2021-10-20 20:55:36 GMT 49.838036 -1.521235 29,750 16 500 -1856
2021-10-20 20:55:34 GMT 49.833611 -1.523240 29,825 16 500 -1856
2021-10-20 20:55:32 GMT 49.819645 -1.529475 29,950 16 500 -1920
2021-10-20 20:55:29 GMT 49.819645 -1.529475 30,025 16 501 -1920
2021-10-20 20:55:26 GMT 49.816200 -1.531034 30,075 16 501 -1920
2021-10-20 20:55:24 GMT 49.812618 -1.532667 30,125 16 501 -1920
2021-10-20 20:55:22 GMT 49.806377 -1.535414 30,325 16 507 -2112
2021-10-20 20:55:19 GMT 49.800747 -1.537937 30,350 16 502 -1920
2021-10-20 20:55:17 GMT 49.795395 -1.540327 30,400 16 502 -1920
2021-10-20 20:55:15 GMT 49.791061 -1.542243 30,450 16 502 -1920
2021-10-20 20:55:13 GMT 49.782078 -1.546251 30,550 16 504 -1920
2021-10-20 20:55:11 GMT 49.782078 -1.546251 30,575 16 504 -1920
2021-10-20 20:55:08 GMT 49.775848 -1.549072 30,675 16 505 -1984
2021-10-20 20:55:05 GMT 49.769043 -1.552190 31,750 16 505 -1984
2021-10-20 20:55:03 GMT 49.763645 -1.554565 30,850 16 506 -2048
2021-10-20 20:55:01 GMT 49.753922 -1.558974 31,000 16 507 -2112
2021-10-20 20:54:58 GMT 49.748142 -1.561543 31,100 16 507 -2176
2021-10-20 20:54:56 GMT 49.748142 -1.561543 31,175 16 507 -2240
2021-10-20 20:54:54 GMT 49.743301 -1.563696 31,175 16 507 -2304
2021-10-20 20:54:52 GMT 49.738739 -1.565700 31,275 16 507 -2432
2021-10-20 20:54:50 GMT 49.735657 -1.567142 31,300 16 507 -2496
2021-10-20 20:54:48 GMT 49.723377 -1.572604 31,500 16 507 -3328
2021-10-20 20:54:45 GMT 49.723377 -1.572604 31,575 16 507 -2944
2021-10-20 20:54:43 GMT 49.719040 -1.574514 31,675 16 507 -3072
2021-10-20 20:54:41 GMT 49.714828 -1.576394 31,800 16 507 -3264
2021-10-20 20:54:38 GMT 49.706154 -1.580250 31,975 16 506 -3456
2021-10-20 20:54:35 GMT 49.700798 -1.582699 32,100 16 506 -3392
2021-10-20 20:54:33 GMT 49.697449 -1.584184 32,150 16 506 -3456
2021-10-20 20:54:31 GMT 49.684319 -1.590048 32,650 16 502 -3776
2021-10-20 20:54:28 GMT 49.684319 -1.590048 33,200 16 499 -832
2021-10-20 20:54:25 GMT 49.678802 -1.592512 32,700 16 502 -3712
2021-10-20 20:54:23 GMT 49.674408 -1.594463 32,825 16 502 -3648
2021-10-20 20:54:21 GMT 49.669876 -1.596487 32,950 16 501 -3392
2021-10-20 20:54:18 GMT 49.663651 -1.599253 33,100 16 500 -3136
2021-10-20 20:54:15 GMT 49.656647 -1.602342 33,275 16 500 -2944
2021-10-20 20:54:13 GMT 49.647308 -1.606454 33,400 16 499 -2752
2021-10-20 20:54:11 GMT 49.647308 -1.606454 33,425 16 499 -2432
2021-10-20 20:54:07 GMT 49.638977 -1.610165 33,575 16 499 -2304
2021-10-20 20:54:05 GMT 49.633575 -1.612615 33,675 16 499 -2112
2021-10-20 20:54:03 GMT 49.630463 -1.613978 33,700 16 499 -1984
2021-10-20 20:54:01 GMT 49.625336 -1.616252 33,975 16 499 -1664
2021-10-20 20:53:58 GMT 49.616501 -1.620194 33,850 16 499 -1536
2021-10-20 20:53:55 GMT 49.611931 -1.622191 33,925 16 499 -1024
2021-10-20 20:53:53 GMT 49.607529 -1.624170 33,950 16 500 -704
2021-10-20 20:53:51 GMT 49.604481 -1.625457 33,950 16 500 -704
2021-10-20 20:53:49 GMT 49.599152 -1.627856 33,975 16 500 -256
2021-10-20 20:53:46 GMT 49.591370 -1.631325 34,000 16 500 -64
2021-10-20 20:53:43 GMT 49.585876 -1.633710 34,000 16 500 -64
2021-10-20 20:53:41 GMT 49.581112 -1.635849 34,000 16 500 -64
2021-10-20 20:53:38 GMT 49.575573 -1.638299 34,000 16 500 -64
2021-10-20 20:53:36 GMT 49.570034 -1.640749 34,000 16 501 -64
2021-10-20 20:53:33 GMT 49.563423 -1.643644 34,000 16 501 -64
2021-10-20 20:53:31 GMT 49.556534 -1.646720 34,025 16 501 -64
2021-10-20 20:53:28 GMT 49.550491 -1.649395 34,000 16 501 -64
2021-10-20 20:53:25 GMT 49.545731 -1.651491 34,000 16 501 0
2021-10-20 20:53:22 GMT 49.536888 -1.655447 34,000 15 503 64
2021-10-20 20:53:19 GMT 49.531349 -1.657822 34,000 16 502 0
2021-10-20 20:53:15 GMT 49.523247 -1.661459 34,000 15 503 64
2021-10-20 20:53:13 GMT 49.519756 -1.662944 34,000 15 503 64
2021-10-20 20:53:11 GMT 49.515335 -1.664874 34,000 15 503 64
2021-10-20 20:53:09 GMT 49.509842 -1.667250 34,000 15 503 64
2021-10-20 20:53:07 GMT 49.505791 -1.668957 34,000 15 503 64
2021-10-20 20:53:05 GMT 49.500549 -1.671078 34,000 14 503 64
2021-10-20 20:53:03 GMT 49.495377 -1.673102 34,000 13 502 64
2021-10-20 20:53:01 GMT 49.489311 -1.675192 33,975 12 501 64
2021-10-20 20:52:58 GMT 49.484379 -1.676825 33,975 10 500 64
2021-10-20 20:52:55 GMT 49.477905 -1.678681 33,975 9 498 0
2021-10-20 20:52:53 GMT 49.473358 -1.679824 33,975 8 498 0
2021-10-20 20:52:50 GMT 49.467361 -1.681197 33,975 7 497 0
2021-10-20 20:52:48 GMT 49.462265 -1.682244 33,975 6 496 0
2021-10-20 20:52:45 GMT 49.456863 -1.683209 33,975 5 494 0
2021-10-20 20:52:43 GMT 49.451092 -1.684026 34,000 4 493 -64
2021-10-20 20:52:41 GMT 49.446438 -1.684620 34,000 3 491 -64
2021-10-20 20:52:39 GMT 49.441589 -1.685100 34,000 2 491 -128
2021-10-20 20:52:37 GMT 49.437103 -1.685389 34,000 1 490 -128
2021-10-20 20:52:34 GMT 49.430878 -1.685679 34,025 1 489 -128
2021-10-20 20:52:32 GMT 49.426117 -1.685768 34,025 0 488 -128
2021-10-20 20:52:30 GMT 49.420990 -1.685768 34,025 359 484 -256
2021-10-20 20:52:27 GMT 49.414268 -1.685534 34,050 358 482 -256
2021-10-20 20:52:24 GMT 49.408585 -1.685134 34,050 358 481 -448
2021-10-20 20:52:22 GMT 49.403282 -1.684667 34,075 357 480 -576
2021-10-20 20:52:20 GMT 49.399841 -1.684289 34,075 356 478 -768
2021-10-20 20:52:18 GMT 49.396454 -1.683866 34,125 355 477 -960
2021-10-20 20:52:15 GMT 49.389038 -1.682810 34,150 354 476 -960
2021-10-20 20:52:13 GMT 49.383869 -1.681920 34,175 353 474 -960
2021-10-20 20:52:11 GMT 49.379196 -1.680979 34,225 353 474 -896
2021-10-20 20:52:09 GMT 49.370270 -1.679218 34,250 353 473 -832
2021-10-20 20:52:07 GMT 49.370270 -1.679218 34,275 353 472 -768
2021-10-20 20:52:04 GMT 49.364971 -1.678162 34,325 353 472 -768
2021-10-20 20:52:02 GMT 49.355896 -1.676401 34,375 353 471 -832
2021-10-20 20:52:00 GMT 49.355896 -1.676401 34,400 353 470 -896
2021-10-20 20:51:57 GMT 49.346878 -1.674570 34,450 353 470 -896
2021-10-20 20:51:54 GMT 49.342529 -1.673725 34,475 353 469 -896
2021-10-20 20:51:52 GMT 49.338203 -1.672813 34,500 353 469 -896
2021-10-20 20:51:50 GMT 49.333641 -1.671946 34,550 353 468 -896
2021-10-20 20:51:48 GMT 49.331497 -1.671471 34,575 353 468 -896
2021-10-20 20:51:46 GMT 49.324951 -1.670204 34,600 353 467 -896
2021-10-20 20:51:44 GMT 49.321472 -1.669499 34,625 353 467 -896
2021-10-20 20:51:42 GMT 49.316418 -1.668476 34,650 353 467 -896
2021-10-20 20:51:40 GMT 49.312317 -1.667668 34,675 353 467 -896
2021-10-20 20:51:38 GMT 49.308315 -1.666886 34,750 353 466 -832
2021-10-20 20:51:35 GMT 49.302498 -1.665730 34,750 353 466 -832
2021-10-20 20:51:33 GMT 49.297897 -1.664781 34,775 353 466 -832
2021-10-20 20:51:31 GMT 49.287415 -1.662694 34,825 353 466 -896
2021-10-20 20:51:28 GMT 49.287415 -1.662694 34,875 353 466 -896
2021-10-20 20:51:26 GMT 49.275604 -1.660344 34,900 353 466 -896
2021-10-20 20:51:23 GMT 49.275604 -1.660344 34,950 353 467 -896
2021-10-20 20:51:19 GMT 49.268188 -1.658863 34,975 353 466 -832
2021-10-20 20:51:17 GMT 49.261734 -1.657597 35,025 353 466 -832
2021-10-20 20:51:14 GMT 49.257523 -1.656752 35,050 353 466 -832
2021-10-20 20:51:12 GMT 49.247635 -1.654780 35,075 353 466 -832
2021-10-20 20:51:10 GMT 49.247635 -1.654780 35,125 353 466 -832
2021-10-20 20:51:07 GMT 49.243702 -1.653948 35,150 353 465 -832
2021-10-20 20:51:05 GMT 49.232895 -1.651752 35,225 353 465 -832
2021-10-20 20:51:03 GMT 49.232895 -1.651752 35,225 353 464 -832
2021-10-20 20:51:01 GMT 49.230576 -1.651274 35,250 353 462 -832
2021-10-20 20:50:59 GMT 49.222137 -1.649569 35,300 353 464 -832
2021-10-20 20:50:57 GMT 49.222137 -1.649569 35,300 353 463 -832
2021-10-20 20:50:55 GMT 49.215912 -1.648301 35,350 353 462 -832
2021-10-20 20:50:53 GMT 49.211765 -1.647443 35,375 353 462 -832
2021-10-20 20:50:49 GMT 49.204422 -1.645907 35,425 353 461 -832
2021-10-20 20:50:46 GMT 49.197384 -1.644480 35,475 353 460 -896
2021-10-20 20:50:44 GMT 49.193390 -1.643724 35,525 353 460 -896
2021-10-20 20:50:42 GMT 49.189270 -1.642879 35,550 353 458 -896
2021-10-20 20:50:40 GMT 49.183777 -1.641752 35,575 353 458 -896
2021-10-20 20:50:37 GMT 49.176636 -1.640273 35,600 353 458 -896
2021-10-20 20:50:34 GMT 49.172291 -1.639420 35,650 353 458 -896
2021-10-20 20:50:32 GMT 49.168259 -1.638583 36,000 353 462 -64
2021-10-20 20:50:30 GMT 49.161987 -1.637385 35,725 353 459 -960
2021-10-20 20:50:27 GMT 49.157547 -1.636470 35,750 353 459 -960
2021-10-20 20:50:24 GMT 49.152145 -1.635414 35,775 353 460 -960
2021-10-20 20:50:22 GMT 49.147896 -1.634505 35,825 353 460 -960
2021-10-20 20:50:20 GMT 49.142590 -1.633494 35,825 353 461 -960
2021-10-20 20:50:18 GMT 49.138733 -1.632737 35,875 353 461 -960
2021-10-20 20:50:15 GMT 49.132210 -1.631397 35,925 353 462 -768
2021-10-20 20:50:12 GMT 49.120338 -1.629012 35,950 353 462 -512
2021-10-20 20:50:09 GMT 49.120338 -1.629012 35,975 353 462 -448
2021-10-20 20:50:07 GMT 49.115799 -1.628160 36,000 353 462 0
2021-10-20 20:50:03 GMT 49.108200 -1.626681 36,000 353 462 0
2021-10-20 20:50:01 GMT 49.104034 -1.625836 36,000 353 463 0
2021-10-20 20:49:58 GMT 49.090942 -1.623230 36,000 353 463 0
2021-10-20 20:49:56 GMT 49.090942 -1.623230 36,000 353 463 0
2021-10-20 20:49:53 GMT 49.086681 -1.622435 36,000 353 463 -64
2021-10-20 20:49:51 GMT 49.082352 -1.621568 36,000 353 463 0
2021-10-20 20:49:48 GMT 49.073975 -1.619905 36,000 353 465 0
2021-10-20 20:49:45 GMT 49.065582 -1.618230 36,000 353 463 0
2021-10-20 20:49:43 GMT 49.065582 -1.618230 36,000 353 463 0
2021-10-20 20:49:41 GMT 49.056473 -1.616399 36,000 353 465 0
2021-10-20 20:49:39 GMT 49.056473 -1.616399 36,000 353 465 0
2021-10-20 20:49:37 GMT 49.049999 -1.615063 36,000 353 466 -64
2021-10-20 20:49:34 GMT 49.045715 -1.614267 36,000 353 465 0
2021-10-20 20:49:32 GMT 49.041107 -1.613328 36,000 353 466 0
2021-10-20 20:49:30 GMT 49.036823 -1.612460 36,000 353 465 0
2021-10-20 20:49:28 GMT 49.032623 -1.611610 36,000 353 466 0
2021-10-20 20:49:26 GMT 49.029423 -1.610943 36,000 353 466 0
2021-10-20 20:49:23 GMT 49.022018 -1.609497 36,000 353 466 -64
2021-10-20 20:49:21 GMT 49.017971 -1.608702 36,000 353 466 -64
2021-10-20 20:49:19 GMT 49.009735 -1.607032 36,000 353 467 -64
2021-10-20 20:49:17 GMT 49.009735 -1.607032 36,000 353 467 -64
2021-10-20 20:49:15 GMT 49.005707 -1.606187 36,000 353 467 -64
2021-10-20 20:49:13 GMT 49.001358 -1.605342 36,000 353 467 -64
2021-10-20 20:49:11 GMT 48.996826 -1.604426 36,000 353 467 -64
2021-10-20 20:49:09 GMT 48.992413 -1.603570 36,025 353 467 -64
2021-10-20 20:49:07 GMT 48.988541 -1.602807 36,025 353 466 -64
2021-10-20 20:49:04 GMT 48.976730 -1.600412 36,025 353 466 -64
2021-10-20 20:49:02 GMT 48.976730 -1.600412 36,025 353 466 -64
2021-10-20 20:48:59 GMT 48.971329 -1.599356 36,025 353 466 0
2021-10-20 20:48:56 GMT 48.964050 -1.597947 36,025 353 467 0
2021-10-20 20:48:53 GMT 48.957451 -1.596632 36,025 353 467 64
2021-10-20 20:48:50 GMT 48.944229 -1.594029 36,025 353 468 64
2021-10-20 20:48:47 GMT 48.944229 -1.594029 36,025 353 468 64
2021-10-20 20:48:43 GMT 48.937759 -1.592801 36,000 353 469 64
2021-10-20 20:48:41 GMT 48.932499 -1.591717 36,000 353 468 64
2021-10-20 20:48:38 GMT 48.925644 -1.590412 36,000 353 470 0
2021-10-20 20:48:36 GMT 48.921234 -1.589548 36,000 353 470 0
2021-10-20 20:48:33 GMT 48.913422 -1.587947 36,000 353 470 0
2021-10-20 20:48:30 GMT 48.909302 -1.587172 36,000 353 470 0
2021-10-20 20:48:28 GMT 48.897633 -1.584850 36,000 353 470 64
2021-10-20 20:48:25 GMT 48.897633 -1.584850 36,000 353 470 64
2021-10-20 20:48:22 GMT 48.892410 -1.583792 36,000 353 470 64
2021-10-20 20:48:19 GMT 48.885681 -1.582454 36,000 353 471 -64
2021-10-20 20:48:17 GMT 48.879990 -1.581381 36,000 353 471 0
2021-10-20 20:48:13 GMT 48.872955 -1.579989 36,000 353 471 0
2021-10-20 20:48:11 GMT 48.867142 -1.578792 36,000 353 473 0
2021-10-20 20:48:09 GMT 48.863510 -1.578056 36,000 353 473 -64
2021-10-20 20:48:07 GMT 48.859039 -1.577189 36,000 353 473 64
2021-10-20 20:48:04 GMT 48.852402 -1.575834 36,000 353 473 64
2021-10-20 20:48:01 GMT 48.845078 -1.574425 36,000 353 472 64
2021-10-20 20:47:59 GMT 48.841679 -1.573719 36,000 353 472 0
2021-10-20 20:47:56 GMT 48.835007 -1.572383 36,000 353 472 0
2021-10-20 20:47:53 GMT 48.828781 -1.571186 36,000 353 472 0
2021-10-20 20:47:51 GMT 48.823383 -1.570105 36,000 353 472 64
2021-10-20 20:47:49 GMT 48.820175 -1.569496 36,000 353 472 0
2021-10-20 20:47:46 GMT 48.813465 -1.568154 36,000 353 472 0
2021-10-20 20:47:43 GMT 48.806763 -1.566819 36,000 353 472 0
2021-10-20 20:47:41 GMT 48.802059 -1.565913 36,000 353 472 0
2021-10-20 20:47:39 GMT 48.793854 -1.564284 36,000 353 472 0
2021-10-20 20:47:37 GMT 48.793854 -1.564284 36,000 353 472 0
2021-10-20 20:47:34 GMT 48.786163 -1.562805 36,000 353 472 -64
2021-10-20 20:47:31 GMT 48.777714 -1.561143 36,000 353 472 -64
2021-10-20 20:47:26 GMT 48.771336 -1.559842 36,000 353 472 0
2021-10-20 20:47:24 GMT 48.764786 -1.558509 36,000 353 472 -64
2021-10-20 20:47:20 GMT 48.758209 -1.557240 36,000 353 472 -64
2021-10-20 20:47:17 GMT 48.743404 -1.554349 36,025 353 472 0
2021-10-20 20:47:14 GMT 48.743404 -1.554349 36,025 353 472 0
2021-10-20 20:47:12 GMT 48.736607 -1.552975 36,000 353 473 0
2021-10-20 20:47:07 GMT 48.727386 -1.551185 36,000 353 473 0
2021-10-20 20:47:04 GMT 48.721710 -1.550058 36,000 353 474 0
2021-10-20 20:47:02 GMT 48.718643 -1.549495 36,000 353 474 0
2021-10-20 20:46:59 GMT 48.709900 -1.547805 36,000 353 475 0
2021-10-20 20:46:56 GMT 48.704441 -1.546687 36,000 353 475 -64
2021-10-20 20:46:53 GMT 48.699783 -1.545833 36,000 353 478 -192
2021-10-20 20:46:51 GMT 48.689392 -1.543790 36,025 353 478 -256
2021-10-20 20:46:49 GMT 48.689392 -1.543790 36,050 353 478 -384
2021-10-20 20:46:46 GMT 48.682888 -1.542495 36,050 353 478 0
2021-10-20 20:46:43 GMT 48.677719 -1.541483 36,050 353 478 0
2021-10-20 20:46:41 GMT 48.667236 -1.539424 36,050 353 478 0
2021-10-20 20:46:39 GMT 48.667236 -1.539424 36,050 353 478 0
2021-10-20 20:46:37 GMT 48.664764 -1.538931 36,050 353 478 0
2021-10-20 20:46:35 GMT 48.659180 -1.537804 36,050 353 478 0
2021-10-20 20:46:32 GMT 48.653793 -1.536785 36,050 353 478 0
2021-10-20 20:46:30 GMT 48.642471 -1.534565 36,050 353 478 0
2021-10-20 20:46:27 GMT 48.637081 -1.533532 36,050 353 479 0
2021-10-20 20:46:25 GMT 48.637081 -1.533532 36,050 353 480 0
2021-10-20 20:46:22 GMT 48.631355 -1.532376 36,050 353 480 0
2021-10-20 20:46:20 GMT 48.626698 -1.531509 36,050 353 480 0
2021-10-20 20:46:17 GMT 48.620228 -1.530208 36,050 353 480 0
2021-10-20 20:46:15 GMT 48.609940 -1.528184 36,050 353 480 -64
2021-10-20 20:46:13 GMT 48.609940 -1.528184 36,050 353 480 -64
2021-10-20 20:46:11 GMT 48.607727 -1.527804 36,050 353 480 0
2021-10-20 20:46:08 GMT 48.599186 -1.526088 36,050 353 480 0
2021-10-20 20:46:06 GMT 48.595779 -1.525409 36,050 353 481 0
2021-10-20 20:46:03 GMT 48.588291 -1.523919 36,050 353 481 0
2021-10-20 20:46:01 GMT 48.583878 -1.523085 36,050 353 481 0
2021-10-20 20:45:59 GMT 48.579483 -1.522240 36,050 353 481 0
2021-10-20 20:45:56 GMT 48.573349 -1.521028 36,050 353 481 0
2021-10-20 20:45:53 GMT 48.559849 -1.518354 36,050 353 481 0
2021-10-20 20:45:50 GMT 48.559849 -1.518354 36,050 353 482 0
2021-10-20 20:45:48 GMT 48.555405 -1.517522 36,050 353 482 0
2021-10-20 20:45:46 GMT 48.551144 -1.516692 36,050 353 482 64
2021-10-20 20:45:43 GMT 48.537319 -1.514017 36,050 353 482 64
2021-10-20 20:45:40 GMT 48.537319 -1.514017 36,050 353 481 0
2021-10-20 20:45:37 GMT 48.531219 -1.512861 36,025 353 482 64
2021-10-20 20:45:34 GMT 48.524323 -1.511465 36,025 353 482 64
2021-10-20 20:45:32 GMT 48.521805 -1.511043 36,025 353 482 64
2021-10-20 20:45:30 GMT 48.515205 -1.509753 36,025 353 482 64
2021-10-20 20:45:27 GMT 48.510269 -1.508789 36,025 353 482 0
2021-10-20 20:45:25 GMT 48.504684 -1.507662 36,025 353 482 0
2021-10-20 20:45:22 GMT 48.499519 -1.506645 36,025 353 482 0
2021-10-20 20:45:20 GMT 48.484177 -1.503648 36,025 353 482 0
2021-10-20 20:45:16 GMT 48.484177 -1.503648 36,025 353 482 64
2021-10-20 20:45:13 GMT 48.478409 -1.502521 36,025 353 481 64
2021-10-20 20:45:10 GMT 48.471588 -1.501254 36,025 353 481 64
2021-10-20 20:45:06 GMT 48.462524 -1.499493 36,025 353 481 64
2021-10-20 20:45:03 GMT 48.456551 -1.498333 36,000 353 480 64
2021-10-20 20:44:59 GMT 48.444447 -1.495948 36,000 353 479 128
2021-10-20 20:44:55 GMT 48.438766 -1.494863 36,000 353 477 64
2021-10-20 20:44:52 GMT 48.433044 -1.493718 36,000 353 480 64
2021-10-20 20:44:49 GMT 48.426292 -1.492406 36,000 353 478 64
2021-10-20 20:44:46 GMT 48.419682 -1.491177 36,000 353 478 64
2021-10-20 20:44:43 GMT 48.412445 -1.489774 36,000 353 477 64
2021-10-20 20:44:41 GMT 48.407856 -1.488864 36,000 353 477 64
2021-10-20 20:44:39 GMT 48.396683 -1.486696 36,000 353 477 0
2021-10-20 20:44:36 GMT 48.396683 -1.486696 35,975 353 477 64
2021-10-20 20:44:33 GMT 48.385208 -1.484422 35,975 353 476 0
2021-10-20 20:44:31 GMT 48.385208 -1.484422 36,000 353 476 0
2021-10-20 20:44:28 GMT 48.379990 -1.483436 36,000 353 476 -64
2021-10-20 20:44:25 GMT 48.374290 -1.482359 36,000 353 475 0
2021-10-20 20:44:23 GMT 48.363678 -1.480263 36,000 353 474 -64
2021-10-20 20:44:21 GMT 48.363678 -1.480263 36,000 353 473 -64
2021-10-20 20:44:18 GMT 48.358463 -1.479251 36,000 353 472 -64
2021-10-20 20:44:16 GMT 48.353203 -1.478239 36,025 353 471 -64
2021-10-20 20:44:13 GMT 48.339798 -1.475619 36,025 353 471 -64
2021-10-20 20:44:10 GMT 48.339798 -1.475619 36,025 353 470 -64
2021-10-20 20:44:08 GMT 48.336548 -1.474985 36,025 353 470 -64
2021-10-20 20:44:06 GMT 48.332954 -1.474336 36,025 353 470 -64
2021-10-20 20:44:03 GMT 48.318104 -1.471517 36,025 353 470 -64
2021-10-20 20:44:00 GMT 48.318104 -1.471517 36,025 353 470 -64
2021-10-20 20:43:57 GMT 48.312752 -1.470506 36,025 353 470 -64
2021-10-20 20:43:55 GMT 48.308716 -1.469703 36,025 353 470 0
2021-10-20 20:43:53 GMT 48.298737 -1.467831 36,025 353 471 0
2021-10-20 20:43:51 GMT 48.298737 -1.467831 36,025 353 470 0
2021-10-20 20:43:49 GMT 48.295486 -1.467168 36,025 353 470 0
2021-10-20 20:43:46 GMT 48.287476 -1.465618 36,000 353 471 64
2021-10-20 20:43:42 GMT 48.280441 -1.464290 36,000 353 471 64
2021-10-20 20:43:39 GMT 48.273506 -1.462989 36,000 353 472 64
2021-10-20 20:43:36 GMT 48.267826 -1.461904 36,000 353 472 64
2021-10-20 20:43:34 GMT 48.262333 -1.460820 36,000 353 473 64
2021-10-20 20:43:31 GMT 48.256004 -1.459592 36,000 353 473 0
2021-10-20 20:43:29 GMT 48.244812 -1.457449 36,000 353 473 0
2021-10-20 20:43:26 GMT 48.244812 -1.457449 36,000 353 473 0
2021-10-20 20:43:24 GMT 48.241608 -1.456815 36,000 353 473 0
2021-10-20 20:43:21 GMT 48.233704 -1.455255 36,000 353 473 0
2021-10-20 20:43:17 GMT 48.226723 -1.453882 36,000 353 473 0
2021-10-20 20:43:15 GMT 48.222298 -1.453086 36,000 353 472 0
2021-10-20 20:43:12 GMT 48.216389 -1.451930 36,000 353 471 0
2021-10-20 20:43:10 GMT 48.211075 -1.450900 36,000 353 471 0
2021-10-20 20:43:07 GMT 48.204254 -1.449632 36,000 353 470 0
2021-10-20 20:43:02 GMT 48.194733 -1.447801 36,000 353 470 0
2021-10-20 20:43:00 GMT 48.189156 -1.446726 35,975 353 465 64
2021-10-20 20:42:57 GMT 48.182465 -1.445406 36,000 353 470 0
2021-10-20 20:42:55 GMT 48.179993 -1.444984 35,975 353 470 0
2021-10-20 20:42:53 GMT 48.173859 -1.443787 36,000 353 469 0
2021-10-20 20:42:50 GMT 48.164993 -1.442028 36,000 353 469 0
2021-10-20 20:42:47 GMT 48.160217 -1.441132 36,000 353 469 0
2021-10-20 20:42:45 GMT 48.156784 -1.440445 36,000 353 468 -64
2021-10-20 20:42:42 GMT 48.151749 -1.439484 36,000 353 467 0
2021-10-20 20:42:40 GMT 48.145981 -1.438316 36,000 353 465 64
2021-10-20 20:42:37 GMT 48.139755 -1.437149 36,000 353 465 64
2021-10-20 20:42:34 GMT 48.131710 -1.435617 36,000 353 464 64
2021-10-20 20:42:31 GMT 48.127380 -1.434772 36,000 353 464 0
2021-10-20 20:42:29 GMT 48.122818 -1.433853 36,000 353 464 -64
2021-10-20 20:42:26 GMT 48.115219 -1.432411 36,000 353 463 0
2021-10-20 20:42:21 GMT 48.106941 -1.430828 36,000 353 463 0
2021-10-20 20:42:19 GMT 48.101868 -1.429913 36,000 353 463 0
2021-10-20 20:42:15 GMT 48.091095 -1.427811 36,000 353 463 -64
2021-10-20 20:42:11 GMT 48.084503 -1.426532 36,000 353 463 0
2021-10-20 20:42:09 GMT 48.080036 -1.425687 36,000 353 463 64
2021-10-20 20:42:06 GMT 48.074432 -1.424583 36,000 353 463 0
2021-10-20 20:42:04 GMT 48.069077 -1.423622 36,000 353 463 64
2021-10-20 20:42:01 GMT 48.063858 -1.422592 36,000 353 463 0
2021-10-20 20:41:58 GMT 48.056717 -1.421219 36,000 353 463 0
2021-10-20 20:41:55 GMT 48.050308 -1.419983 36,000 353 463 0
2021-10-20 20:41:52 GMT 48.044037 -1.418816 36,000 353 464 0
2021-10-20 20:41:50 GMT 48.041656 -1.418335 36,000 353 465 0
2021-10-20 20:41:48 GMT 48.035889 -1.417236 36,000 353 465 0
2021-10-20 20:41:45 GMT 48.028038 -1.415757 36,000 353 466 64
2021-10-20 20:41:41 GMT 48.016586 -1.413574 36,000 353 466 64
2021-10-20 20:41:39 GMT 48.016586 -1.413574 36,000 353 466 64
2021-10-20 20:41:36 GMT 48.001968 -1.410713 36,000 353 466 0
2021-10-20 20:41:32 GMT 48.001968 -1.410713 36,000 353 466 0
2021-10-20 20:41:29 GMT 47.990433 -1.408516 36,000 353 466 0
2021-10-20 20:41:27 GMT 47.990433 -1.408516 36,000 353 466 0
2021-10-20 20:41:24 GMT 47.984043 -1.407306 36,000 353 466 0
2021-10-20 20:41:22 GMT 47.979813 -1.406525 36,000 353 466 0
2021-10-20 20:41:19 GMT 47.972874 -1.405194 36,000 353 467 0
2021-10-20 20:41:17 GMT 47.968403 -1.404349 36,000 353 467 64
2021-10-20 20:41:14 GMT 47.964214 -1.403574 36,000 353 468 0
2021-10-20 20:41:11 GMT 47.957703 -1.402267 36,000 353 468 0
2021-10-20 20:41:08 GMT 47.949692 -1.400757 36,000 353 468 -64
2021-10-20 20:41:05 GMT 47.943924 -1.399658 36,000 353 469 0
2021-10-20 20:41:02 GMT 47.936829 -1.398354 36,025 353 469 -64
2021-10-20 20:40:58 GMT 47.922455 -1.395607 36,025 353 470 -128
2021-10-20 20:40:55 GMT 47.922455 -1.395607 36,025 353 470 -128
2021-10-20 20:40:53 GMT 47.910782 -1.393341 36,025 353 471 -128
2021-10-20 20:40:50 GMT 47.910782 -1.393341 36,025 353 471 -64
2021-10-20 20:40:48 GMT 47.906162 -1.392517 36,025 353 472 -64
2021-10-20 20:40:45 GMT 47.901134 -1.391531 36,025 353 472 -64
2021-10-20 20:40:43 GMT 47.889637 -1.389348 36,025 353 472 -128
2021-10-20 20:40:40 GMT 47.889637 -1.389348 36,025 353 473 -64
2021-10-20 20:40:38 GMT 47.885403 -1.388573 36,025 353 473 -64
2021-10-20 20:40:35 GMT 47.878929 -1.387306 36,025 353 474 -64
2021-10-20 20:40:33 GMT 47.874847 -1.386543 36,025 353 476 64
2021-10-20 20:40:30 GMT 47.867664 -1.385193 36,025 353 476 64
2021-10-20 20:40:28 GMT 47.863220 -1.384415 36,000 353 477 64
2021-10-20 20:40:25 GMT 47.856583 -1.383110 36,000 353 480 64
2021-10-20 20:40:22 GMT 47.850021 -1.381953 35,975 353 480 64
2021-10-20 20:40:19 GMT 47.843037 -1.380615 35,975 353 480 0
2021-10-20 20:40:15 GMT 47.834473 -1.378995 35,975 353 481 64
2021-10-20 20:40:12 GMT 47.827255 -1.377657 36,000 353 481 0
2021-10-20 20:40:10 GMT 47.817581 -1.375832 36,000 353 481 64
2021-10-20 20:40:07 GMT 47.817581 -1.375832 36,000 353 480 64
2021-10-20 20:40:04 GMT 47.811569 -1.374700 36,000 353 480 64
2021-10-20 20:40:02 GMT 47.806030 -1.373643 36,000 353 479 64
2021-10-20 20:40:00 GMT 47.800873 -1.372673 36,000 353 477 0
2021-10-20 20:39:58 GMT 47.796486 -1.371883 35,975 353 478 64
2021-10-20 20:39:55 GMT 47.791969 -1.370967 35,975 353 477 0
2021-10-20 20:39:53 GMT 47.787457 -1.370122 35,975 353 477 0
2021-10-20 20:39:50 GMT 47.782700 -1.369240 35,975 353 477 0
2021-10-20 20:39:48 GMT 47.776154 -1.368004 35,975 353 475 0
2021-10-20 20:39:45 GMT 47.769608 -1.366768 36,000 353 475 0
2021-10-20 20:39:43 GMT 47.765156 -1.365896 36,000 353 473 0
2021-10-20 20:39:40 GMT 47.753006 -1.363572 36,000 353 471 64
2021-10-20 20:39:35 GMT 47.747040 -1.362442 36,000 353 470 64
2021-10-20 20:39:32 GMT 47.734245 -1.359910 36,000 353 467 0
2021-10-20 20:39:29 GMT 47.734245 -1.359910 36,000 353 466 64
2021-10-20 20:39:26 GMT 47.727589 -1.358643 36,000 353 465 64
2021-10-20 20:39:23 GMT 47.722095 -1.357586 36,000 353 462 192
2021-10-20 20:39:21 GMT 47.717789 -1.356743 35,975 353 460 256
2021-10-20 20:39:17 GMT 47.710373 -1.355301 35,975 353 462 256
2021-10-20 20:39:15 GMT 47.705750 -1.354408 35,975 353 461 320
2021-10-20 20:39:13 GMT 47.699936 -1.353310 35,975 353 460 192
2021-10-20 20:39:11 GMT 47.696770 -1.352727 35,950 353 460 0
2021-10-20 20:39:08 GMT 47.689682 -1.351387 35,950 353 460 0
2021-10-20 20:39:06 GMT 47.681271 -1.349769 35,950 353 459 -64
2021-10-20 20:39:04 GMT 47.675079 -1.348572 35,950 353 459 -64
2021-10-20 20:39:01 GMT 47.675079 -1.348572 35,950 353 459 -64
2021-10-20 20:38:57 GMT 47.667953 -1.347234 35,950 353 458 -64
2021-10-20 20:38:54 GMT 47.660156 -1.345825 35,975 353 458 -64
2021-10-20 20:38:51 GMT 47.653664 -1.344558 35,975 353 458 -64
2021-10-20 20:38:48 GMT 47.648117 -1.343491 35,975 353 458 0
2021-10-20 20:38:45 GMT 47.642025 -1.342374 35,975 353 457 -64
2021-10-20 20:38:42 GMT 47.635437 -1.341156 35,975 353 457 -64
2021-10-20 20:38:40 GMT 47.631413 -1.340402 35,975 353 457 -64
2021-10-20 20:38:38 GMT 47.627197 -1.339577 35,975 353 457 -64
2021-10-20 20:38:36 GMT 47.622940 -1.338783 35,975 353 457 -64
2021-10-20 20:38:32 GMT 47.614380 -1.337173 35,975 353 457 -64
2021-10-20 20:38:30 GMT 47.609764 -1.336318 35,975 353 457 -128
2021-10-20 20:38:28 GMT 47.605682 -1.335526 35,975 353 457 -128
2021-10-20 20:38:25 GMT 47.599960 -1.334496 36,000 353 457 -128
2021-10-20 20:38:22 GMT 47.593426 -1.333219 35,975 353 457 -64
2021-10-20 20:38:20 GMT 47.589050 -1.332374 35,975 353 457 -64
2021-10-20 20:38:18 GMT 47.584900 -1.331612 36,000 353 457 -192
2021-10-20 20:38:15 GMT 47.578434 -1.330332 36,000 353 457 -64
2021-10-20 20:38:12 GMT 47.571899 -1.329071 36,000 353 457 0
2021-10-20 20:38:10 GMT 47.568054 -1.328360 36,000 353 457 0
2021-10-20 20:38:06 GMT 47.558075 -1.326462 36,000 353 457 0
2021-10-20 20:38:02 GMT 47.547989 -1.324557 36,000 353 457 0
2021-10-20 20:37:57 GMT 47.541798 -1.323430 36,000 353 457 0
2021-10-20 20:37:54 GMT 47.534767 -1.322092 36,000 353 457 0
2021-10-20 20:37:51 GMT 47.528412 -1.320900 36,000 353 457 0
2021-10-20 20:37:49 GMT 47.524429 -1.320145 36,000 353 458 0
2021-10-20 20:37:47 GMT 47.520245 -1.319416 36,000 353 457 0
2021-10-20 20:37:44 GMT 47.511795 -1.317810 36,000 353 458 -64
2021-10-20 20:37:41 GMT 47.507492 -1.316986 36,000 353 458 0
2021-10-20 20:37:38 GMT 47.500042 -1.315613 36,000 353 458 0
2021-10-20 20:37:36 GMT 47.496223 -1.314909 36,000 353 458 0
2021-10-20 20:37:33 GMT 47.489594 -1.313622 36,000 353 458 0
2021-10-20 20:37:30 GMT 47.483517 -1.312514 36,000 353 458 0
2021-10-20 20:37:27 GMT 47.478607 -1.311630 36,000 353 458 0
2021-10-20 20:37:24 GMT 47.472061 -1.310401 36,000 353 458 0
2021-10-20 20:37:21 GMT 47.458145 -1.307796 36,000 353 458 64
2021-10-20 20:37:18 GMT 47.458145 -1.307796 36,000 353 458 64
2021-10-20 20:37:14 GMT 47.451233 -1.306480 36,000 353 457 64
2021-10-20 20:37:11 GMT 47.439331 -1.304214 36,000 353 457 64
2021-10-20 20:37:09 GMT 47.439331 -1.304214 36,000 353 457 64
2021-10-20 20:37:07 GMT 47.433334 -1.303116 36,000 353 457 0
2021-10-20 20:37:04 GMT 47.429283 -1.302302 36,000 353 457 0
2021-10-20 20:37:01 GMT 47.423370 -1.301246 36,000 353 457 0
2021-10-20 20:36:59 GMT 47.418064 -1.300190 36,000 353 456 64
2021-10-20 20:36:54 GMT 47.406372 -1.298035 36,000 353 456 64
2021-10-20 20:36:51 GMT 47.402328 -1.297232 36,000 353 456 64
2021-10-20 20:36:49 GMT 47.393921 -1.295700 36,000 353 455 0
2021-10-20 20:36:46 GMT 47.388657 -1.294670 36,000 353 455 0
2021-10-20 20:36:44 GMT 47.388657 -1.294670 36,000 353 456 0
2021-10-20 20:36:41 GMT 47.381844 -1.293429 36,000 353 455 0
2021-10-20 20:36:39 GMT 47.377808 -1.292679 36,000 353 456 -64
2021-10-20 20:36:36 GMT 47.372589 -1.291649 36,000 353 456 0
2021-10-20 20:36:34 GMT 47.367508 -1.290682 36,000 353 456 -128
2021-10-20 20:36:31 GMT 47.360477 -1.289415 36,025 353 456 -128
2021-10-20 20:36:29 GMT 47.356243 -1.288570 36,025 353 458 -64
2021-10-20 20:36:25 GMT 47.343441 -1.286175 36,025 353 458 -64
2021-10-20 20:36:23 GMT 47.343441 -1.286175 36,025 353 458 -64
2021-10-20 20:36:20 GMT 47.336967 -1.284978 36,025 353 458 -64
2021-10-20 20:36:16 GMT 47.326309 -1.282936 36,025 353 461 0
2021-10-20 20:36:13 GMT 47.320953 -1.281967 36,025 353 462 -64
2021-10-20 20:36:10 GMT 47.317795 -1.281349 36,025 353 463 -64
2021-10-20 20:36:07 GMT 47.310902 -1.280048 36,025 353 465 0
2021-10-20 20:36:02 GMT 47.300079 -1.278053 36,025 353 469 64
2021-10-20 20:35:59 GMT 47.293396 -1.276886 36,025 353 469 64
2021-10-20 20:35:57 GMT 47.288601 -1.275963 36,000 353 473 64
2021-10-20 20:35:53 GMT 47.279480 -1.274345 36,000 353 474 64
2021-10-20 20:35:50 GMT 47.273705 -1.273358 35,975 354 476 64
2021-10-20 20:35:47 GMT 47.266846 -1.272079 36,000 354 479 64
2021-10-20 20:35:44 GMT 47.259830 -1.270822 36,000 353 481 0
2021-10-20 20:35:41 GMT 47.253220 -1.269625 36,000 353 482 64
2021-10-20 20:35:39 GMT 47.247681 -1.268639 36,000 353 483 0
2021-10-20 20:35:35 GMT 47.239975 -1.267204 36,000 353 484 0
2021-10-20 20:35:32 GMT 47.233841 -1.266106 36,000 353 484 0
2021-10-20 20:35:30 GMT 47.230728 -1.265556 36,000 353 485 -64
2021-10-20 20:35:28 GMT 47.225662 -1.264555 36,000 353 485 -64
2021-10-20 20:35:25 GMT 47.213104 -1.262192 36,000 353 485 0
2021-10-20 20:35:22 GMT 47.213104 -1.262192 36,000 353 485 0
2021-10-20 20:35:19 GMT 47.204361 -1.260544 36,000 353 485 0
2021-10-20 20:35:16 GMT 47.198616 -1.259484 36,025 353 484 0
2021-10-20 20:35:11 GMT 47.186466 -1.257160 36,000 353 482 0
2021-10-20 20:35:06 GMT 47.176529 -1.255325 36,000 353 482 0
2021-10-20 20:35:03 GMT 47.169846 -1.254061 36,000 353 482 0
2021-10-20 20:35:00 GMT 47.163280 -1.252864 36,000 353 482 64
2021-10-20 20:34:56 GMT 47.153275 -1.251068 36,000 353 482 64
2021-10-20 20:34:52 GMT 47.140751 -1.248709 36,000 353 482 64
2021-10-20 20:34:50 GMT 47.140751 -1.248709 36,000 353 482 64
2021-10-20 20:34:48 GMT 47.124252 -1.245712 35,975 353 481 0
2021-10-20 20:34:44 GMT 47.124252 -1.245712 35,975 353 481 0
2021-10-20 20:34:40 GMT 47.118484 -1.244614 35,975 353 479 64
2021-10-20 20:34:38 GMT 47.111843 -1.243357 35,975 353 479 64
2021-10-20 20:34:35 GMT 47.108444 -1.242723 35,975 353 480 64
2021-10-20 20:34:32 GMT 47.102005 -1.241524 36,000 353 477 64
2021-10-20 20:34:29 GMT 47.086304 -1.238571 36,000 353 477 64
2021-10-20 20:34:26 GMT 47.086304 -1.238571 35,975 353 475 64
2021-10-20 20:34:22 GMT 47.079906 -1.237370 36,000 353 474 -64
2021-10-20 20:34:19 GMT 47.072891 -1.236099 36,000 353 473 -64
2021-10-20 20:34:17 GMT 47.067764 -1.235069 36,000 353 472 0
2021-10-20 20:34:12 GMT 47.058075 -1.233286 36,000 353 469 -64
2021-10-20 20:34:09 GMT 47.045837 -1.230949 36,000 353 467 0
2021-10-20 20:34:06 GMT 47.045837 -1.230949 36,000 353 468 -64
2021-10-20 20:34:02 GMT 47.036911 -1.229301 36,025 353 466 0
2021-10-20 20:33:59 GMT 47.029541 -1.227859 36,025 353 466 0
2021-10-20 20:33:56 GMT 47.022694 -1.226595 36,025 353 466 -64
2021-10-20 20:33:53 GMT 47.015617 -1.225257 36,025 353 466 -64
2021-10-20 20:33:50 GMT 47.006962 -1.223638 35,950 353 466 -64
2021-10-20 20:33:45 GMT 47.000336 -1.222366 36,025 353 466 -64
2021-10-20 20:33:42 GMT 46.993927 -1.221199 36,025 353 466 -128
2021-10-20 20:33:39 GMT 46.987221 -1.219975 36,025 353 467 -128
2021-10-20 20:33:35 GMT 46.978748 -1.218426 36,025 353 469 64
2021-10-20 20:33:32 GMT 46.971485 -1.217088 36,025 353 470 64
2021-10-20 20:33:29 GMT 46.962479 -1.215431 36,000 353 470 64
2021-10-20 20:33:26 GMT 46.960083 -1.214975 36,000 353 472 128
2021-10-20 20:33:22 GMT 46.949524 -1.213097 35,975 353 473 192
2021-10-20 20:33:19 GMT 46.942860 -1.211877 35,950 354 477 320
2021-10-20 20:33:16 GMT 46.937550 -1.210961 35,925 353 479 512
2021-10-20 20:33:12 GMT 46.928005 -1.209200 35,925 353 479 512
2021-10-20 20:33:09 GMT 46.922195 -1.208153 35,900 353 481 768
2021-10-20 20:33:07 GMT 46.915253 -1.206947 35,850 353 482 960
2021-10-20 20:33:02 GMT 46.906361 -1.205327 35,775 353 484 1280
2021-10-20 20:32:59 GMT 46.897476 -1.203690 35,675 353 485 1664
2021-10-20 20:32:56 GMT 46.893002 -1.202862 35,650 353 486 1600
2021-10-20 20:32:51 GMT 46.883083 -1.201031 35,550 353 486 1216
2021-10-20 20:32:48 GMT 46.872986 -1.199226 35,450 353 486 1088
2021-10-20 20:32:45 GMT 46.868408 -1.198334 35,425 353 486 1216
2021-10-20 20:32:42 GMT 46.860180 -1.196823 35,350 353 487 1152
2021-10-20 20:32:39 GMT 46.854641 -1.195862 35,300 353 487 1088
2021-10-20 20:32:36 GMT 46.848404 -1.194696 35,250 353 487 1024
2021-10-20 20:32:31 GMT 46.837326 -1.192620 35,175 353 487 832
2021-10-20 20:32:29 GMT 46.831318 -1.191536 35,150 353 486 704
2021-10-20 20:32:25 GMT 46.824280 -1.190275 35,100 353 486 768
2021-10-20 20:32:21 GMT 46.814651 -1.188515 35,000 353 485 896
2021-10-20 20:32:18 GMT 46.806107 -1.186925 35,000 353 485 960
2021-10-20 20:32:15 GMT 46.802582 -1.186255 34,975 353 485 960
2021-10-20 20:32:11 GMT 46.793705 -1.184669 34,900 353 485 960
2021-10-20 20:32:09 GMT 46.786972 -1.183375 34,850 353 484 1024
2021-10-20 20:32:05 GMT 46.779831 -1.182060 34,750 353 484 1152
2021-10-20 20:32:02 GMT 46.773560 -1.180963 34,750 353 484 1216
2021-10-20 20:31:59 GMT 46.764679 -1.179289 34,650 353 484 1280
2021-10-20 20:31:56 GMT 46.758091 -1.178078 34,600 353 484 1408
2021-10-20 20:31:50 GMT 46.746140 -1.175872 34,375 353 486 1536
2021-10-20 20:31:47 GMT 46.740829 -1.174934 34,375 353 486 1536
2021-10-20 20:31:45 GMT 46.734444 -1.173752 34,325 353 486 1408
2021-10-20 20:31:42 GMT 46.728577 -1.172653 34,250 353 486 1408
2021-10-20 20:31:39 GMT 46.721008 -1.171317 34,150 353 486 1408
2021-10-20 20:31:36 GMT 46.705719 -1.168503 34,075 353 487 1408
2021-10-20 20:31:32 GMT 46.705719 -1.168503 34,000 353 487 1472
2021-10-20 20:31:30 GMT 46.700226 -1.167498 33,725 353 488 1536
2021-10-20 20:31:27 GMT 46.695465 -1.166627 33,875 353 488 1536
2021-10-20 20:31:25 GMT 46.690033 -1.165649 33,825 353 488 1600
2021-10-20 20:31:22 GMT 46.678951 -1.163658 33,700 353 489 1728
2021-10-20 20:31:18 GMT 46.673645 -1.162697 33,625 353 490 1984
2021-10-20 20:31:16 GMT 46.668640 -1.161804 33,475 353 491 2048
2021-10-20 20:31:12 GMT 46.660519 -1.160294 33,425 353 492 1920
2021-10-20 20:31:09 GMT 46.654907 -1.159259 33,350 353 493 1536
2021-10-20 20:31:07 GMT 46.650284 -1.158455 33,300 353 493 1536
2021-10-20 20:31:05 GMT 46.644379 -1.157383 33,225 353 493 1216
2021-10-20 20:31:02 GMT 46.627281 -1.154182 33,150 353 493 896
2021-10-20 20:30:57 GMT 46.627281 -1.154182 33,100 353 492 960
2021-10-20 20:30:55 GMT 46.621719 -1.153163 33,050 353 492 1088
2021-10-20 20:30:52 GMT 46.615921 -1.152122 33,025 353 492 1280
2021-10-20 20:30:50 GMT 46.609123 -1.150887 32,950 353 492 1408
2021-10-20 20:30:47 GMT 46.604191 -1.149994 32,900 353 493 1472
2021-10-20 20:30:45 GMT 46.599838 -1.149210 32,750 353 493 1600
2021-10-20 20:30:42 GMT 46.593437 -1.148071 32,725 353 494 1728
2021-10-20 20:30:38 GMT 46.584404 -1.146492 32,575 353 495 1664
2021-10-20 20:30:35 GMT 46.578323 -1.145392 32,475 353 495 1536
2021-10-20 20:30:32 GMT 46.568485 -1.143608 32,475 353 495 1536
2021-10-20 20:30:29 GMT 46.562897 -1.142578 32,425 353 496 1344
2021-10-20 20:30:26 GMT 46.555984 -1.141372 32,375 353 496 1152
2021-10-20 20:30:23 GMT 46.550236 -1.140312 32,275 353 496 1152
2021-10-20 20:30:19 GMT 46.539948 -1.138458 32,225 353 495 1216
2021-10-20 20:30:17 GMT 46.536255 -1.137822 32,200 353 495 1152
2021-10-20 20:30:15 GMT 46.529526 -1.136616 32,125 353 495 1152
2021-10-20 20:30:11 GMT 46.521011 -1.135075 32,075 353 495 1024
2021-10-20 20:30:09 GMT 46.517509 -1.134407 32,050 353 495 960
2021-10-20 20:30:06 GMT 46.512203 -1.133446 32,025 353 494 896
2021-10-20 20:30:02 GMT 46.501217 -1.131454 31,950 353 493 704
2021-10-20 20:29:59 GMT 46.494514 -1.130219 31,900 353 492 704
2021-10-20 20:29:56 GMT 46.489067 -1.129189 31,900 353 492 640
2021-10-20 20:29:53 GMT 46.480637 -1.127639 31,850 353 491 704
2021-10-20 20:29:49 GMT 46.471893 -1.126032 31,800 353 490 960
2021-10-20 20:29:46 GMT 46.466217 -1.125027 31,750 353 490 960
2021-10-20 20:29:42 GMT 46.457970 -1.123558 31,625 353 489 1152
2021-10-20 20:29:39 GMT 46.450974 -1.122280 31,625 353 489 1216
2021-10-20 20:29:36 GMT 46.443073 -1.120880 31,575 353 489 1280
2021-10-20 20:29:32 GMT 46.434414 -1.119301 31,400 353 489 1216
2021-10-20 20:29:28 GMT 46.425339 -1.117658 31,325 353 489 1216
2021-10-20 20:29:25 GMT 46.419842 -1.116692 31,325 353 489 1216
2021-10-20 20:29:22 GMT 46.412888 -1.115447 31,300 353 489 1408
2021-10-20 20:29:18 GMT 46.403782 -1.113808 31,000 353 489 1472
2021-10-20 20:29:16 GMT 46.397636 -1.112709 31,075 353 489 1024
2021-10-20 20:29:13 GMT 46.391773 -1.111610 30,950 353 489 1472
2021-10-20 20:29:06 GMT 46.376595 -1.108932 30,875 353 489 1280
2021-10-20 20:29:03 GMT 46.368820 -1.107491 30,800 353 489 1024
2021-10-20 20:28:56 GMT 46.353786 -1.104744 30,700 353 488 640
2021-10-20 20:28:54 GMT 46.349224 -1.103920 30,700 353 487 576
2021-10-20 20:28:51 GMT 46.342522 -1.102684 30,675 353 486 640
2021-10-20 20:28:46 GMT 46.331440 -1.100624 30,600 353 485 768
2021-10-20 20:28:43 GMT 46.312122 -1.097191 30,525 353 485 1152
2021-10-20 20:28:38 GMT 46.312122 -1.097191 30,450 353 485 1280
2021-10-20 20:28:35 GMT 46.308105 -1.096422 30,425 353 485 1472
2021-10-20 20:28:32 GMT 46.300735 -1.095149 30,325 354 485 1664
2021-10-20 20:28:27 GMT 46.287277 -1.092738 30,025 353 486 1920
2021-10-20 20:28:23 GMT 46.281418 -1.091733 30,075 353 487 1984
2021-10-20 20:28:20 GMT 46.274368 -1.090462 29,975 353 487 1984
2021-10-20 20:28:16 GMT 46.264481 -1.088718 29,775 353 489 1536
2021-10-20 20:28:13 GMT 46.256470 -1.087245 29,750 353 489 1152
2021-10-20 20:28:10 GMT 46.250748 -1.086240 29,700 353 489 1280
2021-10-20 20:28:05 GMT 46.240196 -1.084351 29,600 353 489 1152
2021-10-20 20:28:01 GMT 46.232006 -1.082909 29,500 353 489 1152
2021-10-20 20:27:56 GMT 46.218933 -1.080546 29,300 353 489 1408
2021-10-20 20:27:53 GMT 46.213577 -1.079608 29,300 353 489 1344
2021-10-20 20:27:50 GMT 46.206436 -1.078335 29,300 353 489 1344
2021-10-20 20:27:46 GMT 46.197144 -1.076727 29,175 353 489 1472
2021-10-20 20:27:41 GMT 46.185837 -1.074717 29,125 353 489 1472
2021-10-20 20:27:36 GMT 46.174393 -1.072708 28,975 353 489 1152
2021-10-20 20:27:33 GMT 46.167984 -1.071569 28,925 353 489 1088
2021-10-20 20:27:30 GMT 46.154495 -1.069107 28,825 353 488 896
2021-10-20 20:27:23 GMT 46.145279 -1.067483 28,800 353 487 704
2021-10-20 20:27:20 GMT 46.138458 -1.066277 28,700 353 486 896
2021-10-20 20:27:17 GMT 46.131363 -1.065004 28,700 353 486 896
2021-10-20 20:27:14 GMT 46.124588 -1.063798 28,650 353 485 1088
2021-10-20 20:27:10 GMT 46.115765 -1.062241 28,575 354 485 1088
2021-10-20 20:27:07 GMT 46.109070 -1.061052 28,450 354 484 1088
2021-10-20 20:27:02 GMT 46.092628 -1.058121 28,425 354 484 1024
2021-10-20 20:26:59 GMT 46.083527 -1.056496 28,350 353 483 1088
2021-10-20 20:26:56 GMT 46.083527 -1.056496 28,300 353 483 1280
2021-10-20 20:26:51 GMT 46.071304 -1.054353 28,200 353 482 1216
2021-10-20 20:26:48 GMT 46.066559 -1.053520 28,150 353 482 1152
2021-10-20 20:26:45 GMT 46.061829 -1.052678 27,975 353 480 960
2021-10-20 20:26:40 GMT 46.049053 -1.050362 27,900 353 479 1024
2021-10-20 20:26:36 GMT 46.041138 -1.048926 27,950 353 480 960
2021-10-20 20:26:33 GMT 46.034019 -1.047684 27,900 353 480 960
2021-10-20 20:26:31 GMT 46.030975 -1.047118 27,850 353 479 1088
2021-10-20 20:26:28 GMT 46.022919 -1.045711 27,825 353 478 1088
2021-10-20 20:26:25 GMT 46.017075 -1.044662 27,575 353 477 1152
2021-10-20 20:26:20 GMT 46.003738 -1.042294 27,650 353 477 1280
2021-10-20 20:26:15 GMT 45.994675 -1.040687 27,550 353 476 1280
2021-10-20 20:26:12 GMT 45.988632 -1.039615 27,500 353 476 896
2021-10-20 20:26:09 GMT 45.981926 -1.038414 27,425 353 476 1216
2021-10-20 20:26:04 GMT 45.970798 -1.036423 27,350 353 475 768
2021-10-20 20:25:59 GMT 45.959579 -1.034431 27,275 353 474 832
2021-10-20 20:25:54 GMT 45.948486 -1.032447 27,200 353 472 896
2021-10-20 20:25:49 GMT 45.936489 -1.030312 27,125 353 471 960
2021-10-20 20:25:44 GMT 45.927551 -1.028732 27,000 354 469 1152
2021-10-20 20:25:41 GMT 45.921875 -1.027771 27,000 354 469 1088
2021-10-20 20:25:38 GMT 45.914471 -1.026466 26,925 354 469 1280
2021-10-20 20:25:35 GMT 45.907471 -1.025212 26,700 354 469 1856
2021-10-20 20:25:30 GMT 45.896690 -1.023376 26,700 354 469 1856
2021-10-20 20:25:27 GMT 45.892033 -1.022552 26,025 354 470 1472
2021-10-20 20:25:24 GMT 45.885223 -1.021394 26,550 354 469 1856
2021-10-20 20:25:21 GMT 45.878815 -1.020218 26,400 354 470 1472
2021-10-20 20:25:17 GMT 45.860844 -1.017059 26,025 353 466 1152
2021-10-20 20:25:13 GMT 45.860844 -1.017059 26,200 353 469 1088
2021-10-20 20:25:09 GMT 45.852371 -1.015549 26,200 353 468 832
2021-10-20 20:25:04 GMT 45.842316 -1.013763 26,150 353 467 1024
2021-10-20 20:25:01 GMT 45.834869 -1.012484 26,075 353 466 1280
2021-10-20 20:24:57 GMT 45.826488 -1.011017 26,025 353 466 1408
2021-10-20 20:24:54 GMT 45.820484 -1.009918 25,900 353 464 1280
2021-10-20 20:24:48 GMT 45.808056 -1.007721 25,775 353 464 1344
2021-10-20 20:24:44 GMT 45.798325 -1.006004 25,675 353 463 1152
2021-10-20 20:24:40 GMT 45.790833 -1.004713 25,625 353 463 1024
2021-10-20 20:24:36 GMT 45.782227 -1.003172 24,450 353 459 1984
2021-10-20 20:24:31 GMT 45.769501 -1.000895 25,450 353 460 1088
2021-10-20 20:24:28 GMT 45.765198 -1.000158 25,400 354 460 1280
2021-10-20 20:24:23 GMT 45.754303 -0.998215 25,275 353 459 1600
2021-10-20 20:24:18 GMT 45.743179 -0.996272 25,150 353 459 1728
2021-10-20 20:24:13 GMT 45.734161 -0.994732 24,925 353 459 1856
2021-10-20 20:24:10 GMT 45.726772 -0.993439 24,925 353 458 1856
2021-10-20 20:24:07 GMT 45.720161 -0.992271 24,825 353 459 2048
2021-10-20 20:24:02 GMT 45.709167 -0.990310 24,650 353 459 1984
2021-10-20 20:23:59 GMT 45.704910 -0.989573 24,575 353 459 1920
2021-10-20 20:23:55 GMT 45.695663 -0.987966 24,450 353 458 1344
2021-10-20 20:23:50 GMT 45.686508 -0.986425 24,350 353 458 1344
2021-10-20 20:23:47 GMT 45.679001 -0.985085 24,000 354 454 1280
2021-10-20 20:23:43 GMT 45.668537 -0.983276 24,150 354 456 1536
2021-10-20 20:23:40 GMT 45.662205 -0.982178 24,075 353 455 1472
2021-10-20 20:23:36 GMT 45.656708 -0.981200 24,000 354 455 1344
2021-10-20 20:23:32 GMT 45.648052 -0.979706 23,900 354 454 1280
2021-10-20 20:23:29 GMT 45.641628 -0.978539 23,800 354 451 1280
2021-10-20 20:23:26 GMT 45.635715 -0.977509 23,750 353 450 1280
2021-10-20 20:23:23 GMT 45.628281 -0.976242 23,700 353 450 1280
2021-10-20 20:23:19 GMT 45.619354 -0.974702 23,550 354 449 1472
2021-10-20 20:23:16 GMT 45.614090 -0.973764 23,550 354 449 1472
2021-10-20 20:23:12 GMT 45.606670 -0.972496 23,450 354 447 1728
2021-10-20 20:23:09 GMT 45.599442 -0.971218 23,350 354 447 1920
2021-10-20 20:23:06 GMT 45.593170 -0.970146 23,250 354 446 1984
2021-10-20 20:23:01 GMT 45.583626 -0.968513 23,050 354 446 1536
2021-10-20 20:22:58 GMT 45.574905 -0.966998 22,975 354 445 1408
2021-10-20 20:22:53 GMT 45.565979 -0.965390 22,875 354 444 1408
2021-10-20 20:22:50 GMT 45.560814 -0.964531 22,800 354 443 1344
2021-10-20 20:22:47 GMT 45.554077 -0.963313 22,725 353 442 1280
2021-10-20 20:22:40 GMT 45.541397 -0.961108 22,600 353 440 1408
2021-10-20 20:22:37 GMT 45.532463 -0.959562 22,500 354 439 1600
2021-10-20 20:22:30 GMT 45.521164 -0.957642 22,325 354 438 2176
2021-10-20 20:22:26 GMT 45.504673 -0.954806 22,150 354 438 2176
2021-10-20 20:22:23 GMT 45.504673 -0.954806 22,025 354 437 1408
2021-10-20 20:22:16 GMT 45.492599 -0.952672 21,850 354 437 1344
2021-10-20 20:22:11 GMT 45.481979 -0.950841 21,750 354 435 1152
2021-10-20 20:22:08 GMT 45.475857 -0.949781 21,675 354 433 1344
2021-10-20 20:22:05 GMT 45.469940 -0.948748 21,625 354 433 1600
2021-10-20 20:22:00 GMT 45.460495 -0.947169 21,475 354 432 1984
2021-10-20 20:21:57 GMT 45.453598 -0.945936 21,350 354 431 2432
2021-10-20 20:21:54 GMT 45.448563 -0.945086 21,250 354 431 2368
2021-10-20 20:21:51 GMT 45.442245 -0.943974 21,125 353 431 2176
2021-10-20 20:21:45 GMT 45.430935 -0.942011 20,975 353 429 1280
2021-10-20 20:21:42 GMT 45.424118 -0.940770 20,925 353 427 960
2021-10-20 20:21:38 GMT 45.411667 -0.938612 20,775 353 421 1152
2021-10-20 20:21:35 GMT 45.405121 -0.937435 20,775 353 421 1152
2021-10-20 20:21:32 GMT 45.405121 -0.937435 20,725 353 420 1344
2021-10-20 20:21:25 GMT 45.390976 -0.934950 20,525 353 416 1216
2021-10-20 20:21:21 GMT 45.384750 -0.933838 20,475 353 415 1280
2021-10-20 20:21:18 GMT 45.378387 -0.932726 20,400 353 413 1536
2021-10-20 20:21:15 GMT 45.372665 -0.931680 20,300 354 412 1792
2021-10-20 20:21:11 GMT 45.365295 -0.930437 20,175 354 411 2240
2021-10-20 20:21:05 GMT 45.352890 -0.928279 19,900 354 410 2880
2021-10-20 20:21:02 GMT 45.347607 -0.927407 19,750 354 410 3264
2021-10-20 20:20:56 GMT 45.337418 -0.925664 19,450 354 412 3648
2021-10-20 20:20:54 GMT 45.333313 -0.924995 19,300 354 413 3840
2021-10-20 20:20:51 GMT 45.327682 -0.924057 19,125 354 415 3968
2021-10-20 20:20:48 GMT 45.321716 -0.923048 18,850 354 418 3840
2021-10-20 20:20:45 GMT 45.314880 -0.921914 18,700 354 418 3712
2021-10-20 20:20:41 GMT 45.308083 -0.920775 18,475 354 421 3264
2021-10-20 20:20:37 GMT 45.299103 -0.919189 18,250 354 423 2688
2021-10-20 20:20:34 GMT 45.295094 -0.918497 18,150 354 423 2624
2021-10-20 20:20:31 GMT 45.288116 -0.917358 18,025 354 422 2176
2021-10-20 20:20:28 GMT 45.282349 -0.916312 17,925 354 421 1728
2021-10-20 20:20:25 GMT 45.277172 -0.915416 17,850 354 420 1728
2021-10-20 20:20:21 GMT 45.267975 -0.913827 17,700 353 418 1856
2021-10-20 20:20:18 GMT 45.264084 -0.913173 17,625 353 417 1856
2021-10-20 20:20:15 GMT 45.258877 -0.912267 17,525 353 415 1664
2021-10-20 20:20:12 GMT 45.252182 -0.911080 17,475 353 414 1472
2021-10-20 20:20:07 GMT 45.243484 -0.909576 17,375 354 411 1024
2021-10-20 20:20:04 GMT 45.237228 -0.908516 17,300 353 409 896
2021-10-20 20:19:59 GMT 45.220100 -0.905501 17,150 353 400 1472
2021-10-20 20:19:55 GMT 45.220100 -0.905501 17,150 353 400 1472
2021-10-20 20:19:51 GMT 45.212696 -0.904228 17,050 354 397 1728
2021-10-20 20:19:47 GMT 45.206135 -0.903090 16,925 354 395 2112
2021-10-20 20:19:44 GMT 45.199814 -0.901991 16,800 354 394 2368
2021-10-20 20:19:41 GMT 45.194218 -0.901080 16,425 354 394 3072
2021-10-20 20:19:38 GMT 45.182762 -0.899137 16,475 354 394 3072
2021-10-20 20:19:35 GMT 45.182762 -0.899137 16,350 354 394 3072
2021-10-20 20:19:31 GMT 45.177612 -0.898263 16,025 354 394 2752
2021-10-20 20:19:28 GMT 45.170792 -0.897086 15,925 354 394 2752
2021-10-20 20:19:24 GMT 45.164703 -0.896056 15,875 354 394 2496
2021-10-20 20:19:21 GMT 45.158836 -0.895051 15,700 354 393 2368
2021-10-20 20:19:18 GMT 45.153214 -0.894143 15,525 354 392 2496
2021-10-20 20:19:14 GMT 45.146667 -0.893032 15,475 354 391 2560
2021-10-20 20:19:11 GMT 45.139938 -0.891920 15,300 354 391 2752
2021-10-20 20:19:08 GMT 45.134308 -0.891004 15,100 354 391 3008
2021-10-20 20:19:04 GMT 45.128036 -0.890023 14,975 354 391 3072
2021-10-20 20:19:01 GMT 45.122040 -0.889042 14,800 354 391 2880
2021-10-20 20:18:57 GMT 45.116009 -0.888084 14,575 353 389 2496
2021-10-20 20:18:54 GMT 45.110687 -0.887146 14,275 352 387 2304
2021-10-20 20:18:48 GMT 45.099976 -0.885053 14,150 351 384 2240
2021-10-20 20:18:45 GMT 45.093151 -0.883462 14,150 351 384 2240
2021-10-20 20:18:43 GMT 45.089676 -0.882568 14,075 350 383 2240
2021-10-20 20:18:40 GMT 45.085285 -0.881452 13,975 350 381 2240
2021-10-20 20:18:37 GMT 45.078953 -0.879777 13,850 350 379 2176
2021-10-20 20:18:32 GMT 45.072620 -0.878169 13,725 350 378 1920
2021-10-20 20:18:30 GMT 45.068153 -0.876964 13,625 350 375 1600
2021-10-20 20:18:27 GMT 45.061588 -0.875222 13,550 350 373 1344
2021-10-20 20:18:24 GMT 45.057350 -0.874150 13,475 350 371 1600
2021-10-20 20:18:20 GMT 45.050694 -0.872408 13,375 350 367 1728
2021-10-20 20:18:16 GMT 45.044540 -0.870797 13,200 350 364 1856
2021-10-20 20:18:14 GMT 45.040966 -0.869863 13,200 350 363 1920
2021-10-20 20:18:09 GMT 45.033646 -0.867985 13,025 350 359 2240
2021-10-20 20:18:06 GMT 45.027832 -0.866481 12,900 350 358 2432
2021-10-20 20:18:04 GMT 45.024216 -0.865566 12,800 350 357 2560
2021-10-20 20:17:56 GMT 45.011719 -0.862361 12,350 350 355 3328
2021-10-20 20:17:53 GMT 45.007774 -0.861422 11,925 350 355 3968
2021-10-20 20:17:46 GMT 44.995697 -0.858438 11,750 350 357 3200
2021-10-20 20:17:43 GMT 44.990829 -0.857202 11,675 350 357 3264
2021-10-20 20:17:33 GMT 44.962807 -0.849900 10,825 350 354 1920
2021-10-20 20:17:26 GMT 44.962807 -0.849900 10,950 350 340 1216
2021-10-20 20:17:23 GMT 44.958057 -0.848694 10,950 350 343 1216
2021-10-20 20:17:15 GMT 44.946323 -0.845545 10,825 350 335 1152
2021-10-20 20:17:12 GMT 44.942505 -0.844574 10,775 350 330 1088
2021-10-20 20:17:09 GMT 44.936600 -0.843004 10,700 350 326 1088
2021-10-20 20:17:06 GMT 44.932114 -0.841893 10,575 350 321 1280
2021-10-20 20:17:02 GMT 44.927444 -0.840650 10,575 350 316 1472
2021-10-20 20:16:59 GMT 44.921234 -0.839114 10,425 351 312 2176
2021-10-20 20:16:52 GMT 44.913181 -0.837172 9,950 354 312 3520
2021-10-20 20:16:48 GMT 44.907669 -0.835876 9,950 354 312 3520
2021-10-20 20:16:45 GMT 44.902660 -0.834760 9,725 354 312 3520
2021-10-20 20:16:42 GMT 44.898235 -0.834090 9,125 0 318 3136
2021-10-20 20:16:35 GMT 44.887482 -0.834111 9,100 6 322 2944
2021-10-20 20:16:32 GMT 44.883804 -0.834626 9,050 7 323 2944
2021-10-20 20:16:28 GMT 44.877010 -0.836234 8,825 12 323 3072
2021-10-20 20:16:25 GMT 44.872559 -0.837577 8,675 12 323 3072
2021-10-20 20:16:21 GMT 44.868301 -0.838950 8,525 12 322 3072
2021-10-20 20:16:18 GMT 44.862625 -0.840789 8,325 13 320 3136
2021-10-20 20:16:14 GMT 44.857819 -0.842351 8,150 13 319 3200
2021-10-20 20:16:12 GMT 44.854385 -0.843536 7,850 13 317 3264
2021-10-20 20:16:09 GMT 44.850220 -0.844901 7,850 13 317 3264
2021-10-20 20:16:04 GMT 44.842987 -0.847255 7,575 12 315 3264
2021-10-20 20:16:00 GMT 44.836880 -0.849096 7,475 11 313 2880
2021-10-20 20:15:53 GMT 44.822914 -0.852043 7,000 5 301 2880
2021-10-20 20:15:50 GMT 44.822914 -0.852043 6,925 4 300 2944
2021-10-20 20:15:45 GMT 44.816116 -0.852356 6,700 359 292 2624
2021-10-20 20:15:43 GMT 44.813187 -0.852177 6,575 353 283 2560
2021-10-20 20:15:40 GMT 44.809616 -0.851375 6,450 349 279 2496
2021-10-20 20:15:34 GMT 44.802620 -0.848225 6,250 338 263 2048
2021-10-20 20:15:30 GMT 44.798264 -0.844901 6,100 326 244 2432
2021-10-20 20:15:24 GMT 44.793354 -0.839650 5,875 317 233 3072
2021-10-20 20:15:21 GMT 44.790802 -0.836007 5,450 309 224 3584
2021-10-20 20:15:17 GMT 44.788467 -0.831946 5,450 309 224 3584
2021-10-20 20:15:14 GMT 44.786682 -0.828291 5,250 303 219 4096
2021-10-20 20:15:12 GMT 44.785442 -0.825381 5,000 291 214 4672
2021-10-20 20:15:09 GMT 44.784325 -0.822300 4,900 295 214 4800
2021-10-20 20:15:04 GMT 44.782288 -0.814558 4,425 286 214 4480
2021-10-20 20:15:02 GMT 44.781437 -0.808299 4,225 279 214 4096
2021-10-20 20:14:59 GMT 44.781437 -0.808299 4,125 275 213 3840
2021-10-20 20:14:55 GMT 44.781189 -0.802329 3,850 268 213 3392
2021-10-20 20:14:51 GMT 44.783997 -0.784719 3,625 261 212 2944
2021-10-20 20:14:41 GMT 44.783997 -0.784719 3,250 245 205 2432
2021-10-20 20:14:31 GMT 44.788879 -0.773359 2,875 227 191 1856
2021-10-20 20:14:28 GMT 44.793121 -0.766698 2,675 226 185 1280
We lost coverage of the aircraft here for a total of 72 minutes
2021-10-20 19:02:33 GMT 44.846237 -0.690464 425 226 130 -704
2021-10-20 19:02:31 GMT 44.847107 -0.689196 450 226 130 -704
2021-10-20 19:02:22 GMT 44.851364 -0.683114 575 226 129 -640
2021-10-20 19:02:16 GMT 44.853424 -0.680106 625 226 128 -768
2021-10-20 19:02:11 GMT 44.855873 -0.676597 700 226 128 -704
2021-10-20 19:02:00 GMT 44.860203 -0.670434 800 226 128 -704
2021-10-20 19:01:50 GMT 44.864532 -0.664271 925 225 128 -704
2021-10-20 19:01:40 GMT 44.868862 -0.658041 1,050 226 128 -704
2021-10-20 19:01:28 GMT 44.877380 -0.645849 1,250 226 127 -704
2021-10-20 19:01:19 GMT 44.877380 -0.645849 1,275 226 127 -704
2021-10-20 19:01:13 GMT 44.879662 -0.642566 1,400 226 126 -640
2021-10-20 19:01:09 GMT 44.881760 -0.639561 1,400 226 126 -640
2021-10-20 19:01:03 GMT 44.883667 -0.636872 1,450 225 127 -640
2021-10-20 19:00:59 GMT 44.885342 -0.634527 1,525 226 126 -640
2021-10-20 19:00:55 GMT 44.887390 -0.631580 1,600 227 127 -640
2021-10-20 19:00:50 GMT 44.889252 -0.628900 1,600 227 127 -640
2021-10-20 19:00:46 GMT 44.891235 -0.626025 1,650 226 128 -704
2021-10-20 19:00:43 GMT 44.892059 -0.624782 1,675 226 139 -768
2021-10-20 19:00:39 GMT 44.893707 -0.622362 1,750 226 139 -768
2021-10-20 19:00:36 GMT 44.894943 -0.620662 1,750 226 139 -768
2021-10-20 19:00:30 GMT 44.897724 -0.616641 1,850 226 139 -832
2021-10-20 19:00:26 GMT 44.899658 -0.613861 1,875 227 141 -896
2021-10-20 19:00:25 GMT 44.900146 -0.613158 1,900 227 142 -896
2021-10-20 19:00:20 GMT 44.902267 -0.610134 2,025 226 146 -960
2021-10-20 19:00:17 GMT 44.904831 -0.606406 2,050 226 150 -832
2021-10-20 19:00:15 GMT 44.904831 -0.606406 2,050 226 150 -832
2021-10-20 19:00:13 GMT 44.905872 -0.604918 2,075 226 153 -704
2021-10-20 19:00:10 GMT 44.907173 -0.603042 2,125 226 159 -512
2021-10-20 19:00:06 GMT 44.909271 -0.600028 2,125 226 159 -512
2021-10-20 19:00:03 GMT 44.910828 -0.597839 2,200 226 161 -896
2021-10-20 19:00:00 GMT 44.912109 -0.596008 2,200 226 161 -896
2021-10-20 18:59:58 GMT 44.913181 -0.594535 2,225 226 161 -896
2021-10-20 18:59:55 GMT 44.914856 -0.592150 2,275 226 162 -896
2021-10-20 18:59:52 GMT 44.916275 -0.590057 2,300 226 162 -832
2021-10-20 18:59:48 GMT 44.918381 -0.587049 2,500 226 164 -896
2021-10-20 18:59:42 GMT 44.921722 -0.582275 2,500 226 164 -960
2021-10-20 18:59:38 GMT 44.923885 -0.579127 2,525 226 164 -1024
2021-10-20 18:59:32 GMT 44.927193 -0.574438 2,650 226 164 -1024
2021-10-20 18:59:30 GMT 44.928314 -0.572793 2,675 226 165 -960
2021-10-20 18:59:28 GMT 44.929241 -0.571490 2,700 226 165 -960
2021-10-20 18:59:24 GMT 44.931152 -0.568739 2,900 226 166 -896
2021-10-20 18:59:21 GMT 44.932983 -0.566123 2,800 226 166 -896
2021-10-20 18:59:18 GMT 44.934643 -0.563719 2,875 226 167 -896
2021-10-20 18:59:14 GMT 44.937107 -0.560236 2,925 226 167 -768
2021-10-20 18:59:11 GMT 44.938271 -0.558494 2,925 226 166 -576
2021-10-20 18:59:10 GMT 44.938831 -0.557690 2,950 226 166 -576
2021-10-20 18:59:07 GMT 44.940228 -0.555680 2,975 226 166 -512
2021-10-20 18:59:01 GMT 44.945580 -0.547843 3,000 226 164 0
2021-10-20 18:58:58 GMT 44.945580 -0.547843 3,000 226 164 0
2021-10-20 18:58:50 GMT 44.949631 -0.542082 3,025 226 161 -64
2021-10-20 18:58:47 GMT 44.951065 -0.539965 3,025 226 161 -64
2021-10-20 18:58:40 GMT 44.954613 -0.534914 3,025 226 163 -128
2021-10-20 18:58:37 GMT 44.956467 -0.532248 3,025 225 164 -192
2021-10-20 18:58:30 GMT 44.960129 -0.527148 3,075 226 166 -256
2021-10-20 18:58:27 GMT 44.961960 -0.524532 3,075 226 165 -256
2021-10-20 18:58:20 GMT 44.965366 -0.519573 3,125 226 164 -320
2021-10-20 18:58:17 GMT 44.967270 -0.516881 3,125 226 164 -320
2021-10-20 18:58:09 GMT 44.971252 -0.511191 3,175 226 164 -320
2021-10-20 18:58:06 GMT 44.972908 -0.508788 3,175 226 165 -320
2021-10-20 18:57:57 GMT 44.978394 -0.500924 3,225 226 164 -320
2021-10-20 18:57:49 GMT 44.982193 -0.495366 3,275 227 164 -256
2021-10-20 18:57:46 GMT 44.983799 -0.493045 3,300 226 164 -320
2021-10-20 18:57:39 GMT 44.989155 -0.485274 3,325 226 164 -320
2021-10-20 18:57:36 GMT 44.989155 -0.485274 3,350 226 164 -320
2021-10-20 18:57:29 GMT 44.992722 -0.480194 3,375 226 164 -256
2021-10-20 18:57:26 GMT 44.994370 -0.477774 3,375 226 165 -320
2021-10-20 18:57:18 GMT 44.998764 -0.471431 3,425 226 166 -320
2021-10-20 18:57:15 GMT 45.005402 -0.461949 3,450 226 167 -256
2021-10-20 18:57:06 GMT 45.005402 -0.461949 3,475 225 168 -256
2021-10-20 18:56:58 GMT 45.009384 -0.456587 3,525 222 172 -256
2021-10-20 18:56:55 GMT 45.011307 -0.454167 3,525 221 173 -256
2021-10-20 18:56:48 GMT 45.016060 -0.449167 3,550 211 183 -320
2021-10-20 18:56:45 GMT 45.018311 -0.447301 3,575 207 186 -320
2021-10-20 18:56:38 GMT 45.024860 -0.444142 3,625 190 199 -576
2021-10-20 18:56:35 GMT 45.026722 -0.443807 3,650 184 204 -576
2021-10-20 18:56:27 GMT 45.033691 -0.443377 3,725 182 210 -640
2021-10-20 18:56:24 GMT 45.036823 -0.443205 3,750 182 211 -576
2021-10-20 18:56:17 GMT 45.044174 -0.442919 3,825 182 215 -640
2021-10-20 18:56:14 GMT 45.046738 -0.442803 3,825 182 217 -640
2021-10-20 18:56:07 GMT 45.054188 -0.442602 3,925 180 221 -576
2021-10-20 18:56:04 GMT 45.056808 -0.442657 3,925 178 222 -640
2021-10-20 18:55:56 GMT 45.067410 -0.443740 4,025 172 226 -320
2021-10-20 18:55:44 GMT 45.078094 -0.445862 4,025 172 225 0
2021-10-20 18:55:38 GMT 45.083496 -0.446908 4,025 172 225 0
2021-10-20 18:55:34 GMT 45.088486 -0.447889 4,025 165 235 -256
2021-10-20 18:55:29 GMT 45.093613 -0.448870 4,025 172 226 0
2021-10-20 18:55:26 GMT 45.096817 -0.449524 4,025 172 226 0
2021-10-20 18:55:23 GMT 45.099014 -0.449982 4,025 172 226 -64
2021-10-20 18:55:16 GMT 45.106934 -0.451551 4,050 171 226 -64
2021-10-20 18:55:13 GMT 45.109634 -0.452074 4,050 171 226 -64
2021-10-20 18:55:10 GMT 45.113308 -0.452851 4,050 170 228 -128
2021-10-20 18:55:05 GMT 45.117870 -0.453923 4,075 167 232 -128
2021-10-20 18:55:01 GMT 45.122955 -0.455409 4,075 164 236 -320
2021-10-20 18:54:54 GMT 45.130508 -0.459399 4,150 150 249 -768
2021-10-20 18:54:50 GMT 45.133713 -0.462145 4,175 143 255 -704
2021-10-20 18:54:46 GMT 45.139984 -0.469666 4,275 131 264 -832
2021-10-20 18:54:43 GMT 45.139984 -0.469666 4,275 131 264 -832
2021-10-20 18:54:39 GMT 45.142960 -0.474636 4,325 124 270 -832
2021-10-20 18:54:33 GMT 45.147125 -0.484510 4,400 114 279 -768
2021-10-20 18:54:30 GMT 45.148640 -0.489695 4,625 96 295 -768
2021-10-20 18:54:26 GMT 45.150223 -0.497131 4,500 103 288 -768
2021-10-20 18:54:20 GMT 45.151714 -0.510395 4,550 96 293 -576
2021-10-20 18:54:15 GMT 45.152225 -0.517027 4,650 95 296 -768
2021-10-20 18:54:12 GMT 45.152618 -0.522243 4,650 95 296 -768
2021-10-20 18:54:09 GMT 45.153122 -0.529109 4,700 95 298 -832
2021-10-20 18:54:06 GMT 45.153625 -0.535976 4,800 95 301 -768
2021-10-20 18:54:02 GMT 45.154133 -0.542885 4,800 95 301 -768
2021-10-20 18:53:59 GMT 45.154587 -0.549382 4,825 95 302 -704
2021-10-20 18:53:53 GMT 45.155483 -0.562178 4,925 95 305 -1280
2021-10-20 18:53:49 GMT 45.155914 -0.569000 5,100 94 305 -2496
2021-10-20 18:53:46 GMT 45.156738 -0.582472 5,250 94 305 -2496
2021-10-20 18:53:42 GMT 45.156738 -0.582472 5,325 94 304 -2368
2021-10-20 18:53:38 GMT 45.157196 -0.589927 5,450 94 303 -2304
2021-10-20 18:53:37 GMT 45.157288 -0.592150 5,500 94 303 -2304
2021-10-20 18:53:35 GMT 45.157562 -0.596597 5,575 94 303 -2304
2021-10-20 18:53:32 GMT 45.157860 -0.601836 5,800 94 303 -2112
2021-10-20 18:53:27 GMT 45.158432 -0.612684 5,975 93 304 -1984
2021-10-20 18:53:24 GMT 45.158745 -0.618718 5,975 93 304 -1984
2021-10-20 18:53:19 GMT 45.159161 -0.627828 6,175 93 306 -1792
2021-10-20 18:53:16 GMT 45.159443 -0.634192 6,325 93 306 -1792
2021-10-20 18:53:13 GMT 45.159805 -0.643354 6,375 93 307 -1984
2021-10-20 18:53:10 GMT 45.159943 -0.646035 6,425 93 307 -2176
2021-10-20 18:53:08 GMT 45.160141 -0.651141 6,500 93 307 -2176
2021-10-20 18:53:07 GMT 45.160355 -0.656172 6,600 93 307 -2240
2021-10-20 18:53:04 GMT 45.160419 -0.657840 6,950 93 307 -2304
2021-10-20 18:53:01 GMT 45.160629 -0.663103 6,950 93 307 -1920
2021-10-20 18:52:55 GMT 45.161118 -0.675458 6,950 93 309 -1344
2021-10-20 18:52:52 GMT 45.161453 -0.683507 6,975 93 311 -960
2021-10-20 18:52:47 GMT 45.161774 -0.692793 7,050 92 313 -1024
2021-10-20 18:52:45 GMT 45.161957 -0.697230 7,075 92 313 -1024
2021-10-20 18:52:43 GMT 45.162048 -0.700311 7,175 92 313 -1024
2021-10-20 18:52:41 GMT 45.162186 -0.704433 7,175 92 314 -1152
2021-10-20 18:52:35 GMT 45.162605 -0.718734 7,375 91 315 -1280
2021-10-20 18:52:30 GMT 45.162746 -0.726236 7,375 91 315 -1344
2021-10-20 18:52:27 GMT 45.162888 -0.733538 7,550 91 315 -1472
2021-10-20 18:52:23 GMT 45.163071 -0.743855 7,575 91 315 -1280
2021-10-20 18:52:20 GMT 45.163147 -0.747920 7,625 91 315 -1024
2021-10-20 18:52:18 GMT 45.163212 -0.752028 7,650 91 318 -512
2021-10-20 18:52:16 GMT 45.163284 -0.756029 7,675 91 318 -512
2021-10-20 18:52:13 GMT 45.163399 -0.761071 7,700 91 319 -512
2021-10-20 18:52:09 GMT 45.163513 -0.769762 7,725 90 322 -704
2021-10-20 18:52:07 GMT 45.163586 -0.777417 7,775 89 324 -768
2021-10-20 18:52:06 GMT 45.163586 -0.779895 7,800 89 324 -768
2021-10-20 18:52:03 GMT 45.163376 -0.788334 7,825 87 327 -704
2021-10-20 18:52:01 GMT 45.163376 -0.788334 7,950 84 329 -1280
2021-10-20 18:51:56 GMT 45.162746 -0.798050 7,950 80 330 -1664
2021-10-20 18:51:53 GMT 45.161911 -0.805337 8,125 78 332 -1728
2021-10-20 18:51:49 GMT 45.160511 -0.814194 8,225 75 332 -1664
2021-10-20 18:51:46 GMT 45.159576 -0.819201 8,225 75 332 -1664
2021-10-20 18:51:44 GMT 45.158745 -0.823506 8,275 74 331 -1728
2021-10-20 18:51:43 GMT 45.156277 -0.835832 8,400 74 329 -1792
2021-10-20 18:51:39 GMT 45.156277 -0.835832 8,450 75 330 -1536
2021-10-20 18:51:34 GMT 45.154785 -0.844206 8,550 87 329 -512
2021-10-20 18:51:31 GMT 45.153809 -0.850329 8,850 87 329 -512
2021-10-20 18:51:24 GMT 45.152134 -0.874820 8,850 97 323 -1856
2021-10-20 18:51:20 GMT 45.152134 -0.874820 8,850 97 323 -1856
2021-10-20 18:51:14 GMT 45.152481 -0.888127 8,950 95 324 -2176
2021-10-20 18:51:11 GMT 45.152985 -0.894274 9,025 97 323 -1728
2021-10-20 18:51:08 GMT 45.153580 -0.900421 9,125 98 323 -1152
2021-10-20 18:51:04 GMT 45.155411 -0.917489 9,200 98 324 -832
2021-10-20 18:51:00 GMT 45.155411 -0.917489 9,200 98 327 -256
2021-10-20 18:50:56 GMT 45.156281 -0.925729 9,225 98 329 -64
2021-10-20 18:50:53 GMT 45.156921 -0.931745 9,225 98 330 128
2021-10-20 18:50:50 GMT 45.157951 -0.940939 9,225 99 333 128
2021-10-20 18:50:46 GMT 45.158695 -0.947504 9,225 99 334 -576
2021-10-20 18:50:43 GMT 45.159210 -0.951821 9,325 99 329 -3072
2021-10-20 18:50:41 GMT 45.159813 -0.957083 9,325 99 329 -3072
2021-10-20 18:50:39 GMT 45.160187 -0.960634 9,350 99 329 -3072
2021-10-20 18:50:36 GMT 45.161224 -0.969282 9,575 99 329 -3072
2021-10-20 18:50:32 GMT 45.162003 -0.976242 9,875 99 328 -2880
2021-10-20 18:50:29 GMT 45.162701 -0.982405 9,875 98 327 -1984
2021-10-20 18:50:26 GMT 45.163723 -0.991650 9,975 99 328 -1152
2021-10-20 18:50:22 GMT 45.164284 -0.996607 10,025 99 326 -1472
2021-10-20 18:50:19 GMT 45.165169 -1.003641 10,100 101 327 -1472
2021-10-20 18:50:16 GMT 45.166054 -1.010072 10,200 101 325 -1600
2021-10-20 18:50:12 GMT 45.167309 -1.018379 10,300 101 324 -2176
2021-10-20 18:50:09 GMT 45.168285 -1.025011 10,475 102 324 -1280
2021-10-20 18:50:06 GMT 45.169636 -1.033653 10,500 102 324 -1280
2021-10-20 18:50:05 GMT 45.169636 -1.033653 10,500 102 324 -1280
2021-10-20 18:50:02 GMT 45.170517 -1.039320 10,550 102 324 -1280
2021-10-20 18:49:58 GMT 45.171844 -1.047886 10,775 102 319 -2496
2021-10-20 18:49:55 GMT 45.172894 -1.054286 10,775 102 319 -2624
2021-10-20 18:49:52 GMT 45.173859 -1.060311 10,925 102 316 -2816
2021-10-20 18:49:48 GMT 45.175129 -1.068487 11,225 103 321 -1024
2021-10-20 18:49:44 GMT 45.176479 -1.076928 11,225 103 321 -1024
2021-10-20 18:49:38 GMT 45.178070 -1.086927 11,275 103 316 -704
2021-10-20 18:49:37 GMT 45.178387 -1.088852 11,275 103 316 -704
2021-10-20 18:49:36 GMT 45.178757 -1.091112 11,275 103 317 -1408
2021-10-20 18:49:33 GMT 45.179878 -1.097360 11,350 103 317 -1600
2021-10-20 18:49:27 GMT 45.182205 -1.111026 11,575 103 321 -1088
2021-10-20 18:49:24 GMT 45.183334 -1.117532 11,575 103 321 -1088
2021-10-20 18:49:21 GMT 45.184296 -1.122960 11,625 102 329 -1216
2021-10-20 18:49:19 GMT 45.184982 -1.127210 11,700 102 329 -1216
2021-10-20 18:49:16 GMT 45.185898 -1.132638 11,700 102 329 -1216
2021-10-20 18:49:13 GMT 45.186859 -1.138524 11,875 101 331 -2112
2021-10-20 18:49:09 GMT 45.188396 -1.148339 11,975 101 331 -2112
2021-10-20 18:49:06 GMT 45.189327 -1.154770 12,350 99 332 -2112
2021-10-20 18:49:01 GMT 45.190586 -1.164216 12,350 99 332 -2112
2021-10-20 18:48:58 GMT 45.191345 -1.170109 12,350 99 332 -2112
2021-10-20 18:48:55 GMT 45.192215 -1.177212 12,550 99 334 -1920
2021-10-20 18:48:52 GMT 45.193085 -1.184823 12,550 98 334 -1728
2021-10-20 18:48:48 GMT 45.194122 -1.194294 12,625 98 337 -1216
2021-10-20 18:48:45 GMT 45.194729 -1.199854 12,725 98 340 -1024
2021-10-20 18:48:41 GMT 45.195518 -1.207357 12,725 98 340 -1024
2021-10-20 18:48:37 GMT 45.197243 -1.222631 12,825 98 345 -1088
2021-10-20 18:48:34 GMT 45.197243 -1.222631 13,000 97 356 -896
2021-10-20 18:48:27 GMT 45.199127 -1.240540 13,000 97 356 -896
2021-10-20 18:48:24 GMT 45.199711 -1.246747 13,025 97 356 -896
2021-10-20 18:48:19 GMT 45.200642 -1.258470 13,100 95 363 -1024
2021-10-20 18:48:18 GMT 45.201050 -1.264605 13,150 94 366 -1088
2021-10-20 18:48:12 GMT 45.201527 -1.274481 13,225 92 372 -1344
2021-10-20 18:48:11 GMT 45.201572 -1.276625 13,250 92 372 -1344
2021-10-20 18:48:05 GMT 45.201851 -1.291496 13,400 90 380 -1216
2021-10-20 18:48:03 GMT 45.201920 -1.296518 13,425 90 381 -1088
2021-10-20 18:47:56 GMT 45.202103 -1.314436 13,625 90 391 -1216
2021-10-20 18:47:52 GMT 45.202240 -1.325684 13,625 91 397 -1472
2021-10-20 18:47:48 GMT 45.202377 -1.336081 13,725 91 397 -1472
2021-10-20 18:47:45 GMT 45.202408 -1.341337 13,775 91 401 -1280
2021-10-20 18:47:40 GMT 45.202595 -1.355137 13,875 90 418 -1536
2021-10-20 18:47:39 GMT 45.202595 -1.357883 13,900 90 418 -1536
2021-10-20 18:47:36 GMT 45.202698 -1.366817 14,125 90 418 -1536
2021-10-20 18:47:33 GMT 45.202782 -1.373626 14,125 90 418 -1536
2021-10-20 18:47:30 GMT 45.202881 -1.381662 14,125 90 418 -1536
2021-10-20 18:47:27 GMT 45.202969 -1.391512 14,225 90 423 -1536
2021-10-20 18:47:25 GMT 45.203156 -1.407885 14,275 90 431 -1536
2021-10-20 18:47:21 GMT 45.203156 -1.407885 14,350 90 431 -1536
2021-10-20 18:47:17 GMT 45.203247 -1.418740 14,450 90 434 -1536
2021-10-20 18:47:14 GMT 45.203384 -1.429007 14,550 90 441 -1600
2021-10-20 18:47:13 GMT 45.203388 -1.431639 14,575 90 447 -1664
2021-10-20 18:47:11 GMT 45.203430 -1.437901 14,625 90 447 -1664
2021-10-20 18:47:10 GMT 45.203476 -1.441236 14,675 90 447 -1664
2021-10-20 18:47:08 GMT 45.203522 -1.446010 14,725 90 449 -1728
2021-10-20 18:47:05 GMT 45.203617 -1.453478 14,900 90 458 -2368
2021-10-20 18:47:02 GMT 45.203712 -1.463392 14,900 90 458 -2368
2021-10-20 18:47:00 GMT 45.203751 -1.468964 15,000 90 459 -2560
2021-10-20 18:46:54 GMT 45.203934 -1.487340 15,300 90 463 -3648
2021-10-20 18:46:49 GMT 45.204086 -1.500572 15,675 90 474 -3008
2021-10-20 18:46:43 GMT 45.204300 -1.518729 15,850 90 474 -3008
2021-10-20 18:46:39 GMT 45.204411 -1.532593 16,275 90 477 -3776
2021-10-20 18:46:36 GMT 45.204529 -1.547110 16,350 90 478 -4480
2021-10-20 18:46:34 GMT 45.204529 -1.547110 16,425 90 478 -4608
2021-10-20 18:46:27 GMT 45.204803 -1.571241 16,975 90 479 -4544
2021-10-20 18:46:24 GMT 45.204922 -1.580959 17,375 90 482 -4224
2021-10-20 18:46:21 GMT 45.204971 -1.587390 17,375 90 482 -4224
2021-10-20 18:46:19 GMT 45.205063 -1.595898 17,575 90 482 -4224
2021-10-20 18:46:18 GMT 45.205124 -1.599295 17,650 90 484 -4224
2021-10-20 18:46:15 GMT 45.205215 -1.609366 17,875 90 484 -4160
2021-10-20 18:46:12 GMT 45.205353 -1.625323 18,200 90 486 -4032
2021-10-20 18:46:10 GMT 45.205353 -1.625323 18,200 90 488 -3776
2021-10-20 18:46:08 GMT 45.205490 -1.640690 18,500 90 488 -3776
2021-10-20 18:46:05 GMT 45.205490 -1.640690 18,500 90 491 -3712
2021-10-20 18:46:04 GMT 45.205528 -1.644064 18,575 90 491 -3648
2021-10-20 18:46:01 GMT 45.205574 -1.654112 18,800 90 493 -3584
2021-10-20 18:46:00 GMT 45.205627 -1.656843 18,850 90 495 -3456
2021-10-20 18:45:56 GMT 45.205715 -1.669051 19,025 90 498 -3392
2021-10-20 18:45:53 GMT 45.205765 -1.678881 19,200 90 500 -3392
2021-10-20 18:45:49 GMT 45.205902 -1.692229 19,425 90 504 -3392
2021-10-20 18:45:45 GMT 45.205994 -1.706498 19,825 90 509 -3520
2021-10-20 18:45:42 GMT 45.206039 -1.714652 19,825 90 509 -3520
2021-10-20 18:45:40 GMT 45.206131 -1.724788 20,025 90 513 -3712
2021-10-20 18:45:38 GMT 45.206181 -1.730950 20,125 90 514 -3840
2021-10-20 18:45:36 GMT 45.206268 -1.743949 20,350 90 515 -4032
2021-10-20 18:45:34 GMT 45.206268 -1.743949 20,400 90 516 -4352
2021-10-20 18:45:32 GMT 45.206322 -1.749573 20,525 90 516 -4352
2021-10-20 18:45:29 GMT 45.206367 -1.758214 20,700 90 517 -4544
2021-10-20 18:45:26 GMT 45.206459 -1.769134 20,950 90 518 -4672
2021-10-20 18:45:24 GMT 45.206497 -1.774096 21,075 90 518 -4800
2021-10-20 18:45:23 GMT 45.206551 -1.779383 21,200 90 518 -4864
2021-10-20 18:45:22 GMT 45.206551 -1.783269 21,300 90 519 -5120
2021-10-20 18:45:20 GMT 45.206635 -1.790510 21,475 90 519 -5120
2021-10-20 18:45:17 GMT 45.206692 -1.800954 21,725 90 519 -5120
2021-10-20 18:45:15 GMT 45.206783 -1.808323 22,075 90 520 -4864
2021-10-20 18:45:12 GMT 45.206833 -1.816228 22,075 90 520 -4864
2021-10-20 18:45:09 GMT 45.206909 -1.826673 22,375 90 520 -4864
2021-10-20 18:45:07 GMT 45.207001 -1.839294 22,650 90 521 -4672
2021-10-20 18:45:04 GMT 45.207066 -1.846440 22,825 90 521 -4672
2021-10-20 18:45:02 GMT 45.207111 -1.849790 23,025 90 522 -4992
2021-10-20 18:45:01 GMT 45.207184 -1.856755 23,125 90 522 -4992
2021-10-20 18:44:59 GMT 45.207203 -1.860642 23,125 90 522 -5184
2021-10-20 18:44:57 GMT 45.207253 -1.869217 23,400 90 521 -5440
2021-10-20 18:44:54 GMT 45.207344 -1.879198 24,075 90 521 -5888
2021-10-20 18:44:50 GMT 45.207436 -1.893467 24,075 90 520 -5760
2021-10-20 18:44:47 GMT 45.207481 -1.901707 24,350 90 520 -5184
2021-10-20 18:44:44 GMT 45.207596 -1.913321 24,800 90 521 -4864
2021-10-20 18:44:41 GMT 45.207623 -1.921804 24,800 90 521 -4928
2021-10-20 18:44:38 GMT 45.207687 -1.931567 25,025 90 521 -4992
2021-10-20 18:44:37 GMT 45.207809 -1.946858 25,275 90 521 -4928
2021-10-20 18:44:34 GMT 45.207809 -1.946858 25,350 90 521 -4800
2021-10-20 18:44:32 GMT 45.207809 -1.950609 25,475 90 522 -4480
2021-10-20 18:44:29 GMT 45.207916 -1.964264 25,775 90 523 -4096
2021-10-20 18:44:26 GMT 45.207962 -1.973354 25,950 90 524 -4480
2021-10-20 18:44:23 GMT 45.208042 -1.984104 26,175 90 524 -4480
2021-10-20 18:44:18 GMT 45.208145 -2.001997 26,575 90 526 -4224
2021-10-20 18:44:14 GMT 45.208275 -2.026308 27,025 90 528 -3776
2021-10-20 18:44:11 GMT 45.208275 -2.026308 27,025 90 528 -3776
2021-10-20 18:44:10 GMT 45.208282 -2.029528 27,100 90 531 -3648
2021-10-20 18:44:09 GMT 45.208412 -2.049754 27,425 90 531 -3648
2021-10-20 18:44:04 GMT 45.208412 -2.049754 27,475 90 531 -3584
2021-10-20 18:44:02 GMT 45.208462 -2.060271 27,650 90 533 -3648
2021-10-20 18:44:00 GMT 45.208511 -2.063860 27,700 90 534 -3712
2021-10-20 18:43:57 GMT 45.208557 -2.075893 27,875 90 535 -3776
2021-10-20 18:43:56 GMT 45.208557 -2.079620 27,975 90 537 -3584
2021-10-20 18:43:54 GMT 45.208557 -2.085244 28,075 90 537 -3456
2021-10-20 18:43:51 GMT 45.208603 -2.096312 28,275 90 540 -3264
2021-10-20 18:43:46 GMT 45.208694 -2.110094 28,500 90 541 -3456
2021-10-20 18:43:43 GMT 45.208740 -2.124220 28,800 90 545 -4160
2021-10-20 18:43:39 GMT 45.208786 -2.137109 28,975 90 545 -4160
2021-10-20 18:43:36 GMT 45.208786 -2.147224 29,175 90 545 -4352
2021-10-20 18:43:35 GMT 45.208832 -2.150312 29,250 90 546 -4544
2021-10-20 18:43:33 GMT 45.208832 -2.159467 29,650 90 546 -4544
2021-10-20 18:43:30 GMT 45.208881 -2.169197 29,650 90 546 -4480
2021-10-20 18:43:29 GMT 45.208881 -2.172680 29,725 90 546 -4224
2021-10-20 18:43:27 GMT 45.208923 -2.178105 29,800 90 546 -4224
2021-10-20 18:43:26 GMT 45.208927 -2.181322 30,075 90 547 -4096
2021-10-20 18:43:24 GMT 45.208969 -2.194584 30,125 90 547 -4032
2021-10-20 18:43:22 GMT 45.209015 -2.202890 30,275 90 547 -4096
2021-10-20 18:43:19 GMT 45.209061 -2.207925 30,375 90 546 -4160
2021-10-20 18:43:16 GMT 45.209106 -2.217407 30,525 90 545 -4096
2021-10-20 18:43:14 GMT 45.209152 -2.224928 30,700 90 544 -4160
2021-10-20 18:43:13 GMT 45.209152 -2.230290 30,800 90 543 -4160
2021-10-20 18:43:11 GMT 45.209206 -2.243154 31,050 90 541 -4096
2021-10-20 18:43:08 GMT 45.209206 -2.246637 31,125 90 540 -4032
2021-10-20 18:43:07 GMT 45.209251 -2.250590 31,200 90 540 -4032
2021-10-20 18:43:05 GMT 45.209290 -2.259652 31,375 90 537 -3904
2021-10-20 18:43:03 GMT 45.209297 -2.264992 31,500 90 537 -3904
2021-10-20 18:43:02 GMT 45.209290 -2.268808 31,500 90 536 -3968
2021-10-20 18:43:01 GMT 45.209297 -2.272160 31,600 90 535 -3968
2021-10-20 18:43:00 GMT 45.209335 -2.279336 31,750 90 534 -3968
2021-10-20 18:42:57 GMT 45.209381 -2.286726 31,925 90 533 -4032
2021-10-20 18:42:56 GMT 45.209381 -2.297320 32,050 90 532 -4096
2021-10-20 18:42:54 GMT 45.209381 -2.297320 32,125 90 531 -4096
2021-10-20 18:42:53 GMT 45.209393 -2.300631 32,200 90 530 -4160
2021-10-20 18:42:51 GMT 45.209427 -2.308241 32,300 90 529 -4160
2021-10-20 18:42:50 GMT 45.209393 -2.311885 32,375 90 527 -4160
2021-10-20 18:42:45 GMT 45.209427 -2.327663 32,675 90 525 -4032
2021-10-20 18:42:44 GMT 45.209427 -2.330933 32,950 90 524 -3968
2021-10-20 18:42:41 GMT 45.209427 -2.346627 33,000 90 523 -3200
2021-10-20 18:42:38 GMT 45.209438 -2.356299 33,150 90 522 -2688
2021-10-20 18:42:36 GMT 45.209473 -2.359118 33,175 90 522 -2688
2021-10-20 18:42:32 GMT 45.209473 -2.373832 33,400 90 520 -3456
2021-10-20 18:42:30 GMT 45.209473 -2.381090 33,500 90 520 -3456
2021-10-20 18:42:29 GMT 45.209473 -2.384426 33,575 90 516 -3968
2021-10-20 18:42:26 GMT 45.209484 -2.394283 33,750 90 516 -3968
2021-10-20 18:42:25 GMT 45.209473 -2.397374 33,800 90 516 -3968
2021-10-20 18:42:23 GMT 45.209473 -2.404960 33,950 90 516 -3968
2021-10-20 18:42:20 GMT 45.209484 -2.422619 34,275 90 513 -3520
2021-10-20 18:42:17 GMT 45.209484 -2.422619 34,275 90 513 -3520
2021-10-20 18:42:16 GMT 45.209484 -2.425701 34,325 90 512 -3520
2021-10-20 18:42:14 GMT 45.209518 -2.432360 34,450 90 511 -3584
2021-10-20 18:42:13 GMT 45.209518 -2.436022 34,500 90 510 -3648
2021-10-20 18:42:11 GMT 45.209518 -2.442823 34,625 90 508 -3776
2021-10-20 18:42:07 GMT 45.209534 -2.458593 34,925 90 505 -3904
2021-10-20 18:42:05 GMT 45.209534 -2.463617 35,025 90 504 -3904
2021-10-20 18:42:03 GMT 45.209579 -2.470718 35,175 90 502 -3840
2021-10-20 18:42:01 GMT 45.209564 -2.483629 35,400 90 500 -3456
2021-10-20 18:41:57 GMT 45.209564 -2.493373 35,550 89 498 -2688
2021-10-20 18:41:56 GMT 45.209564 -2.493373 35,550 89 498 -2688
2021-10-20 18:41:54 GMT 45.209564 -2.497035 35,600 89 497 -2432
2021-10-20 18:41:52 GMT 45.209534 -2.503409 35,675 89 497 -2112
2021-10-20 18:41:50 GMT 45.209518 -2.512992 35,825 89 495 -1280
2021-10-20 18:41:46 GMT 45.209473 -2.525809 35,900 89 495 -1280
2021-10-20 18:41:43 GMT 45.209427 -2.532283 35,900 89 495 -1216
2021-10-20 18:41:42 GMT 45.209393 -2.535296 35,925 88 496 -384
2021-10-20 18:41:41 GMT 45.209381 -2.538757 35,975 88 496 -384
2021-10-20 18:41:39 GMT 45.209297 -2.546885 35,975 88 496 -384
2021-10-20 18:41:37 GMT 45.209160 -2.553986 36,000 86 496 -128
2021-10-20 18:41:36 GMT 45.209114 -2.557537 36,000 86 496 -128
2021-10-20 18:41:35 GMT 45.209019 -2.560551 36,000 86 496 -128
2021-10-20 18:41:34 GMT 45.208603 -2.569796 36,000 85 497 0
2021-10-20 18:41:32 GMT 45.208603 -2.569796 36,000 85 497 0
2021-10-20 18:41:30 GMT 45.207962 -2.579760 36,000 83 498 64
2021-10-20 18:41:28 GMT 45.207687 -2.583357 36,000 82 498 64
2021-10-20 18:41:26 GMT 45.207157 -2.589759 36,000 82 498 64
2021-10-20 18:41:24 GMT 45.206459 -2.596793 36,000 80 498 0
2021-10-20 18:41:23 GMT 45.206135 -2.599606 36,000 79 499 0
2021-10-20 18:41:21 GMT 45.205437 -2.605502 36,000 79 499 0
2021-10-20 18:41:20 GMT 45.204987 -2.608861 36,000 79 499 0
2021-10-20 18:41:19 GMT 45.204071 -2.615465 36,000 77 499 0
2021-10-20 18:41:17 GMT 45.203613 -2.618474 36,000 76 499 0
2021-10-20 18:41:15 GMT 45.202595 -2.624594 36,000 76 499 0
2021-10-20 18:41:14 GMT 45.202011 -2.628152 36,000 75 499 64
2021-10-20 18:41:12 GMT 45.200821 -2.634561 36,000 74 498 64
2021-10-20 18:41:11 GMT 45.200226 -2.637700 36,000 73 499 64
2021-10-20 18:41:08 GMT 45.198212 -2.647378 36,000 72 498 64
2021-10-20 18:41:07 GMT 45.197430 -2.650854 36,000 71 498 0
2021-10-20 18:41:06 GMT 45.196732 -2.654002 36,000 71 498 0
2021-10-20 18:41:04 GMT 45.195145 -2.660392 36,000 69 497 0
2021-10-20 18:41:03 GMT 45.194450 -2.663180 36,000 69 497 0
2021-10-20 18:41:01 GMT 45.190979 -2.675890 36,000 67 496 64
2021-10-20 18:40:59 GMT 45.190979 -2.675890 36,000 67 496 64
2021-10-20 18:40:57 GMT 45.189377 -2.681318 36,000 66 496 0
2021-10-20 18:40:54 GMT 45.186813 -2.689440 36,000 65 495 0
2021-10-20 18:40:53 GMT 45.185486 -2.693416 36,000 64 495 0
2021-10-20 18:40:52 GMT 45.184250 -2.697078 36,000 63 494 0
2021-10-20 18:40:50 GMT 45.182625 -2.701632 36,000 62 494 0
2021-10-20 18:40:49 GMT 45.179855 -2.709111 36,000 61 493 0
2021-10-20 18:40:47 GMT 45.179855 -2.709111 36,000 61 493 0
2021-10-20 18:40:41 GMT 45.173447 -2.725002 36,000 58 490 0
2021-10-20 18:40:40 GMT 45.172241 -2.727758 36,000 55 488 0
2021-10-20 18:40:37 GMT 45.168320 -2.736380 36,000 55 488 0
2021-10-20 18:40:34 GMT 45.164246 -2.744751 36,000 53 487 64
2021-10-20 18:40:30 GMT 45.155437 -2.761320 36,000 50 485 64
2021-10-20 18:40:28 GMT 45.155437 -2.761320 36,000 50 485 64
2021-10-20 18:40:26 GMT 45.153297 -2.765004 36,000 48 484 0
2021-10-20 18:40:23 GMT 45.148411 -2.773110 36,000 48 484 0
2021-10-20 18:40:21 GMT 45.145382 -2.778000 36,000 45 482 0
2021-10-20 18:40:17 GMT 45.139435 -2.786865 36,000 45 482 0
2021-10-20 18:40:09 GMT 45.128578 -2.801648 36,000 42 482 0
2021-10-20 18:40:06 GMT 45.122711 -2.808950 36,000 40 482 0
2021-10-20 18:40:04 GMT 45.119110 -2.813219 36,000 38 482 0
2021-10-20 18:40:03 GMT 45.116638 -2.816031 36,000 37 481 0
2021-10-20 18:40:00 GMT 45.111603 -2.821590 36,000 36 482 0
2021-10-20 18:39:57 GMT 45.106155 -2.827214 36,000 29 482 -128
2021-10-20 18:39:55 GMT 45.103394 -2.829984 36,000 29 482 -128
2021-10-20 18:39:52 GMT 45.096542 -2.836435 36,000 29 482 -128
2021-10-20 18:39:48 GMT 45.089951 -2.842189 36,000 29 482 -128
2021-10-20 18:39:47 GMT 45.085423 -2.845928 36,025 29 482 -128
2021-10-20 18:39:46 GMT 45.085423 -2.845928 36,025 28 482 -128
2021-10-20 18:39:43 GMT 45.079090 -2.850818 36,025 26 482 -64
2021-10-20 18:39:40 GMT 45.072739 -2.855399 36,025 24 481 -64
2021-10-20 18:39:38 GMT 45.068989 -2.858053 36,025 24 481 -64
2021-10-20 18:39:36 GMT 45.065094 -2.860565 36,025 23 480 -64
2021-10-20 18:39:34 GMT 45.060562 -2.863377 36,025 22 481 0
2021-10-20 18:39:32 GMT 45.057449 -2.865208 36,025 22 481 0
2021-10-20 18:39:30 GMT 45.052414 -2.868086 36,025 21 481 0
2021-10-20 18:39:28 GMT 45.049026 -2.869917 36,025 16 483 128
2021-10-20 18:39:25 GMT 45.042389 -2.873252 36,000 16 483 128
2021-10-20 18:39:24 GMT 45.033749 -2.877212 35,975 16 483 128
2021-10-20 18:39:21 GMT 45.033749 -2.877212 35,975 16 483 128
2021-10-20 18:39:17 GMT 45.025604 -2.880562 35,975 14 484 64
2021-10-20 18:39:16 GMT 45.022430 -2.881753 35,975 14 484 64
2021-10-20 18:39:14 GMT 45.018356 -2.883192 35,975 13 485 64
2021-10-20 18:39:11 GMT 45.011730 -2.885385 35,975 11 486 -64
2021-10-20 18:39:10 GMT 45.005726 -2.887127 35,975 10 485 -192
2021-10-20 18:39:07 GMT 45.003723 -2.887663 36,000 10 485 -192
2021-10-20 18:39:05 GMT 44.999313 -2.888750 36,000 9 485 -128
2021-10-20 18:39:03 GMT 44.994827 -2.889862 36,025 9 484 0
2021-10-20 18:38:58 GMT 44.974957 -2.894429 36,025 9 484 64
2021-10-20 18:38:55 GMT 44.974957 -2.894429 36,025 9 484 64
2021-10-20 18:38:48 GMT 44.961639 -2.897513 36,000 9 483 128
2021-10-20 18:38:45 GMT 44.955231 -2.899017 36,000 9 483 128
2021-10-20 18:38:38 GMT 44.939529 -2.902679 35,975 9 484 192
2021-10-20 18:38:35 GMT 44.933716 -2.903987 35,950 9 484 128
2021-10-20 18:38:29 GMT 44.920162 -2.907157 35,950 9 484 0
2021-10-20 18:38:27 GMT 44.914856 -2.908362 35,950 9 484 0
2021-10-20 18:38:24 GMT 44.910339 -2.909434 35,950 9 484 0
2021-10-20 18:38:19 GMT 44.899261 -2.911980 35,950 9 484 0
2021-10-20 18:38:16 GMT 44.890503 -2.914058 35,950 9 483 0
2021-10-20 18:38:13 GMT 44.885899 -2.915128 35,950 9 483 0
2021-10-20 18:38:09 GMT 44.877136 -2.917132 35,950 9 482 0
2021-10-20 18:38:03 GMT 44.863647 -2.920287 35,950 9 482 0
2021-10-20 18:37:56 GMT 44.847309 -2.924105 35,950 9 480 -128
2021-10-20 18:37:53 GMT 44.840977 -2.925579 35,975 9 480 -128
2021-10-20 18:37:46 GMT 44.825180 -2.929230 36,000 9 479 -192
2021-10-20 18:37:40 GMT 44.810673 -2.932546 36,000 9 476 -128
2021-10-20 18:37:37 GMT 44.796478 -2.935835 36,000 9 477 -128
2021-10-20 18:37:33 GMT 44.796478 -2.935835 36,000 9 476 -64
2021-10-20 18:37:26 GMT 44.782600 -2.938977 36,025 9 474 0
2021-10-20 18:37:21 GMT 44.771755 -2.941522 36,025 9 475 0
2021-10-20 18:37:18 GMT 44.765003 -2.943063 36,025 9 474 0
2021-10-20 18:37:15 GMT 44.758438 -2.944532 36,025 9 474 64
2021-10-20 18:37:12 GMT 44.752304 -2.945971 36,025 9 474 64
2021-10-20 18:37:09 GMT 44.745499 -2.947551 36,025 9 474 64
2021-10-20 18:37:05 GMT 44.736328 -2.949628 36,025 9 474 64
2021-10-20 18:37:01 GMT 44.725807 -2.952040 36,025 9 474 64
2021-10-20 18:36:56 GMT 44.716728 -2.954116 36,025 9 474 0
2021-10-20 18:36:53 GMT 44.710400 -2.955590 36,025 9 475 0
2021-10-20 18:36:47 GMT 44.696106 -2.958873 36,025 9 475 0
2021-10-20 18:36:42 GMT 44.687164 -2.960881 36,000 9 475 64
2021-10-20 18:36:38 GMT 44.678741 -2.962843 36,025 9 475 64
2021-10-20 18:36:36 GMT 44.674553 -2.963830 36,000 9 475 64
2021-10-20 18:36:28 GMT 44.656025 -2.968050 36,000 9 475 64
2021-10-20 18:36:22 GMT 44.643951 -2.970821 36,000 9 475 0
2021-10-20 18:36:18 GMT 44.635025 -2.972913 35,975 9 475 0
2021-10-20 18:36:13 GMT 44.624176 -2.975398 36,000 9 475 0
2021-10-20 18:36:08 GMT 44.613522 -2.977831 36,000 9 475 -64
2021-10-20 18:36:05 GMT 44.606915 -2.979305 36,000 9 475 -64
2021-10-20 18:36:01 GMT 44.587097 -2.983834 36,000 9 475 0
2021-10-20 18:35:57 GMT 44.587097 -2.983834 36,000 9 475 0
2021-10-20 18:35:51 GMT 44.575676 -2.986473 36,000 9 474 0
2021-10-20 18:35:48 GMT 44.569576 -2.987879 36,000 9 474 64
2021-10-20 18:35:39 GMT 44.547409 -2.992924 36,000 9 475 0
2021-10-20 18:35:30 GMT 44.530838 -2.996717 36,000 9 475 0
2021-10-20 18:35:28 GMT 44.526379 -2.997727 36,000 9 475 -64
2021-10-20 18:35:18 GMT 44.504196 -3.002799 36,000 9 474 64
2021-10-20 18:35:10 GMT 44.487228 -3.006703 36,000 9 473 64
2021-10-20 18:35:07 GMT 44.480988 -3.008177 36,000 9 473 64
2021-10-20 18:35:03 GMT 44.471878 -3.010254 36,000 9 473 0
2021-10-20 18:34:58 GMT 44.458649 -3.013262 36,000 9 473 -64
2021-10-20 18:34:54 GMT 44.452778 -3.014541 36,000 9 473 -64
2021-10-20 18:34:50 GMT 44.444366 -3.016466 36,000 9 472 -64
2021-10-20 18:34:46 GMT 44.435303 -3.018559 36,025 9 470 0
2021-10-20 18:34:38 GMT 44.417770 -3.022513 36,025 9 471 -64
2021-10-20 18:34:29 GMT 44.398544 -3.026930 36,025 9 470 0
2021-10-20 18:34:25 GMT 44.389847 -3.028891 36,025 9 470 0
2021-10-20 18:34:11 GMT 44.361832 -3.035300 36,025 9 470 0
2021-10-20 18:34:07 GMT 44.353134 -3.037262 36,025 9 470 0
2021-10-20 18:34:01 GMT 44.340179 -3.040205 36,025 9 470 0
2021-10-20 18:33:57 GMT 44.329880 -3.042543 36,025 9 470 0
2021-10-20 18:33:54 GMT 44.323425 -3.043998 36,025 9 470 0
2021-10-20 18:33:48 GMT 44.310654 -3.046897 36,000 9 470 64
2021-10-20 18:33:43 GMT 44.301910 -3.048837 36,000 9 470 0
2021-10-20 18:33:33 GMT 44.279617 -3.053872 36,000 9 470 0
2021-10-20 18:33:23 GMT 44.258652 -3.058646 36,000 9 470 0
2021-10-20 18:33:19 GMT 44.250137 -3.060543 36,000 9 470 0
2021-10-20 18:33:16 GMT 44.243637 -3.062047 36,000 9 470 0
2021-10-20 18:33:12 GMT 44.234913 -3.063980 36,000 9 470 0
2021-10-20 18:33:05 GMT 44.220299 -3.067329 36,000 9 470 0
2021-10-20 18:33:02 GMT 44.213837 -3.068782 36,000 9 470 0
2021-10-20 18:32:54 GMT 44.194794 -3.073098 36,000 9 470 0
2021-10-20 18:32:51 GMT 44.190262 -3.074128 36,000 9 470 0
2021-10-20 18:32:45 GMT 44.175430 -3.077449 36,000 9 469 0
2021-10-20 18:32:38 GMT 44.159866 -3.080962 36,000 9 469 0
2021-10-20 18:32:32 GMT 44.148746 -3.083496 36,000 9 468 0
2021-10-20 18:32:29 GMT 44.142426 -3.084923 36,000 9 468 64
2021-10-20 18:32:23 GMT 44.129288 -3.087878 36,000 9 468 64
2021-10-20 18:32:20 GMT 44.122559 -3.089394 35,975 9 468 64
2021-10-20 18:32:17 GMT 44.116058 -3.090863 35,975 9 468 64
2021-10-20 18:32:14 GMT 44.109924 -3.092268 35,975 9 466 0
2021-10-20 18:32:08 GMT 44.097679 -3.095006 35,975 9 468 64
2021-10-20 18:32:03 GMT 44.086880 -3.097425 35,975 9 468 0
2021-10-20 18:31:59 GMT 44.078476 -3.099294 35,975 9 468 0
2021-10-20 18:31:54 GMT 44.067947 -3.101658 35,975 9 466 0
2021-10-20 18:31:48 GMT 44.054718 -3.104660 35,975 9 468 0
2021-10-20 18:31:39 GMT 44.034786 -3.109196 35,975 9 467 0
2021-10-20 18:31:33 GMT 44.008118 -3.115199 36,000 9 466 0
2021-10-20 18:31:26 GMT 44.008118 -3.115199 35,975 9 467 -64
2021-10-20 18:31:23 GMT 43.999779 -3.117044 36,000 9 467 -64
2021-10-20 18:31:16 GMT 43.986053 -3.120117 36,000 9 466 0
2021-10-20 18:31:11 GMT 43.975014 -3.122602 36,000 9 466 0
2021-10-20 18:31:07 GMT 43.968338 -3.124077 36,000 9 466 0
2021-10-20 18:31:01 GMT 43.955975 -3.126853 36,000 9 466 0
2021-10-20 18:30:58 GMT 43.947647 -3.128676 36,000 9 466 0
2021-10-20 18:30:42 GMT 43.914215 -3.136139 36,000 9 467 0
2021-10-20 18:30:33 GMT 43.895691 -3.140301 36,000 9 467 0
2021-10-20 18:30:25 GMT 43.876648 -3.144581 36,000 8 466 0
2021-10-20 18:30:19 GMT 43.865707 -3.146817 36,000 8 465 0
2021-10-20 18:30:13 GMT 43.851242 -3.149435 36,000 6 464 -64
2021-10-20 18:30:10 GMT 43.846344 -3.150202 36,000 6 462 -64
2021-10-20 18:30:04 GMT 43.832237 -3.152095 36,000 4 461 -64
2021-10-20 18:29:54 GMT 43.811234 -3.154098 36,025 2 458 -64
2021-10-20 18:29:45 GMT 43.791130 -3.155038 36,025 0 456 -64
2021-10-20 18:29:38 GMT 43.778137 -3.155312 36,025 0 456 -64
2021-10-20 18:29:29 GMT 43.759197 -3.155692 36,050 0 457 -64
2021-10-20 18:29:27 GMT 43.755249 -3.155759 36,050 0 457 -64
2021-10-20 18:29:24 GMT 43.749329 -3.155823 36,050 0 457 -64
2021-10-20 18:29:21 GMT 43.740967 -3.156014 36,050 0 457 0
2021-10-20 18:29:10 GMT 43.717438 -3.156398 36,050 0 457 0
2021-10-20 18:29:02 GMT 43.701782 -3.156717 36,050 0 457 0
2021-10-20 18:28:59 GMT 43.697891 -3.156781 36,050 0 457 0
2021-10-20 18:28:50 GMT 43.676514 -3.157228 36,025 0 458 64
2021-10-20 18:28:44 GMT 43.663113 -3.157458 36,025 0 458 64
2021-10-20 18:28:39 GMT 43.654129 -3.157611 36,025 0 458 64
2021-10-20 18:28:34 GMT 43.641907 -3.157867 36,025 0 458 64
2021-10-20 18:28:29 GMT 43.633274 -3.157981 36,025 0 458 64
2021-10-20 18:28:22 GMT 43.616089 -3.158314 36,025 0 458 0
2021-10-20 18:28:19 GMT 43.612415 -3.158439 36,000 0 458 0
2021-10-20 18:28:09 GMT 43.590725 -3.158831 36,000 0 458 0
2021-10-20 18:28:03 GMT 43.577827 -3.159027 36,000 0 457 0
2021-10-20 18:28:00 GMT 43.570473 -3.159158 36,000 0 457 0
2021-10-20 18:27:52 GMT 43.554565 -3.159464 36,000 0 457 0
2021-10-20 18:27:50 GMT 43.548660 -3.159591 36,000 0 456 0
2021-10-20 18:27:40 GMT 43.528111 -3.160008 36,000 0 456 0
2021-10-20 18:27:32 GMT 43.512096 -3.160270 36,000 0 455 64
2021-10-20 18:27:29 GMT 43.505718 -3.160400 36,000 0 455 64
2021-10-20 18:27:22 GMT 43.490589 -3.160662 35,975 0 455 64
2021-10-20 18:27:19 GMT 43.485214 -3.160805 36,000 0 455 64
2021-10-20 18:27:12 GMT 43.469082 -3.161120 35,975 0 455 0
2021-10-20 18:27:09 GMT 43.464336 -3.161185 35,975 0 455 0
2021-10-20 18:26:59 GMT 43.443199 -3.161577 35,975 0 455 0
2021-10-20 18:26:51 GMT 43.426441 -3.161904 36,000 0 454 -64
2021-10-20 18:26:48 GMT 43.403183 -3.162274 36,000 0 454 -64
2021-10-20 18:26:40 GMT 43.403183 -3.162274 36,000 0 454 -64
2021-10-20 18:26:36 GMT 43.394787 -3.162428 36,000 0 454 0
2021-10-20 18:26:29 GMT 43.379192 -3.162755 36,000 0 454 0
2021-10-20 18:26:20 GMT 43.360748 -3.163104 36,000 0 454 -64
2021-10-20 18:26:17 GMT 43.354340 -3.163232 36,000 0 454 -64
2021-10-20 18:26:08 GMT 43.335758 -3.163539 36,000 0 454 0
2021-10-20 18:26:00 GMT 43.318581 -3.163932 36,000 0 454 0
2021-10-20 18:25:57 GMT 43.312271 -3.164062 36,000 0 454 0
2021-10-20 18:25:50 GMT 43.297260 -3.164324 36,000 0 454 0
2021-10-20 18:25:47 GMT 43.291214 -3.164382 36,000 0 454 0
2021-10-20 18:25:37 GMT 43.270432 -3.164829 36,000 0 454 64
2021-10-20 18:25:28 GMT 43.251823 -3.165174 36,000 0 454 64
2021-10-20 18:25:24 GMT 43.243725 -3.165370 35,975 0 454 128
2021-10-20 18:25:18 GMT 43.230652 -3.165595 35,975 0 454 64
2021-10-20 18:25:11 GMT 43.215981 -3.165894 35,975 0 454 0
2021-10-20 18:25:08 GMT 43.209274 -3.165959 35,975 0 454 0
2021-10-20 18:24:59 GMT 43.190414 -3.166362 35,975 0 454 -64
2021-10-20 18:24:56 GMT 43.185581 -3.166417 35,975 0 454 -64
2021-10-20 18:24:51 GMT 43.174545 -3.166678 35,975 0 454 -64
2021-10-20 18:24:47 GMT 43.163841 -3.166874 35,975 0 453 0
2021-10-20 18:24:41 GMT 43.153503 -3.167071 35,975 0 453 0
2021-10-20 18:24:38 GMT 43.145050 -3.167192 35,975 0 452 0
2021-10-20 18:24:32 GMT 43.134327 -3.167398 35,975 0 452 0
2021-10-20 18:24:28 GMT 43.124783 -3.167594 35,975 0 452 0
2021-10-20 18:24:18 GMT 43.103928 -3.167921 35,975 0 451 0
2021-10-20 18:24:16 GMT 43.100555 -3.167959 35,975 0 451 0
2021-10-20 18:24:08 GMT 43.082512 -3.168313 35,975 0 452 0
2021-10-20 18:23:58 GMT 43.061874 -3.168661 36,000 0 452 -64
2021-10-20 18:23:53 GMT 43.052532 -3.168836 36,000 0 452 -64
2021-10-20 18:23:45 GMT 43.038025 -3.169172 36,000 0 451 -64
2021-10-20 18:23:43 GMT 43.031525 -3.169300 36,000 0 451 64
2021-10-20 18:23:36 GMT 43.017712 -3.169556 36,000 0 451 64
2021-10-20 18:23:34 GMT 43.013489 -3.169683 36,000 0 451 64
2021-10-20 18:23:30 GMT 43.004974 -3.169811 36,000 0 451 64
2021-10-20 18:23:27 GMT 42.999390 -3.169939 36,000 0 451 64
2021-10-20 18:23:25 GMT 42.992714 -3.170013 36,000 0 451 64
2021-10-20 18:23:19 GMT 42.980984 -3.170210 36,000 0 451 64
2021-10-20 18:23:17 GMT 42.978058 -3.170258 36,000 0 451 64
2021-10-20 18:23:13 GMT 42.970043 -3.170406 35,975 0 451 0
2021-10-20 18:23:07 GMT 42.957001 -3.170642 35,975 0 451 64
2021-10-20 18:22:56 GMT 42.933872 -3.171060 36,000 0 450 0
2021-10-20 18:22:52 GMT 42.923813 -3.171280 35,975 0 450 0
2021-10-20 18:22:46 GMT 42.913574 -3.171452 36,000 0 450 -64
2021-10-20 18:22:43 GMT 42.905987 -3.171583 36,000 0 449 -64
2021-10-20 18:22:36 GMT 42.892815 -3.171844 36,000 0 449 -64
2021-10-20 18:22:27 GMT 42.873356 -3.172171 36,025 0 448 -128
2021-10-20 18:22:20 GMT 42.859947 -3.172368 36,025 0 448 -192
2021-10-20 18:22:16 GMT 42.851196 -3.172498 36,025 0 447 -64
2021-10-20 18:22:07 GMT 42.830795 -3.172813 36,025 0 447 64
2021-10-20 18:22:02 GMT 42.819866 -3.173022 36,000 0 448 128
2021-10-20 18:21:55 GMT 42.808640 -3.173239 36,000 0 448 128
2021-10-20 18:21:50 GMT 42.796234 -3.173488 35,975 0 449 128
2021-10-20 18:21:45 GMT 42.787373 -3.173644 35,975 0 450 0
2021-10-20 18:21:38 GMT 42.772987 -3.173899 35,975 0 450 0
2021-10-20 18:21:35 GMT 42.766842 -3.173963 35,975 0 451 0
2021-10-20 18:21:31 GMT 42.755951 -3.174175 35,975 0 451 0
2021-10-20 18:21:26 GMT 42.746872 -3.174346 35,975 0 451 0
2021-10-20 18:21:19 GMT 42.732346 -3.174602 36,000 0 451 -64
2021-10-20 18:21:15 GMT 42.724571 -3.174729 36,000 0 451 -64
2021-10-20 18:21:05 GMT 42.703903 -3.175113 36,025 0 451 -64
2021-10-20 18:20:59 GMT 42.689438 -3.175361 36,025 0 450 -64
2021-10-20 18:20:56 GMT 42.683933 -3.175432 36,025 0 450 -64
2021-10-20 18:20:46 GMT 42.662476 -3.175860 36,025 0 451 -64
2021-10-20 18:20:35 GMT 42.640869 -3.176235 36,050 0 451 0
2021-10-20 18:20:25 GMT 42.620178 -3.176609 36,025 0 452 0
2021-10-20 18:20:15 GMT 42.599255 -3.177029 36,025 0 452 0
2021-10-20 18:20:07 GMT 42.581177 -3.177358 36,025 0 452 128
2021-10-20 18:20:04 GMT 42.576965 -3.177421 36,025 0 452 128
2021-10-20 18:19:55 GMT 42.557404 -3.177795 36,000 0 453 64
2021-10-20 18:19:44 GMT 42.534592 -3.178179 36,000 0 453 64
2021-10-20 18:19:38 GMT 42.520157 -3.178420 36,000 0 453 64
2021-10-20 18:19:34 GMT 42.513878 -3.178562 36,000 0 453 64
2021-10-20 18:19:25 GMT 42.493835 -3.178857 36,000 0 453 64
2021-10-20 18:19:13 GMT 42.468475 -3.179356 35,975 0 453 0
2021-10-20 18:19:05 GMT 42.451309 -3.179668 36,000 0 453 0
2021-10-20 18:18:55 GMT 42.430893 -3.180043 36,000 0 453 0
2021-10-20 18:18:44 GMT 42.409554 -3.180414 36,000 0 452 0
2021-10-20 18:18:36 GMT 42.391342 -3.180667 35,975 0 452 64
2021-10-20 18:18:34 GMT 42.388374 -3.180734 35,975 0 452 64
2021-10-20 18:18:24 GMT 42.365982 -3.181181 35,975 0 452 0
2021-10-20 18:18:13 GMT 42.343872 -3.181541 36,000 0 451 0
2021-10-20 18:18:03 GMT 42.323181 -3.181915 36,000 0 451 0
2021-10-20 18:17:53 GMT 42.302811 -3.182267 36,000 0 450 -64
2021-10-20 18:17:43 GMT 42.278511 -3.182714 36,000 0 450 -64
2021-10-20 18:17:34 GMT 42.261612 -3.182969 36,000 0 450 -64
2021-10-20 18:17:30 GMT 42.253510 -3.183097 36,000 0 450 0
2021-10-20 18:17:22 GMT 42.236938 -3.183413 36,000 0 450 -64
2021-10-20 18:17:12 GMT 42.214500 -3.183800 36,025 0 450 0
2021-10-20 18:17:03 GMT 42.198349 -3.184100 36,025 0 450 0
2021-10-20 18:17:01 GMT 42.194138 -3.184162 36,025 0 449 0
2021-10-20 18:16:54 GMT 42.179867 -3.184438 36,025 0 449 0
2021-10-20 18:16:51 GMT 42.172668 -3.184537 36,025 0 449 0
2021-10-20 18:16:41 GMT 42.150192 -3.184974 36,025 0 449 64
2021-10-20 18:16:37 GMT 42.142685 -3.185099 36,000 0 449 64
2021-10-20 18:16:32 GMT 42.134476 -3.185269 36,000 0 449 64
2021-10-20 18:16:30 GMT 42.129448 -3.185333 36,000 0 449 0
2021-10-20 18:16:27 GMT 42.122467 -3.185460 36,000 0 449 64
2021-10-20 18:16:23 GMT 42.114136 -3.185588 36,000 0 449 64
2021-10-20 18:16:17 GMT 42.101051 -3.185844 36,000 0 450 -64
2021-10-20 18:16:11 GMT 42.090225 -3.186035 36,000 0 450 -64
2021-10-20 18:16:09 GMT 42.084526 -3.186099 36,000 0 450 -64
2021-10-20 18:16:06 GMT 42.079407 -3.186163 36,000 0 450 0
2021-10-20 18:16:00 GMT 42.066650 -3.186418 36,000 0 449 0
2021-10-20 18:15:57 GMT 42.061623 -3.186482 36,000 0 449 64
2021-10-20 18:15:54 GMT 42.056175 -3.186546 36,000 0 449 0
2021-10-20 18:15:49 GMT 42.043236 -3.186802 36,000 0 449 128
2021-10-20 18:15:46 GMT 42.037994 -3.186847 35,975 0 449 64
2021-10-20 18:15:40 GMT 42.025497 -3.187096 35,975 0 450 0
2021-10-20 18:15:38 GMT 42.020920 -3.187159 35,975 0 450 0
2021-10-20 18:15:33 GMT 42.012184 -3.187313 35,975 0 450 0
2021-10-20 18:15:30 GMT 42.003990 -3.187504 35,975 0 450 0
2021-10-20 18:15:27 GMT 41.998627 -3.187596 35,975 0 450 -64
2021-10-20 18:15:24 GMT 41.993179 -3.187658 35,975 0 450 -64
2021-10-20 18:15:20 GMT 41.982811 -3.187824 35,975 0 450 -64
2021-10-20 18:15:18 GMT 41.971031 -3.188079 36,000 0 450 -64
2021-10-20 18:15:14 GMT 41.961868 -3.188220 36,000 0 450 -64
2021-10-20 18:15:10 GMT 41.961868 -3.188220 36,000 0 450 -64
2021-10-20 18:15:06 GMT 41.954956 -3.188345 36,000 0 450 0
2021-10-20 18:15:03 GMT 41.948959 -3.188407 36,000 0 450 0
2021-10-20 18:15:01 GMT 41.944309 -3.188526 36,000 0 450 0
2021-10-20 18:14:58 GMT 41.938400 -3.188590 36,000 0 450 0
2021-10-20 18:14:56 GMT 41.934349 -3.188654 36,000 0 450 64
2021-10-20 18:14:53 GMT 41.927738 -3.188782 36,000 0 450 64
2021-10-20 18:14:50 GMT 41.920624 -3.188907 36,000 0 451 64
2021-10-20 18:14:47 GMT 41.913170 -3.189037 36,000 0 451 0
2021-10-20 18:14:41 GMT 41.902832 -3.189229 36,000 0 451 0
2021-10-20 18:14:37 GMT 41.896317 -3.189357 36,000 0 451 128
2021-10-20 18:14:35 GMT 41.889893 -3.189484 35,975 0 451 64
2021-10-20 18:14:31 GMT 41.881027 -3.189656 35,975 0 451 0
2021-10-20 18:14:27 GMT 41.875854 -3.189718 35,975 0 451 -64
2021-10-20 18:14:23 GMT 41.866150 -3.189905 36,000 0 452 -64
2021-10-20 18:14:21 GMT 41.861847 -3.189968 36,000 0 452 -128
2021-10-20 18:14:19 GMT 41.857536 -3.190059 36,000 0 452 -64
2021-10-20 18:14:14 GMT 41.846786 -3.190217 36,000 0 451 64
2021-10-20 18:14:10 GMT 41.840103 -3.190342 36,000 0 451 64
2021-10-20 18:14:08 GMT 41.835068 -3.190467 36,000 0 451 64
2021-10-20 18:14:04 GMT 41.825638 -3.190654 36,000 0 452 -64
2021-10-20 18:14:01 GMT 41.818993 -3.190762 36,000 0 452 -64
2021-10-20 18:13:59 GMT 41.815247 -3.190779 36,000 0 452 -64
2021-10-20 18:13:54 GMT 41.805073 -3.190953 36,000 0 452 -64
2021-10-20 18:13:51 GMT 41.798836 -3.191081 36,000 0 452 0
2021-10-20 18:13:49 GMT 41.793854 -3.191209 36,000 0 451 0
2021-10-20 18:13:44 GMT 41.784126 -3.191337 36,000 0 451 64
2021-10-20 18:13:41 GMT 41.777344 -3.191466 36,000 0 451 0
2021-10-20 18:13:38 GMT 41.772205 -3.191528 36,000 0 451 0
2021-10-20 18:13:34 GMT 41.762833 -3.191716 36,000 0 452 -64
2021-10-20 18:13:30 GMT 41.754330 -3.191848 36,000 0 452 0
2021-10-20 18:13:28 GMT 41.751259 -3.191912 36,000 0 451 0
2021-10-20 18:13:23 GMT 41.740265 -3.192090 36,000 0 452 0
2021-10-20 18:13:19 GMT 41.731247 -3.192215 36,000 0 452 -64
2021-10-20 18:13:12 GMT 41.717285 -3.192465 36,000 0 452 -64
2021-10-20 18:13:09 GMT 41.709827 -3.192614 36,000 0 452 -64
2021-10-20 18:13:03 GMT 41.698051 -3.192806 36,000 0 452 -64
2021-10-20 18:12:57 GMT 41.685791 -3.193026 36,025 0 452 -64
2021-10-20 18:12:53 GMT 41.676216 -3.193189 36,025 0 452 -64
2021-10-20 18:12:49 GMT 41.670818 -3.193317 36,025 0 452 0
2021-10-20 18:12:47 GMT 41.666611 -3.193401 36,025 0 452 0
2021-10-20 18:12:43 GMT 41.656128 -3.193588 36,025 0 452 0
2021-10-20 18:12:38 GMT 41.646843 -3.193764 36,025 0 452 0
2021-10-20 18:12:33 GMT 41.635345 -3.193963 36,025 0 453 0
2021-10-20 18:12:31 GMT 41.630951 -3.194025 36,025 0 453 0
2021-10-20 18:12:28 GMT 41.624779 -3.194147 36,025 0 453 0
2021-10-20 18:12:20 GMT 41.607182 -3.194403 36,025 0 454 64
2021-10-20 18:12:17 GMT 41.602524 -3.194462 36,025 0 454 64
2021-10-20 18:12:11 GMT 41.582367 -3.194850 36,025 0 454 0
2021-10-20 18:12:07 GMT 41.582367 -3.194850 36,025 0 455 0
2021-10-20 18:12:00 GMT 41.565674 -3.195086 36,025 0 455 0
2021-10-20 18:11:56 GMT 41.558392 -3.195233 36,025 0 455 64
2021-10-20 18:11:52 GMT 41.549503 -3.195425 36,025 0 455 64
2021-10-20 18:11:50 GMT 41.542938 -3.195489 36,025 0 455 64
2021-10-20 18:11:47 GMT 41.539581 -3.195586 36,025 0 455 64
2021-10-20 18:11:41 GMT 41.527725 -3.195773 36,000 0 456 0
2021-10-20 18:11:37 GMT 41.518356 -3.195936 36,000 0 456 0
2021-10-20 18:11:31 GMT 41.506302 -3.196210 36,000 0 456 0
2021-10-20 18:11:28 GMT 41.497597 -3.196319 36,000 0 456 0
2021-10-20 18:11:21 GMT 41.485245 -3.196522 36,000 0 456 -64
2021-10-20 18:11:19 GMT 41.480976 -3.196638 36,000 0 456 -64
2021-10-20 18:11:17 GMT 41.475677 -3.196709 36,000 0 456 0
2021-10-20 18:11:11 GMT 41.462311 -3.196897 36,000 0 456 64
2021-10-20 18:11:07 GMT 41.455048 -3.197021 36,000 0 456 64
2021-10-20 18:11:02 GMT 41.443085 -3.197271 36,000 0 456 0
2021-10-20 18:10:59 GMT 41.434982 -3.197396 36,000 0 456 0
2021-10-20 18:10:56 GMT 41.432419 -3.197458 36,000 0 456 0
2021-10-20 18:10:52 GMT 41.421993 -3.197660 36,000 0 456 0
2021-10-20 18:10:48 GMT 41.415665 -3.197771 36,000 0 456 0
2021-10-20 18:10:46 GMT 41.411472 -3.197852 36,000 0 455 0
2021-10-20 18:10:41 GMT 41.400650 -3.198020 36,000 0 455 0
2021-10-20 18:10:37 GMT 41.390759 -3.198235 36,000 0 455 0
2021-10-20 18:10:30 GMT 41.377399 -3.198395 36,000 0 456 -64
2021-10-20 18:10:27 GMT 41.368790 -3.198547 36,000 0 456 0
2021-10-20 18:10:21 GMT 41.357895 -3.198792 36,000 0 455 0
2021-10-20 18:10:19 GMT 41.354462 -3.198792 36,025 0 455 0
2021-10-20 18:10:16 GMT 41.347961 -3.198914 36,025 0 455 0
2021-10-20 18:10:11 GMT 41.336563 -3.199097 36,025 0 455 0
2021-10-20 18:10:08 GMT 41.329971 -3.199219 36,000 0 455 0
2021-10-20 18:10:06 GMT 41.325912 -3.199331 36,000 0 455 0
2021-10-20 18:10:01 GMT 41.316147 -3.199463 36,000 0 456 64
2021-10-20 18:09:57 GMT 41.305473 -3.199643 36,000 0 456 64
2021-10-20 18:09:47 GMT 41.285110 -3.199951 36,000 0 457 0
2021-10-20 18:09:40 GMT 41.270279 -3.200195 36,000 0 457 -64
2021-10-20 18:09:37 GMT 41.263870 -3.200317 36,000 0 456 -64
2021-10-20 18:09:35 GMT 41.260712 -3.200378 36,000 0 456 -64
2021-10-20 18:09:31 GMT 41.252964 -3.200455 36,000 0 456 -128
2021-10-20 18:09:29 GMT 41.239742 -3.200704 36,000 0 456 0
2021-10-20 18:09:26 GMT 41.239742 -3.200704 36,000 0 455 64
2021-10-20 18:09:21 GMT 41.228943 -3.200867 36,000 0 455 64
2021-10-20 18:09:16 GMT 41.221893 -3.200989 36,000 0 455 64
2021-10-20 18:09:13 GMT 41.214111 -3.201172 36,000 0 455 128
2021-10-20 18:09:10 GMT 41.208023 -3.201294 36,000 0 455 128
2021-10-20 18:09:05 GMT 41.197289 -3.201453 35,975 0 455 128
2021-10-20 18:09:02 GMT 41.190536 -3.201599 35,975 0 456 128
2021-10-20 18:08:58 GMT 41.182755 -3.201721 35,975 0 457 0
2021-10-20 18:08:56 GMT 41.178947 -3.201766 35,975 0 456 64
2021-10-20 18:08:53 GMT 41.171768 -3.201904 35,975 0 457 0
2021-10-20 18:08:49 GMT 41.164352 -3.202026 35,975 0 457 0
2021-10-20 18:08:46 GMT 41.157623 -3.202140 35,975 0 457 -64
2021-10-20 18:08:43 GMT 41.151352 -3.202271 35,975 0 457 -64
2021-10-20 18:08:39 GMT 41.142838 -3.202393 35,975 0 457 0
2021-10-20 18:08:34 GMT 41.132999 -3.202577 35,975 0 457 0
2021-10-20 18:08:32 GMT 41.128464 -3.202637 35,975 0 456 -64
2021-10-20 18:08:29 GMT 41.122192 -3.202759 35,975 0 456 -64
2021-10-20 18:08:26 GMT 41.115921 -3.202881 36,000 0 456 -64
2021-10-20 18:08:22 GMT 41.107407 -3.203064 36,000 0 456 -64
2021-10-20 18:08:19 GMT 41.100830 -3.203201 36,000 0 456 -64
2021-10-20 18:08:17 GMT 41.097713 -3.203201 36,000 0 456 -64
2021-10-20 18:08:15 GMT 41.091057 -3.203389 36,000 0 456 -64
2021-10-20 18:08:12 GMT 41.085888 -3.203451 36,000 0 456 -64
2021-10-20 18:08:09 GMT 41.079987 -3.203552 36,000 0 456 -64
2021-10-20 18:08:06 GMT 41.073853 -3.203674 36,000 0 456 -64
2021-10-20 18:08:02 GMT 41.064846 -3.203826 36,000 0 456 0
2021-10-20 18:07:58 GMT 41.057693 -3.203979 36,000 0 456 0
2021-10-20 18:07:56 GMT 41.052418 -3.204075 36,000 0 456 64
2021-10-20 18:07:52 GMT 41.043320 -3.204224 36,000 0 456 64
2021-10-20 18:07:49 GMT 41.037003 -3.204346 36,000 0 457 64
2021-10-20 18:07:47 GMT 41.026703 -3.204529 36,000 0 457 64
2021-10-20 18:07:44 GMT 41.026703 -3.204529 35,975 0 457 64
2021-10-20 18:07:39 GMT 41.016151 -3.204699 35,975 0 457 64
2021-10-20 18:07:36 GMT 41.009541 -3.204824 35,975 0 457 0
2021-10-20 18:07:31 GMT 40.999878 -3.205017 35,975 0 457 -64
2021-10-20 18:07:26 GMT 40.988453 -3.205199 36,000 0 457 -64
2021-10-20 18:07:22 GMT 40.978958 -3.205386 35,975 0 457 0
2021-10-20 18:07:19 GMT 40.973740 -3.205444 36,000 0 457 64
2021-10-20 18:07:16 GMT 40.966507 -3.205627 35,975 0 457 64
2021-10-20 18:07:11 GMT 40.956333 -3.205823 35,975 1 457 0
2021-10-20 18:07:08 GMT 40.950977 -3.205948 35,975 1 457 64
2021-10-20 18:07:06 GMT 40.945496 -3.206177 35,975 2 458 64
2021-10-20 18:07:04 GMT 40.940228 -3.206447 35,975 2 458 0
2021-10-20 18:07:01 GMT 40.934006 -3.206787 35,975 3 458 0
2021-10-20 18:06:58 GMT 40.929752 -3.207134 35,975 3 458 0
2021-10-20 18:06:55 GMT 40.923386 -3.207642 35,975 4 459 0
2021-10-20 18:06:53 GMT 40.919174 -3.208069 35,975 4 459 0
2021-10-20 18:06:48 GMT 40.907921 -3.209381 35,975 5 460 -64
2021-10-20 18:06:45 GMT 40.901726 -3.210193 35,975 6 460 0
2021-10-20 18:06:43 GMT 40.897797 -3.210754 35,975 6 461 -64
2021-10-20 18:06:39 GMT 40.875797 -3.214500 35,975 7 462 0
2021-10-20 18:06:33 GMT 40.875797 -3.214500 35,975 7 463 0
2021-10-20 18:06:30 GMT 40.869186 -3.215698 35,975 7 463 0
2021-10-20 18:06:25 GMT 40.860203 -3.217309 36,000 7 464 0
2021-10-20 18:06:23 GMT 40.854851 -3.218307 35,975 7 463 -64
2021-10-20 18:06:19 GMT 40.846848 -3.219727 35,975 7 463 -64
2021-10-20 18:06:15 GMT 40.838654 -3.221191 36,000 7 463 -64
2021-10-20 18:06:12 GMT 40.831432 -3.222490 36,000 7 463 -64
2021-10-20 18:06:09 GMT 40.825150 -3.223633 36,000 7 463 -64
2021-10-20 18:06:03 GMT 40.811508 -3.226074 36,000 7 463 0
2021-10-20 18:05:59 GMT 40.802990 -3.227608 36,000 7 464 0
2021-10-20 18:05:55 GMT 40.795403 -3.228982 36,000 7 464 0
2021-10-20 18:05:51 GMT 40.787979 -3.230347 36,000 7 464 0
2021-10-20 18:05:48 GMT 40.780739 -3.231666 36,000 7 464 0
2021-10-20 18:05:45 GMT 40.774639 -3.232727 36,000 7 464 -64
2021-10-20 18:05:42 GMT 40.767796 -3.233975 36,000 7 465 0
2021-10-20 18:05:39 GMT 40.762814 -3.234849 36,000 7 465 0
2021-10-20 18:05:34 GMT 40.751770 -3.236877 36,000 7 465 -64
2021-10-20 18:05:31 GMT 40.735397 -3.239906 36,025 7 465 0
2021-10-20 18:05:28 GMT 40.735397 -3.239906 36,025 7 465 -64
2021-10-20 18:05:25 GMT 40.731308 -3.240601 36,025 7 465 -64
2021-10-20 18:05:20 GMT 40.720871 -3.242554 36,025 7 465 0
2021-10-20 18:05:18 GMT 40.717026 -3.243225 36,025 7 465 -64
2021-10-20 18:05:15 GMT 40.709278 -3.244650 36,025 7 465 -64
2021-10-20 18:05:11 GMT 40.701645 -3.246023 36,025 7 465 0
2021-10-20 18:05:08 GMT 40.696014 -3.247022 36,025 7 465 0
2021-10-20 18:05:05 GMT 40.688690 -3.248352 36,025 7 465 0
2021-10-20 18:05:01 GMT 40.680588 -3.249817 36,025 7 466 0
2021-10-20 18:04:57 GMT 40.670380 -3.251648 36,025 7 466 0
2021-10-20 18:04:54 GMT 40.666306 -3.252380 36,025 7 466 0
2021-10-20 18:04:52 GMT 40.660355 -3.253451 36,025 7 466 0
2021-10-20 18:04:49 GMT 40.653744 -3.254637 36,025 7 466 0
2021-10-20 18:04:44 GMT 40.645550 -3.256135 36,025 7 466 0
2021-10-20 18:04:41 GMT 40.638245 -3.257446 36,025 7 467 64
2021-10-20 18:04:38 GMT 40.630978 -3.258757 36,025 7 467 64
2021-10-20 18:04:34 GMT 40.623276 -3.260132 36,025 7 467 0
2021-10-20 18:04:30 GMT 40.615479 -3.261566 36,025 7 467 0
2021-10-20 18:04:28 GMT 40.610184 -3.262512 36,025 7 467 0
2021-10-20 18:04:24 GMT 40.601978 -3.264001 36,025 7 467 64
2021-10-20 18:04:21 GMT 40.594761 -3.265312 36,025 7 467 64
2021-10-20 18:04:18 GMT 40.588348 -3.266418 36,025 7 468 0
2021-10-20 18:04:14 GMT 40.580612 -3.267822 36,025 7 468 0
2021-10-20 18:04:11 GMT 40.573654 -3.269043 36,025 7 468 0
2021-10-20 18:04:08 GMT 40.566830 -3.270305 36,025 7 468 0
2021-10-20 18:04:04 GMT 40.558640 -3.271729 36,025 7 468 0
2021-10-20 18:04:00 GMT 40.551003 -3.273114 36,025 7 468 64
2021-10-20 18:03:57 GMT 40.544403 -3.274292 36,025 7 468 0
2021-10-20 18:03:54 GMT 40.536385 -3.275736 36,025 7 468 0
2021-10-20 18:03:51 GMT 40.528053 -3.277234 36,000 7 468 64
2021-10-20 18:03:48 GMT 40.522522 -3.278198 36,000 7 468 64
2021-10-20 18:03:43 GMT 40.514694 -3.279602 36,000 7 468 0
2021-10-20 18:03:40 GMT 40.506775 -3.281006 36,000 7 469 0
2021-10-20 18:03:37 GMT 40.501053 -3.282041 36,000 7 469 0
2021-10-20 18:03:33 GMT 40.493046 -3.283476 36,000 7 469 0
2021-10-20 18:03:30 GMT 40.485458 -3.284787 36,000 7 469 64
2021-10-20 18:03:27 GMT 40.479267 -3.285911 36,000 7 469 0
2021-10-20 18:03:23 GMT 40.470428 -3.287537 36,000 7 469 0
2021-10-20 18:03:19 GMT 40.461620 -3.289094 36,000 7 469 0
2021-10-20 18:03:17 GMT 40.456924 -3.289917 36,000 7 469 64
2021-10-20 18:03:13 GMT 40.449055 -3.291342 36,000 7 469 64
2021-10-20 18:03:10 GMT 40.442768 -3.292465 36,000 7 469 64
2021-10-20 18:03:08 GMT 40.438534 -3.293214 36,000 7 469 64
2021-10-20 18:03:03 GMT 40.428337 -3.295025 36,000 7 469 64
2021-10-20 18:02:58 GMT 40.416328 -3.297147 35,975 7 469 64
2021-10-20 18:02:53 GMT 40.406982 -3.298767 35,975 7 469 0
2021-10-20 18:02:51 GMT 40.402828 -3.299519 35,975 7 469 0
2021-10-20 18:02:47 GMT 40.394257 -3.301025 35,975 7 469 64
2021-10-20 18:02:42 GMT 40.380661 -3.303467 35,975 7 469 0
2021-10-20 18:02:37 GMT 40.372742 -3.304871 35,975 7 469 -64
2021-10-20 18:02:31 GMT 40.357719 -3.307509 35,975 7 469 0
2021-10-20 18:02:27 GMT 40.351154 -3.308695 36,000 7 469 -64
2021-10-20 18:02:23 GMT 40.341751 -3.310364 36,000 7 469 -64
2021-10-20 18:02:21 GMT 40.336117 -3.311317 36,000 7 469 -64
2021-10-20 18:02:18 GMT 40.329025 -3.312622 36,000 7 469 -64
2021-10-20 18:02:13 GMT 40.320057 -3.314188 36,000 7 468 -64
2021-10-20 18:02:11 GMT 40.315960 -3.314937 36,000 7 468 -64
2021-10-20 18:02:07 GMT 40.307007 -3.316528 36,000 7 469 -64
2021-10-20 18:02:03 GMT 40.298218 -3.318054 36,000 7 469 -64
2021-10-20 18:02:01 GMT 40.293941 -3.318807 36,000 7 469 -64
2021-10-20 18:01:57 GMT 40.286213 -3.320181 36,000 7 469 0
2021-10-20 18:01:53 GMT 40.271503 -3.322802 36,000 7 469 0
2021-10-20 18:01:50 GMT 40.271503 -3.322802 36,000 7 470 0
2021-10-20 18:01:47 GMT 40.263885 -3.324158 36,000 7 470 0
2021-10-20 18:01:43 GMT 40.255417 -3.325684 36,000 7 470 64
2021-10-20 18:01:40 GMT 40.249252 -3.326797 36,000 7 470 0
2021-10-20 18:01:37 GMT 40.242279 -3.328003 36,000 7 470 0
2021-10-20 18:01:33 GMT 40.228024 -3.330543 36,000 7 471 0
2021-10-20 18:01:31 GMT 40.228024 -3.330543 36,000 7 471 0
2021-10-20 18:01:27 GMT 40.220398 -3.331909 36,000 7 471 0
2021-10-20 18:01:23 GMT 40.203049 -3.334961 36,000 7 472 0
2021-10-20 18:01:20 GMT 40.203049 -3.334961 36,000 7 471 64
2021-10-20 18:01:16 GMT 40.198601 -3.335786 36,000 7 471 64
2021-10-20 18:01:13 GMT 40.190369 -3.337219 35,975 7 471 64
2021-10-20 18:01:10 GMT 40.184143 -3.338318 35,975 7 472 0
2021-10-20 18:01:07 GMT 40.175884 -3.339781 35,975 7 472 0
2021-10-20 18:01:01 GMT 40.165237 -3.341675 35,975 7 472 0
2021-10-20 18:00:58 GMT 40.158371 -3.342896 35,975 7 472 0
2021-10-20 18:00:55 GMT 40.152794 -3.343839 35,975 7 471 0
2021-10-20 18:00:52 GMT 40.146603 -3.344962 36,000 7 471 0
2021-10-20 18:00:49 GMT 40.138000 -3.346497 36,000 7 471 0
2021-10-20 18:00:46 GMT 40.132545 -3.347459 36,000 7 471 0
2021-10-20 18:00:39 GMT 40.115086 -3.350518 36,000 7 471 -64
2021-10-20 18:00:36 GMT 40.110580 -3.351318 36,000 7 471 -64
2021-10-20 18:00:31 GMT 40.097260 -3.353702 36,000 7 471 -64
2021-10-20 18:00:26 GMT 40.089249 -3.355103 36,000 7 471 0
2021-10-20 18:00:22 GMT 40.081291 -3.356511 36,025 7 471 -64
2021-10-20 18:00:20 GMT 40.077194 -3.357197 36,025 7 471 -64
2021-10-20 18:00:16 GMT 40.067184 -3.359009 36,025 7 471 -64
2021-10-20 18:00:11 GMT 40.059086 -3.360381 36,025 7 471 -64
2021-10-20 18:00:09 GMT 40.053734 -3.361317 36,025 7 471 -64
2021-10-20 18:00:06 GMT 40.046005 -3.362690 36,025 7 471 0
2021-10-20 18:00:02 GMT 40.037842 -3.364136 36,025 7 471 0
2021-10-20 17:59:59 GMT 40.031479 -3.365250 36,025 7 471 0
2021-10-20 17:59:56 GMT 40.022919 -3.366760 36,025 7 471 0
2021-10-20 17:59:52 GMT 40.016724 -3.367871 36,025 7 471 0
2021-10-20 17:59:50 GMT 40.011475 -3.368774 36,025 7 471 0
2021-10-20 17:59:45 GMT 39.999683 -3.370868 36,025 7 472 64
2021-10-20 17:59:42 GMT 39.994797 -3.371742 36,025 7 472 0
2021-10-20 17:59:40 GMT 39.989445 -3.372678 36,025 7 472 0
2021-10-20 17:59:37 GMT 39.982834 -3.373801 36,025 7 472 64
2021-10-20 17:59:34 GMT 39.977341 -3.374738 36,025 7 473 0
2021-10-20 17:59:30 GMT 39.965561 -3.376831 36,025 7 473 0
2021-10-20 17:59:25 GMT 39.958008 -3.378113 36,025 7 473 0
2021-10-20 17:59:22 GMT 39.951408 -3.379295 36,025 7 473 0
2021-10-20 17:59:19 GMT 39.944183 -3.380554 36,000 7 473 0
2021-10-20 17:59:15 GMT 39.935349 -3.382104 36,000 7 473 0
2021-10-20 17:59:12 GMT 39.929253 -3.383165 36,000 7 473 0
2021-10-20 17:59:09 GMT 39.922668 -3.384277 36,000 7 473 64
2021-10-20 17:59:05 GMT 39.914200 -3.385759 36,000 7 473 64
2021-10-20 17:59:02 GMT 39.907700 -3.386894 36,000 7 473 64
2021-10-20 17:58:58 GMT 39.899780 -3.388327 36,000 7 473 64
2021-10-20 17:58:55 GMT 39.890984 -3.389832 36,000 7 473 64
2021-10-20 17:58:52 GMT 39.886097 -3.390686 36,000 7 473 64
2021-10-20 17:58:48 GMT 39.878464 -3.392029 36,000 7 474 0
2021-10-20 17:58:45 GMT 39.868641 -3.393738 35,975 7 474 0
2021-10-20 17:58:42 GMT 39.864304 -3.394537 35,975 7 474 0
2021-10-20 17:58:38 GMT 39.856018 -3.395970 36,000 7 473 0
2021-10-20 17:58:35 GMT 39.849926 -3.397034 35,975 7 473 0
2021-10-20 17:58:32 GMT 39.841782 -3.398477 35,975 7 473 0
2021-10-20 17:58:29 GMT 39.836426 -3.399433 35,975 7 473 0
2021-10-20 17:58:25 GMT 39.820271 -3.402283 35,975 7 473 0
2021-10-20 17:58:22 GMT 39.820271 -3.402283 35,975 7 473 0
2021-10-20 17:58:19 GMT 39.814636 -3.403254 35,975 7 473 0
2021-10-20 17:58:15 GMT 39.806725 -3.404663 35,975 7 472 0
2021-10-20 17:58:12 GMT 39.798843 -3.406060 35,975 7 472 0
2021-10-20 17:58:09 GMT 39.791977 -3.407254 35,975 7 472 0
2021-10-20 17:58:06 GMT 39.783401 -3.408752 35,975 7 472 0
2021-10-20 17:58:02 GMT 39.776138 -3.410001 35,975 7 472 0
2021-10-20 17:57:58 GMT 39.768318 -3.411377 35,975 7 472 0
2021-10-20 17:57:55 GMT 39.761990 -3.412476 35,975 7 472 0
2021-10-20 17:57:52 GMT 39.755051 -3.413696 35,975 7 472 0
2021-10-20 17:57:47 GMT 39.745697 -3.415315 35,975 7 472 -64
2021-10-20 17:57:44 GMT 39.736012 -3.416992 36,000 7 472 -64
2021-10-20 17:57:41 GMT 39.732880 -3.417524 36,000 7 472 -64
2021-10-20 17:57:37 GMT 39.724548 -3.418957 36,000 7 472 -64
2021-10-20 17:57:34 GMT 39.717251 -3.420288 36,000 7 472 0
2021-10-20 17:57:31 GMT 39.711060 -3.421326 36,000 7 471 0
2021-10-20 17:57:28 GMT 39.703426 -3.422668 36,000 7 471 0
2021-10-20 17:57:25 GMT 39.696625 -3.423853 36,000 7 471 0
2021-10-20 17:57:21 GMT 39.681381 -3.426481 36,000 7 471 0
2021-10-20 17:57:18 GMT 39.681381 -3.426481 36,000 7 471 0
2021-10-20 17:57:13 GMT 39.671722 -3.428162 36,000 7 472 0
2021-10-20 17:57:10 GMT 39.666183 -3.429138 36,000 7 472 -64
2021-10-20 17:57:07 GMT 39.658585 -3.430421 36,000 7 472 0
2021-10-20 17:57:04 GMT 39.652962 -3.431396 36,000 7 472 0
2021-10-20 17:57:01 GMT 39.643021 -3.433168 36,000 7 472 0
2021-10-20 17:56:58 GMT 39.631439 -3.435138 36,000 7 472 0
2021-10-20 17:56:55 GMT 39.631439 -3.435138 36,000 7 472 0
2021-10-20 17:56:50 GMT 39.621460 -3.436870 36,000 7 472 0
2021-10-20 17:56:48 GMT 39.616287 -3.437765 36,000 7 472 0
2021-10-20 17:56:44 GMT 39.605759 -3.439616 36,000 7 472 0
2021-10-20 17:56:41 GMT 39.602314 -3.440247 36,000 7 472 0
2021-10-20 17:56:39 GMT 39.599102 -3.440796 36,000 7 472 0
2021-10-20 17:56:36 GMT 39.592770 -3.441895 36,000 7 472 0
2021-10-20 17:56:33 GMT 39.584015 -3.443378 36,000 7 472 0
2021-10-20 17:56:30 GMT 39.579597 -3.444153 36,000 7 472 0
2021-10-20 17:56:27 GMT 39.571499 -3.445557 36,000 7 472 0
2021-10-20 17:56:23 GMT 39.562557 -3.447144 36,000 7 473 0
2021-10-20 17:56:20 GMT 39.555222 -3.448393 36,000 7 473 0
2021-10-20 17:56:16 GMT 39.549591 -3.449349 36,000 7 473 0
2021-10-20 17:56:11 GMT 39.536491 -3.451599 36,000 7 473 0
2021-10-20 17:56:09 GMT 39.533249 -3.452155 36,000 7 473 -64
2021-10-20 17:56:05 GMT 39.525146 -3.453588 36,025 7 473 0
2021-10-20 17:56:01 GMT 39.515396 -3.455260 36,025 7 473 0
2021-10-20 17:55:57 GMT 39.506332 -3.456812 36,000 7 473 0
2021-10-20 17:55:53 GMT 39.498039 -3.458252 36,000 7 473 0
2021-10-20 17:55:50 GMT 39.492638 -3.459229 36,000 7 473 0
2021-10-20 17:55:46 GMT 39.483093 -3.460876 36,000 7 473 0
2021-10-20 17:55:42 GMT 39.475159 -3.462246 36,000 7 473 0
2021-10-20 17:55:39 GMT 39.466568 -3.463745 36,000 7 473 0
2021-10-20 17:55:36 GMT 39.460968 -3.464694 36,000 7 473 0
2021-10-20 17:55:31 GMT 39.449203 -3.466724 36,000 7 473 0
2021-10-20 17:55:28 GMT 39.444641 -3.467529 36,000 7 473 0
2021-10-20 17:55:25 GMT 39.438812 -3.468515 36,000 7 473 0
2021-10-20 17:55:21 GMT 39.427746 -3.470459 36,000 7 473 0
2021-10-20 17:55:16 GMT 39.418945 -3.471978 36,000 7 473 64
2021-10-20 17:55:13 GMT 39.412567 -3.473022 36,000 7 473 64
2021-10-20 17:55:10 GMT 39.406174 -3.474128 36,000 7 473 64
2021-10-20 17:55:05 GMT 39.393173 -3.476397 36,000 7 473 0
2021-10-20 17:55:00 GMT 39.383743 -3.478009 36,000 7 474 0
2021-10-20 17:54:57 GMT 39.365273 -3.481201 36,000 7 474 0
2021-10-20 17:54:52 GMT 39.365273 -3.481201 36,000 7 474 0
2021-10-20 17:54:49 GMT 39.360802 -3.481995 36,000 7 474 0
2021-10-20 17:54:47 GMT 39.355167 -3.482971 36,000 7 474 0
2021-10-20 17:54:43 GMT 39.344193 -3.484875 36,000 7 474 0
2021-10-20 17:54:40 GMT 39.341019 -3.485413 36,000 7 473 0
2021-10-20 17:54:36 GMT 39.332428 -3.486846 36,000 7 473 0
2021-10-20 17:54:32 GMT 39.322723 -3.488525 36,000 7 473 0
2021-10-20 17:54:29 GMT 39.315720 -3.489712 36,000 7 473 0
2021-10-20 17:54:25 GMT 39.307686 -3.491089 36,000 7 473 0
2021-10-20 17:54:22 GMT 39.299400 -3.492554 36,000 7 473 0
2021-10-20 17:54:19 GMT 39.295212 -3.493294 36,000 7 473 0
2021-10-20 17:54:16 GMT 39.288391 -3.494429 36,000 7 473 0
2021-10-20 17:54:13 GMT 39.282036 -3.495544 36,000 7 473 0
2021-10-20 17:54:10 GMT 39.274933 -3.496757 36,000 7 473 0
2021-10-20 17:54:06 GMT 39.265274 -3.498429 36,000 7 473 0
2021-10-20 17:54:03 GMT 39.259644 -3.499390 36,000 7 473 0
2021-10-20 17:53:59 GMT 39.252056 -3.500732 36,000 7 473 0
2021-10-20 17:53:53 GMT 39.238602 -3.503052 36,000 7 473 0
2021-10-20 17:53:50 GMT 39.230759 -3.504400 36,000 7 473 0
2021-10-20 17:53:46 GMT 39.221378 -3.506042 36,000 7 473 0
2021-10-20 17:53:43 GMT 39.215557 -3.507019 36,000 7 473 0
2021-10-20 17:53:40 GMT 39.209415 -3.508057 36,000 7 473 0
2021-10-20 17:53:33 GMT 39.194283 -3.510681 36,000 7 473 0
2021-10-20 17:53:30 GMT 39.187256 -3.511902 36,000 7 473 0
2021-10-20 17:53:25 GMT 39.177567 -3.513535 36,000 7 473 0
2021-10-20 17:53:22 GMT 39.170589 -3.514709 36,000 7 473 0
2021-10-20 17:53:19 GMT 39.164200 -3.515804 36,025 7 473 0
2021-10-20 17:53:12 GMT 39.148895 -3.518433 36,025 7 473 0
2021-10-20 17:53:09 GMT 39.142982 -3.519409 36,025 7 473 0
2021-10-20 17:53:04 GMT 39.132835 -3.521179 36,025 7 473 0
2021-10-20 17:53:00 GMT 39.121902 -3.523029 36,025 7 473 0
2021-10-20 17:52:54 GMT 39.110001 -3.524999 36,025 7 473 0
2021-10-20 17:52:50 GMT 39.099152 -3.526850 36,025 7 473 0
2021-10-20 17:52:42 GMT 39.084457 -3.529358 36,025 7 473 0
2021-10-20 17:52:39 GMT 39.076630 -3.530671 36,025 7 473 0
2021-10-20 17:52:34 GMT 39.066032 -3.532471 36,025 7 473 0
2021-10-20 17:52:29 GMT 39.054909 -3.534302 36,025 7 472 0
2021-10-20 17:52:23 GMT 39.043549 -3.536255 36,025 7 472 0
2021-10-20 17:52:19 GMT 39.034843 -3.537659 36,025 7 472 0
2021-10-20 17:52:14 GMT 39.021057 -3.539926 36,000 7 472 64
2021-10-20 17:52:09 GMT 39.011490 -3.541538 36,000 7 472 0
2021-10-20 17:52:01 GMT 38.994621 -3.544312 36,000 7 472 64
2021-10-20 17:51:58 GMT 38.989014 -3.545240 36,000 7 472 64
2021-10-20 17:51:52 GMT 38.976700 -3.547302 36,000 7 473 0
2021-10-20 17:51:48 GMT 38.967224 -3.549062 36,000 8 473 0
2021-10-20 17:51:41 GMT 38.951157 -3.552286 36,000 9 474 0
2021-10-20 17:51:38 GMT 38.945744 -3.553406 36,000 9 474 0
2021-10-20 17:51:33 GMT 38.932892 -3.556091 36,000 9 473 0
2021-10-20 17:51:29 GMT 38.924141 -3.557922 36,000 9 473 0
2021-10-20 17:51:21 GMT 38.907757 -3.561401 36,000 9 472 0
2021-10-20 17:51:18 GMT 38.902588 -3.562500 36,000 9 472 0
2021-10-20 17:51:10 GMT 38.884918 -3.566258 36,000 9 472 0
2021-10-20 17:51:07 GMT 38.879452 -3.567444 36,000 9 472 0
2021-10-20 17:51:00 GMT 38.863815 -3.570736 36,000 9 472 64
2021-10-20 17:50:56 GMT 38.855942 -3.572408 36,000 9 472 0
2021-10-20 17:50:52 GMT 38.844315 -3.574915 36,000 9 472 64
2021-10-20 17:50:49 GMT 38.831360 -3.577662 36,000 9 472 0
2021-10-20 17:50:45 GMT 38.831360 -3.577662 36,000 9 472 0
2021-10-20 17:50:39 GMT 38.817490 -3.580627 36,000 9 472 0
2021-10-20 17:50:35 GMT 38.809982 -3.582200 36,000 9 472 0
2021-10-20 17:50:28 GMT 38.794449 -3.585510 36,000 9 472 0
2021-10-20 17:50:25 GMT 38.787510 -3.586975 36,000 9 472 0
2021-10-20 17:50:18 GMT 38.770294 -3.590619 36,000 9 472 0
2021-10-20 17:50:15 GMT 38.766468 -3.591431 36,000 9 471 0
2021-10-20 17:50:09 GMT 38.752533 -3.594321 36,000 9 471 0
2021-10-20 17:50:04 GMT 38.742828 -3.596351 36,000 9 471 0
2021-10-20 17:49:57 GMT 38.728271 -3.599396 36,000 9 470 0
2021-10-20 17:49:54 GMT 38.721359 -3.600888 36,000 9 470 0
2021-10-20 17:49:48 GMT 38.707260 -3.603814 36,025 9 470 0
2021-10-20 17:49:43 GMT 38.698608 -3.605665 36,025 9 470 0
2021-10-20 17:49:38 GMT 38.686707 -3.608113 36,000 9 470 0
2021-10-20 17:49:32 GMT 38.674809 -3.610657 36,000 9 470 64
2021-10-20 17:49:27 GMT 38.664242 -3.612915 36,000 9 470 128
2021-10-20 17:49:23 GMT 38.655441 -3.614741 35,975 9 471 192
2021-10-20 17:49:17 GMT 38.642220 -3.617493 35,950 9 473 384
2021-10-20 17:49:12 GMT 38.631317 -3.619816 35,925 9 473 448
2021-10-20 17:49:09 GMT 38.623646 -3.621399 35,925 9 473 640
2021-10-20 17:49:06 GMT 38.618179 -3.622563 35,900 9 472 704
2021-10-20 17:49:00 GMT 38.604935 -3.625366 35,800 9 472 768
2021-10-20 17:48:56 GMT 38.597305 -3.626921 35,800 9 472 768
2021-10-20 17:48:50 GMT 38.583145 -3.629944 35,675 9 472 832
2021-10-20 17:48:46 GMT 38.574005 -3.631817 35,625 9 472 960
2021-10-20 17:48:42 GMT 38.565735 -3.633606 35,550 9 472 960
2021-10-20 17:48:36 GMT 38.537849 -3.639465 34,750 9 473 1216
2021-10-20 17:48:29 GMT 38.537849 -3.639465 35,325 9 472 1088
2021-10-20 17:48:26 GMT 38.520630 -3.643043 35,100 9 474 896
2021-10-20 17:48:21 GMT 38.520630 -3.643043 35,175 9 473 1216
2021-10-20 17:48:17 GMT 38.512245 -3.644775 34,700 9 474 896
2021-10-20 17:48:14 GMT 38.506756 -3.645935 35,025 9 474 960
2021-10-20 17:48:11 GMT 38.499298 -3.647521 34,950 9 474 1152
2021-10-20 17:48:07 GMT 38.483665 -3.650757 34,875 9 474 1024
2021-10-20 17:48:04 GMT 38.483665 -3.650757 34,825 9 474 960
2021-10-20 17:48:00 GMT 38.476543 -3.652222 34,775 9 474 896
2021-10-20 17:47:55 GMT 38.465561 -3.654507 34,700 9 474 960
2021-10-20 17:47:50 GMT 38.453293 -3.657074 34,625 9 474 1024
2021-10-20 17:47:45 GMT 38.443398 -3.659180 34,525 9 474 1088
2021-10-20 17:47:39 GMT 38.430084 -3.661970 34,425 9 474 1088
2021-10-20 17:47:36 GMT 38.423172 -3.663403 34,200 9 474 1088
2021-10-20 17:47:25 GMT 38.380363 -3.672359 34,175 9 474 1088
2021-10-20 17:47:16 GMT 38.380363 -3.672359 33,725 9 474 1024
2021-10-20 17:47:09 GMT 38.366043 -3.675336 33,925 9 474 960
2021-10-20 17:47:06 GMT 38.358532 -3.676897 33,850 9 474 960
2021-10-20 17:47:02 GMT 38.350666 -3.678509 33,800 9 474 1024
2021-10-20 17:46:53 GMT 38.330475 -3.682757 33,650 9 473 1024
2021-10-20 17:46:46 GMT 38.313354 -3.686322 31,775 9 480 1344
2021-10-20 17:46:40 GMT 38.302963 -3.688484 33,425 9 473 960
2021-10-20 17:46:35 GMT 38.291611 -3.690880 33,325 9 473 1024
2021-10-20 17:46:31 GMT 38.282604 -3.692720 33,275 9 473 960
2021-10-20 17:46:25 GMT 38.269318 -3.695497 33,175 9 472 960
2021-10-20 17:46:22 GMT 38.262821 -3.696840 33,100 9 472 1088
2021-10-20 17:46:14 GMT 38.239731 -3.701616 32,850 9 472 1792
2021-10-20 17:46:05 GMT 38.225300 -3.704602 32,625 9 475 2048
2021-10-20 17:45:54 GMT 38.202805 -3.709288 32,225 9 478 1600
2021-10-20 17:45:42 GMT 38.175907 -3.714872 32,000 9 479 1344
2021-10-20 17:45:34 GMT 38.158543 -3.718454 31,750 9 480 1344
2021-10-20 17:45:31 GMT 38.152584 -3.719708 31,775 9 480 1408
2021-10-20 17:45:23 GMT 38.135742 -3.723196 31,575 9 481 1472
2021-10-20 17:45:20 GMT 38.128189 -3.724774 31,500 9 481 1472
2021-10-20 17:45:14 GMT 38.115005 -3.727521 31,325 9 482 1280
2021-10-20 17:45:11 GMT 38.108368 -3.728923 31,300 9 482 1280
2021-10-20 17:45:03 GMT 38.090240 -3.732663 31,100 9 482 1216
2021-10-20 17:45:00 GMT 38.085297 -3.733657 31,075 9 482 1216
2021-10-20 17:44:52 GMT 38.066509 -3.737561 30,900 9 481 1280
2021-10-20 17:44:41 GMT 38.042999 -3.742457 30,625 9 482 1664
2021-10-20 17:44:31 GMT 38.013931 -3.748442 30,325 9 483 1280
2021-10-20 17:44:22 GMT 37.986420 -3.754110 30,175 9 483 1152
2021-10-20 17:44:15 GMT 37.986420 -3.754110 30,075 9 483 1088
2021-10-20 17:44:12 GMT 37.978016 -3.755832 30,000 9 482 896
2021-10-20 17:44:08 GMT 37.969208 -3.757675 29,950 9 482 896
2021-10-20 17:43:59 GMT 37.950439 -3.761532 29,825 9 479 768
2021-10-20 17:43:52 GMT 37.910934 -3.769713 29,675 9 476 896
2021-10-20 17:43:41 GMT 37.910934 -3.769713 29,550 9 475 1152
2021-10-20 17:43:36 GMT 37.901016 -3.771774 29,475 9 475 1152
2021-10-20 17:43:29 GMT 37.885563 -3.774938 29,325 9 474 1280
2021-10-20 17:43:19 GMT 37.864243 -3.779355 29,075 9 473 1600
2021-10-20 17:43:10 GMT 37.843060 -3.783715 28,825 9 474 1664
2021-10-20 17:43:07 GMT 37.826626 -3.787178 28,700 9 474 1408
2021-10-20 17:43:03 GMT 37.826626 -3.787178 28,625 9 474 1280
2021-10-20 17:42:59 GMT 37.820984 -3.788296 28,575 9 474 1216
2021-10-20 17:42:49 GMT 37.798370 -3.792970 28,400 9 472 960
2021-10-20 17:42:39 GMT 37.776024 -3.797568 28,225 9 469 1024
2021-10-20 17:42:30 GMT 37.751026 -3.802703 28,000 9 467 1088
2021-10-20 17:42:21 GMT 37.739059 -3.805151 27,900 9 466 960
2021-10-20 17:42:18 GMT 37.731812 -3.806646 27,850 9 465 1024
2021-10-20 17:42:08 GMT 37.710991 -3.810942 27,650 9 463 1216
2021-10-20 17:41:58 GMT 37.689468 -3.815412 27,450 9 461 1216
2021-10-20 17:41:51 GMT 37.673981 -3.818645 27,300 9 460 1664
2021-10-20 17:41:47 GMT 37.666950 -3.820078 27,225 9 459 1728
2021-10-20 17:41:41 GMT 37.653946 -3.822833 27,025 9 460 1664
2021-10-20 17:41:37 GMT 37.645260 -3.824615 26,925 9 459 1472
2021-10-20 17:41:27 GMT 37.624962 -3.828914 26,700 10 457 1216
2021-10-20 17:41:18 GMT 37.606480 -3.833393 26,500 12 457 1152
2021-10-20 17:41:15 GMT 37.599125 -3.835482 26,450 13 456 1152
2021-10-20 17:41:09 GMT 37.586792 -3.839371 26,300 15 456 1344
2021-10-20 17:41:06 GMT 37.582272 -3.840916 26,300 15 456 1344
2021-10-20 17:40:58 GMT 37.565559 -3.847066 26,100 16 455 1472
2021-10-20 17:40:55 GMT 37.559834 -3.849156 26,025 16 455 1472
2021-10-20 17:40:51 GMT 37.550198 -3.852858 25,900 16 454 1408
2021-10-20 17:40:46 GMT 37.540329 -3.856552 25,775 16 453 1344
2021-10-20 17:40:41 GMT 37.528473 -3.860993 25,650 16 452 1344
2021-10-20 17:40:38 GMT 37.524719 -3.862454 25,625 16 452 1344
2021-10-20 17:40:35 GMT 37.518497 -3.864799 25,550 16 451 1408
2021-10-20 17:40:30 GMT 37.504066 -3.870233 25,425 16 451 1664
2021-10-20 17:40:28 GMT 37.504066 -3.870233 25,350 16 451 1664
2021-10-20 17:40:25 GMT 37.499458 -3.871964 25,300 16 449 1664
2021-10-20 17:40:21 GMT 37.490147 -3.875427 25,150 16 449 1664
2021-10-20 17:40:15 GMT 37.479580 -3.879428 25,000 16 449 1600
2021-10-20 17:40:10 GMT 37.469559 -3.883199 24,900 16 448 1536
2021-10-20 17:40:05 GMT 37.459900 -3.886823 24,775 16 447 1344
2021-10-20 17:40:01 GMT 37.449738 -3.890593 24,650 16 446 1344
2021-10-20 17:39:55 GMT 37.439217 -3.894594 24,550 16 445 1344
2021-10-20 17:39:50 GMT 37.429398 -3.898236 24,425 16 444 1472
2021-10-20 17:39:45 GMT 37.419434 -3.902016 24,300 16 443 1536
2021-10-20 17:39:41 GMT 37.410690 -3.905289 24,175 16 442 1536
2021-10-20 17:39:35 GMT 37.399651 -3.909461 24,050 16 441 1536
2021-10-20 17:39:31 GMT 37.390869 -3.912711 23,925 16 441 1536
2021-10-20 17:39:24 GMT 37.379025 -3.917163 23,775 16 440 1536
2021-10-20 17:39:21 GMT 37.371185 -3.920074 23,675 16 439 1536
2021-10-20 17:39:14 GMT 37.359650 -3.924398 23,525 16 438 1536
2021-10-20 17:39:10 GMT 37.351593 -3.927437 23,400 16 437 1600
2021-10-20 17:39:05 GMT 37.340012 -3.931820 23,250 16 436 1600
2021-10-20 17:39:00 GMT 37.331406 -3.935034 23,125 16 436 1664
2021-10-20 17:38:56 GMT 37.323486 -3.938014 23,000 16 435 1728
2021-10-20 17:38:50 GMT 37.312408 -3.942105 22,850 16 435 1792
2021-10-20 17:38:46 GMT 37.304401 -3.945107 22,725 16 434 1728
2021-10-20 17:38:40 GMT 37.293549 -3.949176 22,550 16 434 1664
2021-10-20 17:38:36 GMT 37.284668 -3.952507 22,450 16 433 1472
2021-10-20 17:38:29 GMT 37.272793 -3.956929 22,300 16 432 1472
2021-10-20 17:38:25 GMT 37.264069 -3.960221 22,175 16 430 1536
2021-10-20 17:38:20 GMT 37.254730 -3.963676 22,050 16 429 1600
2021-10-20 17:38:15 GMT 37.245235 -3.967259 21,925 16 429 1600
2021-10-20 17:38:10 GMT 37.236145 -3.970623 21,800 16 428 1600
2021-10-20 17:38:05 GMT 37.226440 -3.974246 21,650 16 426 1536
2021-10-20 17:38:00 GMT 37.216553 -3.977986 21,525 16 424 1536
2021-10-20 17:37:53 GMT 37.204742 -3.982427 21,350 16 424 1536
2021-10-20 17:37:50 GMT 37.197659 -3.985171 21,275 18 423 1472
2021-10-20 17:37:45 GMT 37.188164 -3.989172 21,125 19 422 1600
2021-10-20 17:37:39 GMT 37.178154 -3.993769 21,000 20 421 1664
2021-10-20 17:37:30 GMT 37.159904 -4.002904 20,725 23 419 1536
2021-10-20 17:37:24 GMT 37.151138 -4.007614 20,600 23 418 1408
2021-10-20 17:37:18 GMT 37.140820 -4.013115 20,450 23 416 1408
2021-10-20 17:37:14 GMT 37.132767 -4.017414 20,325 23 414 1664
2021-10-20 17:37:09 GMT 37.124386 -4.021832 20,200 23 413 1792
2021-10-20 17:37:07 GMT 37.120010 -4.024220 20,125 23 413 1792
2021-10-20 17:37:04 GMT 37.115402 -4.026668 20,050 23 412 1792
2021-10-20 17:36:59 GMT 37.105133 -4.032099 19,875 23 410 2048
2021-10-20 17:36:54 GMT 37.097763 -4.036015 19,725 23 409 2112
2021-10-20 17:36:48 GMT 37.086864 -4.041834 19,500 23 409 1984
2021-10-20 17:36:44 GMT 37.079910 -4.045540 19,375 23 408 1856
2021-10-20 17:36:40 GMT 37.073132 -4.049119 19,275 23 407 1792
2021-10-20 17:36:37 GMT 37.068878 -4.051384 19,200 23 407 1792
2021-10-20 17:36:30 GMT 37.056000 -4.058254 18,975 23 405 1856
2021-10-20 17:36:28 GMT 37.051437 -4.060675 18,875 23 404 1984
2021-10-20 17:36:23 GMT 37.043430 -4.064941 18,725 23 404 2176
2021-10-20 17:36:20 GMT 37.038254 -4.067630 18,600 23 403 2240
2021-10-20 17:36:17 GMT 37.033356 -4.070259 18,500 23 403 2240
2021-10-20 17:36:13 GMT 37.026627 -4.073824 18,350 23 403 2240
2021-10-20 17:36:10 GMT 37.021271 -4.076687 18,250 23 403 2240
2021-10-20 17:36:07 GMT 37.014427 -4.080286 18,100 23 402 2176
2021-10-20 17:36:00 GMT 37.003738 -4.085921 17,875 22 401 2112
2021-10-20 17:35:56 GMT 36.996964 -4.089544 17,750 23 401 2112
2021-10-20 17:35:50 GMT 36.986824 -4.094915 17,525 23 400 1984
2021-10-20 17:35:45 GMT 36.978195 -4.099478 17,375 23 398 1792
2021-10-20 17:35:40 GMT 36.969955 -4.103861 17,225 23 397 1792
2021-10-20 17:35:35 GMT 36.961498 -4.108349 17,075 23 395 1856
2021-10-20 17:35:30 GMT 36.952332 -4.113211 16,900 23 394 1920
2021-10-20 17:35:22 GMT 36.940201 -4.119698 16,675 23 392 1792
2021-10-20 17:35:19 GMT 36.935120 -4.122386 16,600 23 391 1792
2021-10-20 17:35:15 GMT 36.926880 -4.126710 16,450 22 389 1856
2021-10-20 17:35:10 GMT 36.919231 -4.130800 16,300 22 387 1984
2021-10-20 17:35:02 GMT 36.906464 -4.137521 16,025 22 386 1984
2021-10-20 17:34:59 GMT 36.902287 -4.139696 15,950 22 385 1984
2021-10-20 17:34:54 GMT 36.892410 -4.144884 15,750 22 384 1984
2021-10-20 17:34:50 GMT 36.886459 -4.148040 15,625 22 383 1920
2021-10-20 17:34:43 GMT 36.874538 -4.154325 15,375 23 381 2112
2021-10-20 17:34:39 GMT 36.869419 -4.157071 15,250 23 380 2176
2021-10-20 17:34:33 GMT 36.859222 -4.162445 15,025 22 379 2304
2021-10-20 17:34:30 GMT 36.853638 -4.165371 14,900 22 379 2368
2021-10-20 17:34:23 GMT 36.842651 -4.171200 14,625 23 378 2240
2021-10-20 17:34:20 GMT 36.837437 -4.173928 14,500 23 377 2112
2021-10-20 17:34:13 GMT 36.825752 -4.180181 14,250 23 375 2048
2021-10-20 17:34:10 GMT 36.821655 -4.182343 14,175 23 375 2112
2021-10-20 17:34:00 GMT 36.805408 -4.190934 13,775 23 372 2496
2021-10-20 17:33:51 GMT 36.793030 -4.197464 13,450 23 370 2048
2021-10-20 17:33:48 GMT 36.788372 -4.199933 13,450 23 370 2048
2021-10-20 17:33:42 GMT 36.776001 -4.206448 13,200 22 363 1280
2021-10-20 17:33:38 GMT 36.772034 -4.208523 13,150 22 361 1152
2021-10-20 17:33:29 GMT 36.758194 -4.215775 13,000 23 353 1024
2021-10-20 17:33:19 GMT 36.743454 -4.223557 12,825 23 341 896
2021-10-20 17:33:09 GMT 36.729111 -4.231139 12,675 23 329 896
2021-10-20 17:33:03 GMT 36.720291 -4.235744 12,575 22 323 1024
2021-10-20 17:32:59 GMT 36.715256 -4.238377 12,500 22 318 1536
2021-10-20 17:32:53 GMT 36.706997 -4.242768 12,300 22 313 2176
2021-10-20 17:32:49 GMT 36.701477 -4.245644 12,125 23 311 2752
2021-10-20 17:32:43 GMT 36.693916 -4.249605 11,875 22 310 2496
2021-10-20 17:32:39 GMT 36.688702 -4.252410 11,700 23 308 2368
2021-10-20 17:32:33 GMT 36.681015 -4.256458 11,475 23 306 2368
2021-10-20 17:32:29 GMT 36.675110 -4.259540 11,300 23 304 2432
2021-10-20 17:32:23 GMT 36.667988 -4.263338 11,075 22 302 2432
2021-10-20 17:32:19 GMT 36.662292 -4.266357 10,875 22 299 2624
2021-10-20 17:32:13 GMT 36.654648 -4.270363 10,600 22 297 2944
2021-10-20 17:32:09 GMT 36.649429 -4.273109 10,400 22 297 3072
2021-10-20 17:32:03 GMT 36.642429 -4.276837 10,125 23 296 3008
2021-10-20 17:31:59 GMT 36.636337 -4.279976 9,900 22 295 2752
2021-10-20 17:31:52 GMT 36.628372 -4.284200 9,625 22 293 2240
2021-10-20 17:31:48 GMT 36.623436 -4.286772 9,500 22 289 1856
2021-10-20 17:31:42 GMT 36.616425 -4.290390 9,350 22 284 1408
2021-10-20 17:31:38 GMT 36.611008 -4.293141 9,275 22 278 1216
2021-10-20 17:31:32 GMT 36.604660 -4.296341 9,150 22 268 1344
2021-10-20 17:31:28 GMT 36.598949 -4.299219 9,025 21 262 1536
2021-10-20 17:31:22 GMT 36.593132 -4.302082 8,875 21 256 1664
2021-10-20 17:31:19 GMT 36.589268 -4.304011 8,775 22 253 1792
2021-10-20 17:31:17 GMT 36.587585 -4.304867 8,725 22 250 1856
2021-10-20 17:31:12 GMT 36.582047 -4.307728 8,550 23 246 2304
2021-10-20 17:31:07 GMT 36.576691 -4.310818 8,325 30 244 2368
2021-10-20 17:31:02 GMT 36.572136 -4.314588 8,150 39 244 2304
2021-10-20 17:30:59 GMT 36.569550 -4.317455 8,025 48 242 2432
2021-10-20 17:30:57 GMT 36.567673 -4.320087 7,925 52 242 2560
2021-10-20 17:30:49 GMT 36.563244 -4.329490 7,550 70 243 3200
2021-10-20 17:30:46 GMT 36.562363 -4.332905 7,400 76 244 3456
2021-10-20 17:30:41 GMT 36.561310 -4.339771 7,100 85 245 3840
2021-10-20 17:30:38 GMT 36.561172 -4.344120 6,900 91 248 4096
2021-10-20 17:30:36 GMT 36.561291 -4.347255 6,725 98 250 4224
2021-10-20 17:30:31 GMT 36.562267 -4.353449 6,425 106 254 4032
2021-10-20 17:30:26 GMT 36.564835 -4.361515 6,075 118 257 3392
2021-10-20 17:30:22 GMT 36.567032 -4.366264 5,875 125 258 2944
2021-10-20 17:30:15 GMT 36.571999 -4.373961 5,575 132 255 2240
2021-10-20 17:30:11 GMT 36.574997 -4.377880 5,450 133 251 2176
2021-10-20 17:30:04 GMT 36.580467 -4.385006 5,175 133 245 2432
2021-10-20 17:30:01 GMT 36.582870 -4.388123 5,050 133 243 2688
2021-10-20 17:29:55 GMT 36.588272 -4.395218 4,675 133 240 3328
2021-10-20 17:29:51 GMT 36.591064 -4.398823 4,475 133 239 3520
2021-10-20 17:29:44 GMT 36.596054 -4.405403 4,050 133 240 4032
2021-10-20 17:29:41 GMT 36.598526 -4.408550 3,850 133 241 4288
2021-10-20 17:29:34 GMT 36.604248 -4.415874 3,325 134 245 4096
2021-10-20 17:29:30 GMT 36.606865 -4.419192 3,125 134 246 3840
2021-10-20 17:29:24 GMT 36.612637 -4.426497 2,700 134 245 3200
2021-10-20 17:29:13 GMT 36.620819 -4.436817 2,225 134 237 2176
2021-10-20 17:29:03 GMT 36.628281 -4.446259 2,000 134 222 576
2021-10-20 17:28:52 GMT 36.635468 -4.455357 1,850 134 201 1280
2021-10-20 17:28:42 GMT 36.642197 -4.463722 1,625 135 187 1216
2021-10-20 17:28:31 GMT 36.648621 -4.471552 1,425 136 168 640

Making use of Plane Finder data

You are free to use the raw flight data, aircraft information and images provided in this report for your own purposes provided the data is correctly attributed to Plane Finder. We ask that you please credit Plane Finder and link to planefinder.net in close proximity to the content.

Optionally one of the following logos (no smaller then 150x24px) can be used and must link to planefinder.net

Embedding the Plane Finder map

You are welcome to embed the Plane Finder playback map on your website to offer visitors a more interactive experience. We suggest using the following HTML code:

<iframe src="//planefinder.net/data/report/BA2551-G-EUUA-7700-squawk-2021-10-20/map" width="800" height="600" seamless="seamless"></iframe>

Where our data comes from

Plane Finder has a global network of data feeds and antenna radars that receive data broadcast directly from aircraft. The primary technologies used are ADS-B and MLAT. We also show feeds from the FAA and a FLARM glider feed.

Click here to find out more about the Plane Finder network.

How we collect our data